Darstellungsparameter: Aktuell verwendete Einstellungen:
Skalierung der Graphiken ... ?
xyx+y,   Skalierungsfaktor:      Skalierung: Modus: x, Faktor: 1
Darstellungszeitraum ... ?
Vom - - bis: - -   Zeitraum: 01.12.2014 - 07.12.2014
Min/Max/Avg-Anzeige ... ?
Zeige MMA aktuell
Zeige MMA Monat
Zeige MMA alles
Zeige --A aktuell
Zeige --A Monat
Zeige --A alles
Keine MMA-Anzeige
MMA:
Keine MMA-Graphiken
MMA-Basis: 01.12.2014 - 07.12.2014
Quicknavigation für Darstellung... ?
Tage:      1T, 2T, 3T, 5T -1T -2T -3T -5T +1T +2T +3T +5T
Wochen: 1W, 2W, 3W -1W -2W -3W +1W +2W +3W
Monate: 1M, 3M, 6M -1M -3M -6M +1M +3M +6M
Jahre:    1J, 3J, 5J, 10J -1J -3J -5J -10J +1J +3J +5J +10J
Nutze für die Darstellung ... ?
Originaldaten oder Mittelwerte auf ...
Stundenbasis Tagesbasis Wochenbasis
Monatsbasis Jahresbasis      Datenbasis: Original-Daten
Darstellen als:
Statistik (Auto) Statistik J:M      Darstellung:
Zur Graphik,    zurück zur Übersicht aller Sensoren.
 
Tabellarische Datenbersicht: ?
 
Sensor: Nr:Datum:Temp:Abs-Feuchte:Windchill:Wind:
Aussen-T/F 1 01-12-2014 00:00:00 3.4 C 5.74 g/m*3 3.4 C 0 km/h
2 01-12-2014 00:05:00 3.4 C 5.74 g/m*3 3.4 C 4.8 km/h
3 01-12-2014 00:10:00 3.4 C 5.74 g/m*3 3.4 C 1.6 km/h
4 01-12-2014 00:15:00 3.4 C 5.74 g/m*3 1.23 C 8.1 km/h
5 01-12-2014 00:20:00 3.4 C 5.74 g/m*3 3.4 C 3.2 km/h
6 01-12-2014 00:25:00 3.4 C 5.74 g/m*3 0.82 C 9.7 km/h
7 01-12-2014 00:30:00 3.4 C 5.74 g/m*3 1.75 C 6.4 km/h
8 01-12-2014 00:35:00 3.4 C 5.74 g/m*3 3.4 C 1.6 km/h
9 01-12-2014 00:40:00 3.3 C 5.7 g/m*3 3.3 C 1.6 km/h
10 01-12-2014 00:45:00 3.3 C 5.7 g/m*3 3.3 C 3.2 km/h
11 01-12-2014 00:50:00 3.4 C 5.74 g/m*3 3.4 C 1.6 km/h
12 01-12-2014 00:55:00 3.3 C 5.7 g/m*3 3.3 C 3.2 km/h
13 01-12-2014 01:00:00 3.3 C 5.7 g/m*3 3.3 C 4.8 km/h
14 01-12-2014 01:05:00 3.3 C 5.7 g/m*3 1.63 C 6.4 km/h
15 01-12-2014 01:10:00 3.3 C 5.7 g/m*3 3.3 C 4.8 km/h
16 01-12-2014 01:15:00 3.3 C 5.7 g/m*3 3.3 C 3.2 km/h
17 01-12-2014 01:20:00 3.3 C 5.7 g/m*3 3.3 C 1.6 km/h
18 01-12-2014 01:25:00 3.3 C 5.7 g/m*3 3.3 C 4.8 km/h
19 01-12-2014 01:30:00 3.3 C 5.7 g/m*3 3.3 C 0 km/h
20 01-12-2014 01:35:00 3.3 C 5.76 g/m*3 3.3 C 0 km/h
21 01-12-2014 01:40:00 3.3 C 5.76 g/m*3 3.3 C 1.6 km/h
22 01-12-2014 01:45:00 3.3 C 5.76 g/m*3 3.3 C 3.2 km/h
23 01-12-2014 01:50:00 3.3 C 5.76 g/m*3 3.3 C 3.2 km/h
24 01-12-2014 01:55:00 3.3 C 5.76 g/m*3 3.3 C 4.8 km/h
25 01-12-2014 02:00:00 3.3 C 5.76 g/m*3 3.3 C 1.6 km/h
Sensor: Nr:Datum:Temp:Abs-Feuchte:Windchill:Wind:
Aussen-T/F 26 01-12-2014 02:05:00 3.3 C 5.76 g/m*3 3.3 C 1.6 km/h
27 01-12-2014 02:10:00 3.3 C 5.76 g/m*3 3.3 C 0 km/h
28 01-12-2014 02:15:00 3.3 C 5.76 g/m*3 3.3 C 0 km/h
29 01-12-2014 02:20:00 3.3 C 5.76 g/m*3 3.3 C 1.6 km/h
30 01-12-2014 02:25:00 3.3 C 5.76 g/m*3 3.3 C 0 km/h
31 01-12-2014 02:30:00 3.3 C 5.76 g/m*3 3.3 C 0 km/h
32 01-12-2014 02:35:00 3.3 C 5.76 g/m*3 3.3 C 0 km/h
33 01-12-2014 02:40:00 3.3 C 5.76 g/m*3 3.3 C 0 km/h
34 01-12-2014 02:45:00 3.3 C 5.76 g/m*3 3.3 C 0 km/h
35 01-12-2014 02:50:00 3.3 C 5.76 g/m*3 3.3 C 0 km/h
36 01-12-2014 02:55:00 3.3 C 5.76 g/m*3 3.3 C 0 km/h
37 01-12-2014 03:00:00 3.3 C 5.76 g/m*3 3.3 C 0 km/h
38 01-12-2014 03:05:00 3.3 C 5.76 g/m*3 3.3 C 4.8 km/h
39 01-12-2014 03:10:00 3.3 C 5.76 g/m*3 3.3 C 1.6 km/h
40 01-12-2014 03:15:00 3.3 C 5.76 g/m*3 3.3 C 0 km/h
41 01-12-2014 03:20:00 3.4 C 5.8 g/m*3 3.4 C 0 km/h
42 01-12-2014 03:25:00 3.4 C 5.8 g/m*3 3.4 C 1.6 km/h
43 01-12-2014 03:30:00 3.4 C 5.8 g/m*3 3.4 C 1.6 km/h
44 01-12-2014 03:35:00 3.4 C 5.8 g/m*3 3.4 C 0 km/h
45 01-12-2014 03:40:00 3.4 C 5.8 g/m*3 3.4 C 0 km/h
46 01-12-2014 03:45:00 3.5 C 5.84 g/m*3 3.5 C 0 km/h
47 01-12-2014 03:50:00 3.5 C 5.84 g/m*3 3.5 C 3.2 km/h
48 01-12-2014 03:55:00 3.5 C 5.84 g/m*3 3.5 C 4.8 km/h
49 01-12-2014 04:00:00 3.5 C 5.84 g/m*3 3.5 C 0 km/h
50 01-12-2014 04:05:00 3.6 C 5.88 g/m*3 3.6 C 4.8 km/h
Sensor: Nr:Datum:Temp:Abs-Feuchte:Windchill:Wind:
Aussen-T/F 51 01-12-2014 04:10:00 3.6 C 5.88 g/m*3 3.6 C 3.2 km/h
52 01-12-2014 04:15:00 3.6 C 5.88 g/m*3 3.6 C 4.8 km/h
53 01-12-2014 04:20:00 3.6 C 5.88 g/m*3 3.6 C 4.8 km/h
54 01-12-2014 04:25:00 3.6 C 5.88 g/m*3 3.6 C 0 km/h
55 01-12-2014 04:30:00 3.7 C 5.92 g/m*3 3.7 C 0 km/h
56 01-12-2014 04:35:00 3.6 C 5.88 g/m*3 3.6 C 3.2 km/h
57 01-12-2014 04:40:00 3.7 C 5.92 g/m*3 3.7 C 1.6 km/h
58 01-12-2014 04:45:00 3.7 C 5.92 g/m*3 3.7 C 3.2 km/h
59 01-12-2014 04:50:00 3.7 C 5.86 g/m*3 3.7 C 1.6 km/h
60 01-12-2014 04:55:00 3.7 C 5.86 g/m*3 3.7 C 1.6 km/h
61 01-12-2014 05:00:00 3.8 C 5.9 g/m*3 3.8 C 0 km/h
62 01-12-2014 05:05:00 3.8 C 5.9 g/m*3 3.8 C 0 km/h
63 01-12-2014 05:10:00 3.8 C 5.9 g/m*3 3.8 C 0 km/h
64 01-12-2014 05:15:00 3.8 C 5.9 g/m*3 3.8 C 0 km/h
65 01-12-2014 05:20:00 3.8 C 5.9 g/m*3 3.8 C 0 km/h
66 01-12-2014 05:25:00 3.8 C 5.9 g/m*3 3.8 C 0 km/h
67 01-12-2014 05:30:00 3.8 C 5.9 g/m*3 3.8 C 1.6 km/h
68 01-12-2014 05:35:00 3.8 C 5.9 g/m*3 3.8 C 1.6 km/h
69 01-12-2014 05:40:00 3.8 C 5.9 g/m*3 3.8 C 3.2 km/h
70 01-12-2014 05:45:00 3.9 C 5.94 g/m*3 3.9 C 1.6 km/h
71 01-12-2014 05:50:00 3.9 C 5.94 g/m*3 3.9 C 1.6 km/h
72 01-12-2014 05:55:00 4 C 5.98 g/m*3 4 C 3.2 km/h
73 01-12-2014 06:00:00 4 C 5.91 g/m*3 4 C 3.2 km/h
74 01-12-2014 06:05:00 4.1 C 5.95 g/m*3 4.1 C 3.2 km/h
75 01-12-2014 06:10:00 4.1 C 5.95 g/m*3 4.1 C 3.2 km/h
Sensor: Nr:Datum:Temp:Abs-Feuchte:Windchill:Wind:
Aussen-T/F 76 01-12-2014 06:15:00 4.1 C 5.95 g/m*3 2.55 C 6.4 km/h
77 01-12-2014 06:20:00 4.1 C 5.95 g/m*3 2.55 C 6.4 km/h
78 01-12-2014 06:25:00 4.1 C 5.95 g/m*3 4.1 C 4.8 km/h
79 01-12-2014 06:30:00 4.1 C 5.95 g/m*3 4.1 C 4.8 km/h
80 01-12-2014 06:35:00 4.2 C 5.99 g/m*3 4.2 C 3.2 km/h
81 01-12-2014 06:40:00 4.2 C 5.99 g/m*3 4.2 C 1.6 km/h
82 01-12-2014 06:45:00 4.2 C 5.93 g/m*3 2.17 C 8.1 km/h
83 01-12-2014 06:50:00 4.2 C 5.93 g/m*3 2.67 C 6.4 km/h
84 01-12-2014 06:55:00 4.2 C 5.93 g/m*3 4.2 C 4.8 km/h
85 01-12-2014 07:00:00 4.2 C 5.93 g/m*3 4.2 C 4.8 km/h
86 01-12-2014 07:05:00 4.2 C 5.93 g/m*3 1.43 C 11.3 km/h
87 01-12-2014 07:10:00 4.2 C 5.93 g/m*3 4.2 C 4.8 km/h
88 01-12-2014 07:15:00 4.2 C 5.93 g/m*3 4.2 C 4.8 km/h
89 01-12-2014 07:20:00 4.2 C 5.93 g/m*3 4.2 C 4.8 km/h
90 01-12-2014 07:25:00 4.2 C 5.93 g/m*3 2.17 C 8.1 km/h
91 01-12-2014 07:30:00 4.2 C 5.93 g/m*3 2.17 C 8.1 km/h
92 01-12-2014 07:35:00 4.2 C 5.93 g/m*3 2.67 C 6.4 km/h
93 01-12-2014 07:40:00 4.2 C 5.93 g/m*3 4.2 C 3.2 km/h
94 01-12-2014 07:45:00 4.1 C 5.89 g/m*3 2.05 C 8.1 km/h
95 01-12-2014 07:50:00 4.1 C 5.89 g/m*3 1 C 12.9 km/h
96 01-12-2014 07:55:00 4.1 C 5.89 g/m*3 2.05 C 8.1 km/h
97 01-12-2014 08:00:00 4.1 C 5.89 g/m*3 4.1 C 4.8 km/h
98 01-12-2014 08:05:00 4.1 C 5.89 g/m*3 4.1 C 0 km/h
99 01-12-2014 08:10:00 4.1 C 5.89 g/m*3 4.1 C 1.6 km/h
100 01-12-2014 08:15:00 4 C 5.85 g/m*3 4 C 3.2 km/h
Sensor: Nr:Datum:Temp:Abs-Feuchte:Windchill:Wind:
Aussen-T/F 101 01-12-2014 08:20:00 4 C 5.85 g/m*3 2.44 C 6.4 km/h
102 01-12-2014 08:25:00 4 C 5.85 g/m*3 4 C 4.8 km/h
103 01-12-2014 08:30:00 4 C 5.85 g/m*3 1.18 C 11.3 km/h
104 01-12-2014 08:35:00 3.9 C 5.81 g/m*3 2.32 C 6.4 km/h
105 01-12-2014 08:40:00 3.9 C 5.75 g/m*3 3.9 C 4.8 km/h
106 01-12-2014 08:45:00 3.9 C 5.75 g/m*3 2.32 C 6.4 km/h
107 01-12-2014 08:50:00 3.9 C 5.75 g/m*3 1.06 C 11.3 km/h
108 01-12-2014 08:55:00 3.9 C 5.75 g/m*3 1.06 C 11.3 km/h
109 01-12-2014 09:00:00 3.8 C 5.71 g/m*3 0.63 C 12.9 km/h
110 01-12-2014 09:05:00 3.8 C 5.71 g/m*3 1.29 C 9.7 km/h
111 01-12-2014 09:10:00 3.8 C 5.71 g/m*3 1.29 C 9.7 km/h
112 01-12-2014 09:15:00 3.8 C 5.71 g/m*3 0.63 C 12.9 km/h
113 01-12-2014 09:20:00 3.7 C 5.67 g/m*3 0.23 C 14.5 km/h
114 01-12-2014 09:25:00 3.7 C 5.67 g/m*3 0.23 C 14.5 km/h
115 01-12-2014 09:30:00 3.7 C 5.67 g/m*3 0.51 C 12.9 km/h
116 01-12-2014 09:35:00 3.7 C 5.67 g/m*3 0.51 C 12.9 km/h
117 01-12-2014 09:40:00 3.7 C 5.67 g/m*3 0.51 C 12.9 km/h
118 01-12-2014 09:45:00 3.7 C 5.67 g/m*3 1.18 C 9.7 km/h
119 01-12-2014 09:50:00 3.7 C 5.67 g/m*3 1.18 C 9.7 km/h
120 01-12-2014 09:55:00 3.7 C 5.67 g/m*3 1.18 C 9.7 km/h
121 01-12-2014 10:00:00 3.7 C 5.61 g/m*3 1.18 C 9.7 km/h
122 01-12-2014 10:05:00 3.8 C 5.65 g/m*3 1.29 C 9.7 km/h
123 01-12-2014 10:10:00 3.7 C 5.61 g/m*3 1.58 C 8.1 km/h
124 01-12-2014 10:15:00 3.7 C 5.61 g/m*3 1.18 C 9.7 km/h
125 01-12-2014 10:20:00 3.8 C 5.65 g/m*3 2.21 C 6.4 km/h
Sensor: Nr:Datum:Temp:Abs-Feuchte:Windchill:Wind:
Aussen-T/F 126 01-12-2014 10:25:00 3.8 C 5.65 g/m*3 0.94 C 11.3 km/h
127 01-12-2014 10:30:00 3.8 C 5.65 g/m*3 0.63 C 12.9 km/h
128 01-12-2014 10:35:00 3.8 C 5.65 g/m*3 1.7 C 8.1 km/h
129 01-12-2014 10:40:00 3.8 C 5.65 g/m*3 1.7 C 8.1 km/h
130 01-12-2014 10:45:00 3.8 C 5.65 g/m*3 2.21 C 6.4 km/h
131 01-12-2014 10:50:00 3.8 C 5.65 g/m*3 0.94 C 11.3 km/h
132 01-12-2014 10:55:00 3.9 C 5.68 g/m*3 0.75 C 12.9 km/h
133 01-12-2014 11:00:00 3.9 C 5.68 g/m*3 1.06 C 11.3 km/h
134 01-12-2014 11:05:00 3.9 C 5.68 g/m*3 0.75 C 12.9 km/h
135 01-12-2014 11:10:00 3.9 C 5.68 g/m*3 1.41 C 9.7 km/h
136 01-12-2014 11:15:00 3.9 C 5.62 g/m*3 1.06 C 11.3 km/h
137 01-12-2014 11:20:00 3.9 C 5.62 g/m*3 0.75 C 12.9 km/h
138 01-12-2014 11:25:00 3.9 C 5.62 g/m*3 1.06 C 11.3 km/h
139 01-12-2014 11:30:00 3.8 C 5.58 g/m*3 0.94 C 11.3 km/h
140 01-12-2014 11:35:00 3.9 C 5.62 g/m*3 0.75 C 12.9 km/h
141 01-12-2014 11:40:00 3.8 C 5.58 g/m*3 0.94 C 11.3 km/h
142 01-12-2014 11:45:00 3.9 C 5.62 g/m*3 1.41 C 9.7 km/h
143 01-12-2014 11:50:00 3.8 C 5.58 g/m*3 0.94 C 11.3 km/h
144 01-12-2014 11:55:00 3.8 C 5.58 g/m*3 0.63 C 12.9 km/h
145 01-12-2014 12:00:00 3.8 C 5.58 g/m*3 0.35 C 14.5 km/h
146 01-12-2014 12:05:00 3.8 C 5.58 g/m*3 1.29 C 9.7 km/h
147 01-12-2014 12:10:00 3.8 C 5.58 g/m*3 0.94 C 11.3 km/h
148 01-12-2014 12:15:00 3.8 C 5.58 g/m*3 0.35 C 14.5 km/h
149 01-12-2014 12:20:00 3.8 C 5.58 g/m*3 1.29 C 9.7 km/h
150 01-12-2014 12:25:00 3.8 C 5.58 g/m*3 1.7 C 8.1 km/h
Sensor: Nr:Datum:Temp:Abs-Feuchte:Windchill:Wind:
Aussen-T/F 151 01-12-2014 12:30:00 3.8 C 5.65 g/m*3 0.94 C 11.3 km/h
152 01-12-2014 12:35:00 3.8 C 5.58 g/m*3 1.7 C 8.1 km/h
153 01-12-2014 12:40:00 3.8 C 5.65 g/m*3 0.94 C 11.3 km/h
154 01-12-2014 12:45:00 3.8 C 5.58 g/m*3 2.21 C 6.4 km/h
155 01-12-2014 12:50:00 3.8 C 5.58 g/m*3 1.7 C 8.1 km/h
156 01-12-2014 12:55:00 3.8 C 5.58 g/m*3 1.29 C 9.7 km/h
157 01-12-2014 13:00:00 3.8 C 5.65 g/m*3 3.8 C 3.2 km/h
158 01-12-2014 13:05:00 3.8 C 5.65 g/m*3 3.8 C 0 km/h
159 01-12-2014 13:10:00 3.8 C 5.65 g/m*3 3.8 C 1.6 km/h
160 01-12-2014 13:15:00 3.8 C 5.65 g/m*3 3.8 C 4.8 km/h
161 01-12-2014 13:20:00 3.8 C 5.65 g/m*3 3.8 C 3.2 km/h
162 01-12-2014 13:25:00 3.8 C 5.65 g/m*3 3.8 C 3.2 km/h
163 01-12-2014 13:30:00 3.8 C 5.65 g/m*3 3.8 C 3.2 km/h
164 01-12-2014 13:35:00 3.9 C 5.68 g/m*3 3.9 C 3.2 km/h
165 01-12-2014 13:40:00 3.9 C 5.68 g/m*3 2.32 C 6.4 km/h
166 01-12-2014 13:45:00 3.9 C 5.68 g/m*3 3.9 C 4.8 km/h
167 01-12-2014 13:50:00 3.8 C 5.65 g/m*3 1.29 C 9.7 km/h
168 01-12-2014 13:55:00 3.8 C 5.65 g/m*3 3.8 C 3.2 km/h
169 01-12-2014 14:00:00 3.8 C 5.65 g/m*3 2.21 C 6.4 km/h
170 01-12-2014 14:05:00 3.7 C 5.61 g/m*3 3.7 C 0 km/h
171 01-12-2014 14:10:00 3.7 C 5.61 g/m*3 3.7 C 4.8 km/h
172 01-12-2014 14:15:00 3.7 C 5.61 g/m*3 3.7 C 4.8 km/h
173 01-12-2014 14:20:00 3.7 C 5.67 g/m*3 3.7 C 4.8 km/h
174 01-12-2014 14:25:00 3.7 C 5.67 g/m*3 3.7 C 3.2 km/h
175 01-12-2014 14:30:00 3.7 C 5.67 g/m*3 2.09 C 6.4 km/h
Sensor: Nr:Datum:Temp:Abs-Feuchte:Windchill:Wind:
Aussen-T/F 176 01-12-2014 14:35:00 3.7 C 5.61 g/m*3 2.09 C 6.4 km/h
177 01-12-2014 14:40:00 3.7 C 5.61 g/m*3 0.51 C 12.9 km/h
178 01-12-2014 14:45:00 3.6 C 5.57 g/m*3 0.7 C 11.3 km/h
179 01-12-2014 14:50:00 3.6 C 5.57 g/m*3 1.98 C 6.4 km/h
180 01-12-2014 14:55:00 3.6 C 5.57 g/m*3 0.39 C 12.9 km/h
181 01-12-2014 15:00:00 3.5 C 5.53 g/m*3 1.34 C 8.1 km/h
182 01-12-2014 15:05:00 3.4 C 5.44 g/m*3 0.82 C 9.7 km/h
183 01-12-2014 15:10:00 3.4 C 5.5 g/m*3 1.23 C 8.1 km/h
184 01-12-2014 15:15:00 3.4 C 5.5 g/m*3 0.82 C 9.7 km/h
185 01-12-2014 15:20:00 3.4 C 5.5 g/m*3 0.82 C 9.7 km/h
186 01-12-2014 15:25:00 3.4 C 5.5 g/m*3 1.75 C 6.4 km/h
187 01-12-2014 15:30:00 3.4 C 5.5 g/m*3 1.23 C 8.1 km/h
188 01-12-2014 15:35:00 3.3 C 5.46 g/m*3 0.7 C 9.7 km/h
189 01-12-2014 15:40:00 3.3 C 5.46 g/m*3 3.3 C 4.8 km/h
190 01-12-2014 15:45:00 3.3 C 5.46 g/m*3 1.63 C 6.4 km/h
191 01-12-2014 15:50:00 3.3 C 5.46 g/m*3 3.3 C 3.2 km/h
192 01-12-2014 15:55:00 3.3 C 5.46 g/m*3 3.3 C 4.8 km/h
193 01-12-2014 16:00:00 3.3 C 5.46 g/m*3 3.3 C 4.8 km/h
194 01-12-2014 16:05:00 3.2 C 5.42 g/m*3 0.22 C 11.3 km/h
195 01-12-2014 16:10:00 3.2 C 5.36 g/m*3 0.58 C 9.7 km/h
196 01-12-2014 16:15:00 3.2 C 5.36 g/m*3 0.22 C 11.3 km/h
197 01-12-2014 16:20:00 3.2 C 5.36 g/m*3 0.99 C 8.1 km/h
198 01-12-2014 16:25:00 3.2 C 5.36 g/m*3 1.51 C 6.4 km/h
199 01-12-2014 16:30:00 3.2 C 5.36 g/m*3 3.2 C 3.2 km/h
200 01-12-2014 16:35:00 3.2 C 5.36 g/m*3 3.2 C 1.6 km/h
Sensor: Nr:Datum:Temp:Abs-Feuchte:Windchill:Wind:
Aussen-T/F 201 01-12-2014 16:40:00 3.2 C 5.36 g/m*3 3.2 C 0 km/h
202 01-12-2014 16:45:00 3.2 C 5.36 g/m*3 3.2 C 3.2 km/h
203 01-12-2014 16:50:00 3.1 C 5.33 g/m*3 3.1 C 3.2 km/h
204 01-12-2014 16:55:00 3.2 C 5.36 g/m*3 3.2 C 0 km/h
205 01-12-2014 17:00:00 3.2 C 5.36 g/m*3 0.58 C 9.7 km/h
206 01-12-2014 17:05:00 3.2 C 5.36 g/m*3 0.99 C 8.1 km/h
207 01-12-2014 17:10:00 3.1 C 5.33 g/m*3 0.1 C 11.3 km/h
208 01-12-2014 17:15:00 3.1 C 5.33 g/m*3 3.1 C 4.8 km/h
209 01-12-2014 17:20:00 3.1 C 5.33 g/m*3 3.1 C 1.6 km/h
210 01-12-2014 17:25:00 3.1 C 5.33 g/m*3 0.87 C 8.1 km/h
211 01-12-2014 17:30:00 3 C 5.29 g/m*3 0.76 C 8.1 km/h
212 01-12-2014 17:35:00 2.9 C 5.26 g/m*3 -0.14 C 11.3 km/h
213 01-12-2014 17:40:00 2.9 C 5.26 g/m*3 -0.14 C 11.3 km/h
214 01-12-2014 17:45:00 2.8 C 5.22 g/m*3 2.8 C 3.2 km/h
215 01-12-2014 17:50:00 2.8 C 5.22 g/m*3 2.8 C 4.8 km/h
216 01-12-2014 17:55:00 2.8 C 5.22 g/m*3 2.8 C 4.8 km/h
217 01-12-2014 18:00:00 2.8 C 5.22 g/m*3 2.8 C 1.6 km/h
218 01-12-2014 18:05:00 2.8 C 5.22 g/m*3 2.8 C 0 km/h
219 01-12-2014 18:10:00 2.8 C 5.22 g/m*3 2.8 C 4.8 km/h
220 01-12-2014 18:15:00 2.8 C 5.28 g/m*3 2.8 C 1.6 km/h
221 01-12-2014 18:20:00 2.7 C 5.19 g/m*3 0.94 C 6.4 km/h
222 01-12-2014 18:25:00 2.7 C 5.19 g/m*3 2.7 C 4.8 km/h
223 01-12-2014 18:30:00 2.7 C 5.19 g/m*3 2.7 C 1.6 km/h
224 01-12-2014 18:35:00 2.7 C 5.19 g/m*3 2.7 C 4.8 km/h
225 01-12-2014 18:40:00 2.7 C 5.24 g/m*3 2.7 C 1.6 km/h
Sensor: Nr:Datum:Temp:Abs-Feuchte:Windchill:Wind:
Aussen-T/F 226 01-12-2014 18:45:00 2.7 C 5.19 g/m*3 2.7 C 3.2 km/h
227 01-12-2014 18:50:00 2.7 C 5.19 g/m*3 2.7 C 4.8 km/h
228 01-12-2014 18:55:00 2.7 C 5.19 g/m*3 2.7 C 1.6 km/h
229 01-12-2014 19:00:00 2.7 C 5.19 g/m*3 2.7 C 3.2 km/h
230 01-12-2014 19:05:00 2.7 C 5.19 g/m*3 2.7 C 4.8 km/h
231 01-12-2014 19:10:00 2.7 C 5.24 g/m*3 2.7 C 1.6 km/h
232 01-12-2014 19:15:00 2.7 C 5.24 g/m*3 2.7 C 3.2 km/h
233 01-12-2014 19:20:00 2.7 C 5.24 g/m*3 0.94 C 6.4 km/h
234 01-12-2014 19:25:00 2.7 C 5.24 g/m*3 2.7 C 0 km/h
235 01-12-2014 19:30:00 2.6 C 5.21 g/m*3 2.6 C 3.2 km/h
236 01-12-2014 19:35:00 2.6 C 5.21 g/m*3 2.6 C 1.6 km/h
237 01-12-2014 19:40:00 2.6 C 5.21 g/m*3 2.6 C 1.6 km/h
238 01-12-2014 19:45:00 2.6 C 5.21 g/m*3 2.6 C 3.2 km/h
239 01-12-2014 19:50:00 2.7 C 5.24 g/m*3 2.7 C 0 km/h
240 01-12-2014 19:55:00 2.6 C 5.21 g/m*3 2.6 C 1.6 km/h
241 01-12-2014 20:00:00 2.6 C 5.21 g/m*3 2.6 C 4.8 km/h
242 01-12-2014 20:05:00 2.6 C 5.21 g/m*3 2.6 C 1.6 km/h
243 01-12-2014 20:10:00 2.6 C 5.21 g/m*3 2.6 C 3.2 km/h
244 01-12-2014 20:15:00 2.6 C 5.21 g/m*3 2.6 C 1.6 km/h
245 01-12-2014 20:20:00 2.6 C 5.21 g/m*3 2.6 C 0 km/h
246 01-12-2014 20:25:00 2.6 C 5.21 g/m*3 2.6 C 0 km/h
247 01-12-2014 20:30:00 2.6 C 5.21 g/m*3 2.6 C 0 km/h
248 01-12-2014 20:35:00 2.6 C 5.21 g/m*3 2.6 C 0 km/h
249 01-12-2014 20:40:00 2.6 C 5.21 g/m*3 2.6 C 0 km/h
250 01-12-2014 20:45:00 2.6 C 5.21 g/m*3 2.6 C 0 km/h
Sensor: Nr:Datum:Temp:Abs-Feuchte:Windchill:Wind:
Aussen-T/F 251 01-12-2014 20:50:00 2.5 C 5.17 g/m*3 2.5 C 1.6 km/h
252 01-12-2014 20:55:00 2.6 C 5.21 g/m*3 2.6 C 1.6 km/h
253 01-12-2014 21:00:00 2.6 C 5.21 g/m*3 2.6 C 1.6 km/h
254 01-12-2014 21:05:00 2.5 C 5.17 g/m*3 2.5 C 0 km/h
255 01-12-2014 21:10:00 2.5 C 5.17 g/m*3 2.5 C 1.6 km/h
256 01-12-2014 21:15:00 2.4 C 5.14 g/m*3 2.4 C 4.8 km/h
257 01-12-2014 21:20:00 2.4 C 5.08 g/m*3 2.4 C 3.2 km/h
258 01-12-2014 21:25:00 2.4 C 5.14 g/m*3 2.4 C 3.2 km/h
259 01-12-2014 21:30:00 2.4 C 5.14 g/m*3 2.4 C 4.8 km/h
260 01-12-2014 21:35:00 2.4 C 5.14 g/m*3 2.4 C 1.6 km/h
261 01-12-2014 21:40:00 2.3 C 5.1 g/m*3 2.3 C 1.6 km/h
262 01-12-2014 21:45:00 2.3 C 5.1 g/m*3 2.3 C 1.6 km/h
263 01-12-2014 21:50:00 2.3 C 5.05 g/m*3 2.3 C 3.2 km/h
264 01-12-2014 21:55:00 2.3 C 5.05 g/m*3 2.3 C 0 km/h
265 01-12-2014 22:00:00 2.3 C 5.05 g/m*3 2.3 C 1.6 km/h
266 01-12-2014 22:05:00 2.3 C 5.1 g/m*3 2.3 C 0 km/h
267 01-12-2014 22:10:00 2.3 C 5.05 g/m*3 2.3 C 1.6 km/h
268 01-12-2014 22:15:00 2.3 C 5.1 g/m*3 2.3 C 3.2 km/h
269 01-12-2014 22:20:00 2.2 C 5.01 g/m*3 2.2 C 3.2 km/h
270 01-12-2014 22:25:00 2.2 C 5.01 g/m*3 2.2 C 0 km/h
271 01-12-2014 22:30:00 2.2 C 5.01 g/m*3 2.2 C 0 km/h
272 01-12-2014 22:35:00 2.2 C 5.01 g/m*3 2.2 C 0 km/h
273 01-12-2014 22:40:00 2.1 C 4.98 g/m*3 2.1 C 1.6 km/h
274 01-12-2014 22:45:00 2.1 C 4.98 g/m*3 2.1 C 3.2 km/h
275 01-12-2014 22:50:00 2.1 C 4.98 g/m*3 2.1 C 3.2 km/h
Sensor: Nr:Datum:Temp:Abs-Feuchte:Windchill:Wind:
Aussen-T/F 276 01-12-2014 22:55:00 2.1 C 4.98 g/m*3 0.24 C 6.4 km/h
277 01-12-2014 23:00:00 2.1 C 4.98 g/m*3 2.1 C 1.6 km/h
278 01-12-2014 23:05:00 2.1 C 4.98 g/m*3 2.1 C 1.6 km/h
279 01-12-2014 23:10:00 2.1 C 4.98 g/m*3 2.1 C 1.6 km/h
280 01-12-2014 23:15:00 2.1 C 4.98 g/m*3 2.1 C 3.2 km/h
281 01-12-2014 23:20:00 2.1 C 4.98 g/m*3 2.1 C 3.2 km/h
282 01-12-2014 23:25:00 2.1 C 5.04 g/m*3 -0.3 C 8.1 km/h
283 01-12-2014 23:30:00 2 C 4.95 g/m*3 0.13 C 6.4 km/h
284 01-12-2014 23:35:00 2 C 4.95 g/m*3 2 C 3.2 km/h
285 01-12-2014 23:40:00 2 C 4.95 g/m*3 -0.42 C 8.1 km/h
286 01-12-2014 23:45:00 1.9 C 4.91 g/m*3 -0.54 C 8.1 km/h
287 01-12-2014 23:50:00 1.9 C 4.91 g/m*3 0.01 C 6.4 km/h
288 01-12-2014 23:55:00 1.9 C 4.91 g/m*3 1.9 C 4.8 km/h
289 02-12-2014 00:00:00 1.9 C 4.91 g/m*3 0.01 C 6.4 km/h
290 02-12-2014 00:05:00 1.9 C 4.97 g/m*3 1.9 C 1.6 km/h
291 02-12-2014 00:10:00 1.9 C 4.97 g/m*3 1.9 C 0 km/h
292 02-12-2014 00:15:00 1.8 C 4.93 g/m*3 1.8 C 1.6 km/h
293 02-12-2014 00:20:00 1.8 C 4.93 g/m*3 1.8 C 0 km/h
294 02-12-2014 00:25:00 1.8 C 4.93 g/m*3 1.8 C 3.2 km/h
295 02-12-2014 00:30:00 1.8 C 4.93 g/m*3 1.8 C 3.2 km/h
296 02-12-2014 00:35:00 1.8 C 4.93 g/m*3 1.8 C 1.6 km/h
297 02-12-2014 00:40:00 1.8 C 4.93 g/m*3 1.8 C 0 km/h
298 02-12-2014 00:45:00 1.8 C 4.93 g/m*3 1.8 C 1.6 km/h
299 02-12-2014 00:50:00 1.8 C 4.93 g/m*3 1.8 C 1.6 km/h
300 02-12-2014 00:55:00 1.8 C 4.93 g/m*3 1.8 C 1.6 km/h
Sensor: Nr:Datum:Temp:Abs-Feuchte:Windchill:Wind:
Aussen-T/F 301 02-12-2014 01:00:00 1.8 C 4.93 g/m*3 1.8 C 0 km/h
302 02-12-2014 01:05:00 1.8 C 4.99 g/m*3 1.8 C 0 km/h
303 02-12-2014 01:10:00 1.8 C 4.99 g/m*3 1.8 C 0 km/h
304 02-12-2014 01:15:00 1.8 C 4.99 g/m*3 1.8 C 0 km/h
305 02-12-2014 01:20:00 1.8 C 4.99 g/m*3 1.8 C 0 km/h
306 02-12-2014 01:25:00 1.8 C 4.99 g/m*3 1.8 C 0 km/h
307 02-12-2014 01:30:00 1.8 C 4.99 g/m*3 1.8 C 0 km/h
308 02-12-2014 01:35:00 1.7 C 4.95 g/m*3 1.7 C 0 km/h
309 02-12-2014 01:40:00 1.7 C 4.95 g/m*3 1.7 C 0 km/h
310 02-12-2014 01:45:00 1.7 C 5.01 g/m*3 1.7 C 0 km/h
311 02-12-2014 01:50:00 1.7 C 5.01 g/m*3 1.7 C 0 km/h
312 02-12-2014 01:55:00 1.7 C 5.01 g/m*3 1.7 C 1.6 km/h
313 02-12-2014 02:00:00 1.7 C 5.01 g/m*3 1.7 C 0 km/h
314 02-12-2014 02:05:00 1.7 C 5.01 g/m*3 1.7 C 0 km/h
315 02-12-2014 02:10:00 1.7 C 5.01 g/m*3 1.7 C 1.6 km/h
316 02-12-2014 02:15:00 1.7 C 5.01 g/m*3 1.7 C 0 km/h
317 02-12-2014 02:20:00 1.7 C 5.01 g/m*3 1.7 C 1.6 km/h
318 02-12-2014 02:25:00 1.7 C 5.01 g/m*3 1.7 C 0 km/h
319 02-12-2014 02:30:00 1.7 C 5.01 g/m*3 1.7 C 0 km/h
320 02-12-2014 02:35:00 1.7 C 5.01 g/m*3 1.7 C 0 km/h
321 02-12-2014 02:40:00 1.7 C 5.01 g/m*3 1.7 C 1.6 km/h
322 02-12-2014 02:45:00 1.7 C 5.01 g/m*3 1.7 C 0 km/h
323 02-12-2014 02:50:00 1.7 C 5.01 g/m*3 1.7 C 1.6 km/h
324 02-12-2014 02:55:00 1.7 C 5.01 g/m*3 1.7 C 3.2 km/h
325 02-12-2014 03:00:00 1.7 C 5.01 g/m*3 1.7 C 4.8 km/h
Sensor: Nr:Datum:Temp:Abs-Feuchte:Windchill:Wind:
Aussen-T/F 326 02-12-2014 03:05:00 1.7 C 5.06 g/m*3 1.7 C 3.2 km/h
327 02-12-2014 03:10:00 1.7 C 5.06 g/m*3 1.7 C 0 km/h
328 02-12-2014 03:15:00 1.7 C 5.06 g/m*3 1.7 C 3.2 km/h
329 02-12-2014 03:20:00 1.7 C 5.06 g/m*3 1.7 C 0 km/h
330 02-12-2014 03:25:00 1.7 C 5.06 g/m*3 1.7 C 0 km/h
331 02-12-2014 03:30:00 1.7 C 5.06 g/m*3 1.7 C 3.2 km/h
332 02-12-2014 03:35:00 1.6 C 5.03 g/m*3 1.6 C 3.2 km/h
333 02-12-2014 03:40:00 1.6 C 5.08 g/m*3 1.6 C 4.8 km/h
334 02-12-2014 03:45:00 1.6 C 5.08 g/m*3 -0.33 C 6.4 km/h
335 02-12-2014 03:50:00 1.6 C 5.08 g/m*3 1.6 C 4.8 km/h
336 02-12-2014 03:55:00 1.6 C 5.08 g/m*3 1.6 C 4.8 km/h
337 02-12-2014 04:00:00 1.6 C 5.08 g/m*3 1.6 C 3.2 km/h
338 02-12-2014 04:05:00 1.6 C 5.08 g/m*3 -0.33 C 6.4 km/h
339 02-12-2014 04:10:00 1.6 C 5.08 g/m*3 1.6 C 1.6 km/h
340 02-12-2014 04:15:00 1.6 C 5.08 g/m*3 1.6 C 3.2 km/h
341 02-12-2014 04:20:00 1.6 C 5.08 g/m*3 1.6 C 4.8 km/h
342 02-12-2014 04:25:00 1.5 C 5.05 g/m*3 1.5 C 4.8 km/h
343 02-12-2014 04:30:00 1.5 C 5.05 g/m*3 1.5 C 4.8 km/h
344 02-12-2014 04:35:00 1.4 C 5.01 g/m*3 1.4 C 4.8 km/h
345 02-12-2014 04:40:00 1.4 C 4.96 g/m*3 1.4 C 4.8 km/h
346 02-12-2014 04:45:00 1.4 C 4.96 g/m*3 1.4 C 1.6 km/h
347 02-12-2014 04:50:00 1.4 C 4.96 g/m*3 1.4 C 1.6 km/h
348 02-12-2014 04:55:00 1.4 C 4.96 g/m*3 1.4 C 3.2 km/h
349 02-12-2014 05:00:00 1.4 C 4.96 g/m*3 1.4 C 1.6 km/h
350 02-12-2014 05:05:00 1.4 C 4.96 g/m*3 1.4 C 0 km/h
Sensor: Nr:Datum:Temp:Abs-Feuchte:Windchill:Wind:
Aussen-T/F 351 02-12-2014 05:10:00 1.4 C 4.96 g/m*3 1.4 C 3.2 km/h
352 02-12-2014 05:15:00 1.4 C 4.96 g/m*3 1.4 C 1.6 km/h
353 02-12-2014 05:20:00 1.4 C 4.96 g/m*3 1.4 C 1.6 km/h
354 02-12-2014 05:25:00 1.3 C 4.98 g/m*3 1.3 C 3.2 km/h
355 02-12-2014 05:30:00 1.3 C 4.98 g/m*3 1.3 C 0 km/h
356 02-12-2014 05:35:00 1.3 C 4.98 g/m*3 1.3 C 0 km/h
357 02-12-2014 05:40:00 1.3 C 4.98 g/m*3 1.3 C 0 km/h
358 02-12-2014 05:45:00 1.3 C 4.98 g/m*3 1.3 C 0 km/h
359 02-12-2014 05:50:00 1.3 C 4.98 g/m*3 1.3 C 1.6 km/h
360 02-12-2014 05:55:00 1.3 C 4.98 g/m*3 1.3 C 1.6 km/h
361 02-12-2014 06:00:00 1.2 C 4.95 g/m*3 1.2 C 3.2 km/h
362 02-12-2014 06:05:00 1.2 C 4.95 g/m*3 1.2 C 0 km/h
363 02-12-2014 06:10:00 1.2 C 4.95 g/m*3 1.2 C 0 km/h
364 02-12-2014 06:15:00 1.2 C 4.95 g/m*3 1.2 C 0 km/h
365 02-12-2014 06:20:00 1.2 C 5 g/m*3 1.2 C 1.6 km/h
366 02-12-2014 06:25:00 1.2 C 5 g/m*3 1.2 C 0 km/h
367 02-12-2014 06:30:00 1.2 C 5 g/m*3 1.2 C 0 km/h
368 02-12-2014 06:35:00 1.2 C 5 g/m*3 1.2 C 0 km/h
369 02-12-2014 06:40:00 1.2 C 5 g/m*3 1.2 C 0 km/h
370 02-12-2014 06:45:00 1.2 C 5 g/m*3 1.2 C 0 km/h
371 02-12-2014 06:50:00 1.2 C 5 g/m*3 1.2 C 0 km/h
372 02-12-2014 06:55:00 1.2 C 5 g/m*3 1.2 C 0 km/h
373 02-12-2014 07:00:00 1.2 C 5 g/m*3 1.2 C 1.6 km/h
374 02-12-2014 07:05:00 1.2 C 5 g/m*3 1.2 C 1.6 km/h
375 02-12-2014 07:10:00 1.2 C 5 g/m*3 1.2 C 0 km/h
Sensor: Nr:Datum:Temp:Abs-Feuchte:Windchill:Wind:
Aussen-T/F 376 02-12-2014 07:15:00 1.2 C 5 g/m*3 1.2 C 1.6 km/h
377 02-12-2014 07:20:00 1.2 C 5 g/m*3 1.2 C 0 km/h
378 02-12-2014 07:25:00 1.3 C 5.03 g/m*3 1.3 C 0 km/h
379 02-12-2014 07:30:00 1.3 C 5.03 g/m*3 1.3 C 0 km/h
380 02-12-2014 07:35:00 1.2 C 5 g/m*3 1.2 C 0 km/h
381 02-12-2014 07:40:00 1.2 C 4.95 g/m*3 1.2 C 3.2 km/h
382 02-12-2014 07:45:00 1.2 C 4.95 g/m*3 1.2 C 0 km/h
383 02-12-2014 07:50:00 1.2 C 4.95 g/m*3 1.2 C 4.8 km/h
384 02-12-2014 07:55:00 1.2 C 4.95 g/m*3 1.2 C 0 km/h
385 02-12-2014 08:00:00 1.2 C 4.95 g/m*3 1.2 C 0 km/h
386 02-12-2014 08:05:00 1.2 C 4.95 g/m*3 1.2 C 0 km/h
387 02-12-2014 08:10:00 1.2 C 4.95 g/m*3 1.2 C 0 km/h
388 02-12-2014 08:15:00 1.2 C 4.95 g/m*3 1.2 C 0 km/h
389 02-12-2014 08:20:00 1.2 C 4.95 g/m*3 1.2 C 0 km/h
390 02-12-2014 08:25:00 1.2 C 4.95 g/m*3 1.2 C 0 km/h
391 02-12-2014 08:30:00 1.2 C 4.95 g/m*3 1.2 C 0 km/h
392 02-12-2014 08:35:00 1.2 C 4.95 g/m*3 1.2 C 0 km/h
393 02-12-2014 08:40:00 1.2 C 4.95 g/m*3 1.2 C 0 km/h
394 02-12-2014 08:45:00 1.2 C 4.95 g/m*3 1.2 C 0 km/h
395 02-12-2014 08:50:00 1.2 C 4.95 g/m*3 1.2 C 0 km/h
396 02-12-2014 08:55:00 1.2 C 4.95 g/m*3 1.2 C 0 km/h
397 02-12-2014 09:00:00 1.2 C 4.95 g/m*3 1.2 C 0 km/h
398 02-12-2014 09:05:00 1.2 C 4.95 g/m*3 1.2 C 0 km/h
399 02-12-2014 09:10:00 1.2 C 4.95 g/m*3 1.2 C 0 km/h
400 02-12-2014 09:15:00 1.2 C 4.95 g/m*3 1.2 C 0 km/h
Sensor: Nr:Datum:Temp:Abs-Feuchte:Windchill:Wind:
Aussen-T/F 401 02-12-2014 09:20:00 1.3 C 4.98 g/m*3 1.3 C 0 km/h
402 02-12-2014 09:25:00 1.3 C 4.98 g/m*3 1.3 C 1.6 km/h
403 02-12-2014 09:30:00 1.3 C 4.98 g/m*3 1.3 C 3.2 km/h
404 02-12-2014 09:35:00 1.3 C 4.93 g/m*3 1.3 C 0 km/h
405 02-12-2014 09:40:00 1.3 C 4.93 g/m*3 1.3 C 0 km/h
406 02-12-2014 09:45:00 1.3 C 4.93 g/m*3 1.3 C 1.6 km/h
407 02-12-2014 09:50:00 1.4 C 4.96 g/m*3 1.4 C 0 km/h
408 02-12-2014 09:55:00 1.4 C 4.96 g/m*3 1.4 C 3.2 km/h
409 02-12-2014 10:00:00 1.4 C 4.96 g/m*3 1.4 C 1.6 km/h
410 02-12-2014 10:05:00 1.4 C 4.96 g/m*3 1.4 C 3.2 km/h
411 02-12-2014 10:10:00 1.5 C 4.94 g/m*3 1.5 C 3.2 km/h
412 02-12-2014 10:15:00 1.5 C 4.94 g/m*3 -0.45 C 6.4 km/h
413 02-12-2014 10:20:00 1.5 C 4.94 g/m*3 1.5 C 3.2 km/h
414 02-12-2014 10:25:00 1.6 C 4.97 g/m*3 1.6 C 1.6 km/h
415 02-12-2014 10:30:00 1.6 C 4.97 g/m*3 1.6 C 3.2 km/h
416 02-12-2014 10:35:00 1.6 C 4.97 g/m*3 1.6 C 1.6 km/h
417 02-12-2014 10:40:00 1.6 C 4.97 g/m*3 1.6 C 0 km/h
418 02-12-2014 10:45:00 1.7 C 5.01 g/m*3 1.7 C 0 km/h
419 02-12-2014 10:50:00 1.7 C 4.95 g/m*3 1.7 C 1.6 km/h
420 02-12-2014 10:55:00 1.7 C 4.95 g/m*3 1.7 C 0 km/h
421 02-12-2014 11:00:00 1.7 C 4.95 g/m*3 1.7 C 4.8 km/h
422 02-12-2014 11:05:00 1.8 C 4.93 g/m*3 1.8 C 4.8 km/h
423 02-12-2014 11:10:00 1.8 C 4.93 g/m*3 -0.1 C 6.4 km/h
424 02-12-2014 11:15:00 1.8 C 4.93 g/m*3 1.8 C 3.2 km/h
425 02-12-2014 11:20:00 1.9 C 4.91 g/m*3 1.9 C 4.8 km/h
Sensor: Nr:Datum:Temp:Abs-Feuchte:Windchill:Wind:
Aussen-T/F 426 02-12-2014 11:25:00 1.9 C 4.91 g/m*3 0.01 C 6.4 km/h
427 02-12-2014 11:30:00 2 C 4.95 g/m*3 0.13 C 6.4 km/h
428 02-12-2014 11:35:00 2.1 C 4.92 g/m*3 2.1 C 3.2 km/h
429 02-12-2014 11:40:00 2.1 C 4.92 g/m*3 2.1 C 3.2 km/h
430 02-12-2014 11:45:00 2.1 C 4.92 g/m*3 2.1 C 3.2 km/h
431 02-12-2014 11:50:00 2.1 C 4.92 g/m*3 2.1 C 1.6 km/h
432 02-12-2014 11:55:00 2 C 4.89 g/m*3 2 C 3.2 km/h
433 02-12-2014 12:00:00 2.1 C 4.92 g/m*3 2.1 C 3.2 km/h
434 02-12-2014 12:05:00 2 C 4.89 g/m*3 2 C 4.8 km/h
435 02-12-2014 12:10:00 2 C 4.89 g/m*3 2 C 4.8 km/h
436 02-12-2014 12:15:00 2 C 4.83 g/m*3 2 C 1.6 km/h
437 02-12-2014 12:20:00 1.9 C 4.86 g/m*3 1.9 C 1.6 km/h
438 02-12-2014 12:25:00 2 C 4.83 g/m*3 2 C 3.2 km/h
439 02-12-2014 12:30:00 2 C 4.83 g/m*3 2 C 1.6 km/h
440 02-12-2014 12:35:00 2 C 4.83 g/m*3 2 C 1.6 km/h
441 02-12-2014 12:40:00 2 C 4.83 g/m*3 2 C 4.8 km/h
442 02-12-2014 12:45:00 2.1 C 4.87 g/m*3 0.24 C 6.4 km/h
443 02-12-2014 12:50:00 2.1 C 4.87 g/m*3 2.1 C 4.8 km/h
444 02-12-2014 12:55:00 2.1 C 4.81 g/m*3 0.24 C 6.4 km/h
445 02-12-2014 13:00:00 2.1 C 4.81 g/m*3 -0.3 C 8.1 km/h
446 02-12-2014 13:05:00 2.1 C 4.81 g/m*3 2.1 C 3.2 km/h
447 02-12-2014 13:10:00 2.2 C 4.9 g/m*3 0.36 C 6.4 km/h
448 02-12-2014 13:15:00 2.2 C 4.84 g/m*3 0.36 C 6.4 km/h
449 02-12-2014 13:20:00 2.2 C 4.9 g/m*3 0.36 C 6.4 km/h
450 02-12-2014 13:25:00 2.2 C 4.84 g/m*3 0.36 C 6.4 km/h
Sensor: Nr:Datum:Temp:Abs-Feuchte:Windchill:Wind:
Aussen-T/F 451 02-12-2014 13:30:00 2.2 C 4.84 g/m*3 2.2 C 3.2 km/h
452 02-12-2014 13:35:00 2.1 C 4.81 g/m*3 0.24 C 6.4 km/h
453 02-12-2014 13:40:00 2.1 C 4.81 g/m*3 -0.3 C 8.1 km/h
454 02-12-2014 13:45:00 2.1 C 4.81 g/m*3 0.24 C 6.4 km/h
455 02-12-2014 13:50:00 2.1 C 4.81 g/m*3 0.24 C 6.4 km/h
456 02-12-2014 13:55:00 2.1 C 4.81 g/m*3 2.1 C 4.8 km/h
457 02-12-2014 14:00:00 2.1 C 4.81 g/m*3 -0.3 C 8.1 km/h
458 02-12-2014 14:05:00 2.1 C 4.81 g/m*3 0.24 C 6.4 km/h
459 02-12-2014 14:10:00 2.1 C 4.81 g/m*3 -0.3 C 8.1 km/h
460 02-12-2014 14:15:00 2.1 C 4.81 g/m*3 0.24 C 6.4 km/h
461 02-12-2014 14:20:00 2.1 C 4.76 g/m*3 2.1 C 3.2 km/h
462 02-12-2014 14:25:00 2.1 C 4.81 g/m*3 0.24 C 6.4 km/h
463 02-12-2014 14:30:00 2.1 C 4.76 g/m*3 2.1 C 3.2 km/h
464 02-12-2014 14:35:00 2.1 C 4.76 g/m*3 -0.3 C 8.1 km/h
465 02-12-2014 14:40:00 2.1 C 4.76 g/m*3 -0.3 C 8.1 km/h
466 02-12-2014 14:45:00 2.1 C 4.81 g/m*3 2.1 C 3.2 km/h
467 02-12-2014 14:50:00 2.1 C 4.81 g/m*3 2.1 C 3.2 km/h
468 02-12-2014 14:55:00 2.1 C 4.81 g/m*3 2.1 C 4.8 km/h
469 02-12-2014 15:00:00 2.2 C 4.84 g/m*3 2.2 C 3.2 km/h
470 02-12-2014 15:05:00 2.2 C 4.84 g/m*3 2.2 C 0 km/h
471 02-12-2014 15:10:00 2.2 C 4.84 g/m*3 2.2 C 4.8 km/h
472 02-12-2014 15:15:00 2.2 C 4.84 g/m*3 2.2 C 3.2 km/h
473 02-12-2014 15:20:00 2.2 C 4.84 g/m*3 2.2 C 0 km/h
474 02-12-2014 15:25:00 2.2 C 4.84 g/m*3 2.2 C 0 km/h
475 02-12-2014 15:30:00 2.2 C 4.84 g/m*3 2.2 C 3.2 km/h
Sensor: Nr:Datum:Temp:Abs-Feuchte:Windchill:Wind:
Aussen-T/F 476 02-12-2014 15:35:00 2.2 C 4.84 g/m*3 2.2 C 3.2 km/h
477 02-12-2014 15:40:00 2.2 C 4.84 g/m*3 2.2 C 3.2 km/h
478 02-12-2014 15:45:00 2.2 C 4.84 g/m*3 2.2 C 3.2 km/h
479 02-12-2014 15:50:00 2.2 C 4.84 g/m*3 2.2 C 3.2 km/h
480 02-12-2014 15:55:00 2.2 C 4.84 g/m*3 2.2 C 1.6 km/h
481 02-12-2014 16:00:00 2.2 C 4.84 g/m*3 2.2 C 1.6 km/h
482 02-12-2014 16:05:00 2.2 C 4.84 g/m*3 2.2 C 0 km/h
483 02-12-2014 16:10:00 2.2 C 4.84 g/m*3 2.2 C 3.2 km/h
484 02-12-2014 16:15:00 2.2 C 4.84 g/m*3 2.2 C 3.2 km/h
485 02-12-2014 16:20:00 2.2 C 4.84 g/m*3 2.2 C 4.8 km/h
486 02-12-2014 16:25:00 2.2 C 4.84 g/m*3 2.2 C 0 km/h
487 02-12-2014 16:30:00 2.2 C 4.84 g/m*3 2.2 C 0 km/h
488 02-12-2014 16:35:00 2.2 C 4.84 g/m*3 2.2 C 0 km/h
489 02-12-2014 16:40:00 2.2 C 4.84 g/m*3 2.2 C 0 km/h
490 02-12-2014 16:45:00 2.2 C 4.84 g/m*3 2.2 C 0 km/h
491 02-12-2014 16:50:00 2.2 C 4.84 g/m*3 2.2 C 0 km/h
492 02-12-2014 16:55:00 2.2 C 4.84 g/m*3 2.2 C 1.6 km/h
493 02-12-2014 17:00:00 2.2 C 4.84 g/m*3 2.2 C 0 km/h
494 02-12-2014 17:05:00 2.2 C 4.84 g/m*3 2.2 C 0 km/h
495 02-12-2014 18:20:00 2.1 C 4.92 g/m*3 2.1 C 0 km/h
496 02-12-2014 18:25:00 2 C 4.89 g/m*3 2 C 0 km/h
497 02-12-2014 18:30:00 2 C 4.89 g/m*3 2 C 0 km/h
498 02-12-2014 18:35:00 2 C 4.89 g/m*3 2 C 0 km/h
499 02-12-2014 18:40:00 2 C 4.89 g/m*3 2 C 0 km/h
500 02-12-2014 18:45:00 2 C 4.89 g/m*3 2 C 1.6 km/h
Sensor: Nr:Datum:Temp:Abs-Feuchte:Windchill:Wind:
Aussen-T/F 501 02-12-2014 18:50:00 2 C 4.95 g/m*3 2 C 3.2 km/h
502 02-12-2014 18:55:00 1.9 C 4.91 g/m*3 1.9 C 0 km/h
503 02-12-2014 19:00:00 1.9 C 4.97 g/m*3 1.9 C 0 km/h
504 02-12-2014 19:05:00 1.9 C 4.97 g/m*3 1.9 C 0 km/h
505 02-12-2014 19:10:00 1.9 C 4.97 g/m*3 1.9 C 0 km/h
506 02-12-2014 19:15:00 1.9 C 4.97 g/m*3 1.9 C 0 km/h
507 02-12-2014 20:30:00 1.5 C 4.94 g/m*3 1.5 C 0 km/h
508 02-12-2014 20:35:00 1.5 C 4.94 g/m*3 1.5 C 1.6 km/h
509 02-12-2014 20:40:00 1.4 C 4.96 g/m*3 1.4 C 0 km/h
510 02-12-2014 20:45:00 1.4 C 4.96 g/m*3 1.4 C 0 km/h
511 02-12-2014 20:50:00 1.4 C 4.96 g/m*3 1.4 C 0 km/h
512 02-12-2014 20:55:00 1.3 C 4.93 g/m*3 1.3 C 0 km/h
513 02-12-2014 21:00:00 1.3 C 4.93 g/m*3 1.3 C 0 km/h
514 02-12-2014 21:05:00 1.3 C 4.98 g/m*3 1.3 C 0 km/h
515 02-12-2014 21:10:00 1.3 C 4.98 g/m*3 1.3 C 0 km/h
516 02-12-2014 21:15:00 1.3 C 4.98 g/m*3 1.3 C 0 km/h
517 02-12-2014 21:20:00 1.3 C 4.98 g/m*3 1.3 C 0 km/h
518 02-12-2014 21:25:00 1.2 C 4.95 g/m*3 1.2 C 0 km/h
519 02-12-2014 21:30:00 1.2 C 5 g/m*3 1.2 C 0 km/h
520 02-12-2014 21:35:00 1.2 C 5 g/m*3 1.2 C 0 km/h
521 02-12-2014 21:40:00 1.2 C 5 g/m*3 1.2 C 0 km/h
522 02-12-2014 21:45:00 1.2 C 5 g/m*3 1.2 C 0 km/h
523 02-12-2014 21:50:00 1.1 C 4.96 g/m*3 1.1 C 0 km/h
524 02-12-2014 21:55:00 1.1 C 4.96 g/m*3 1.1 C 0 km/h
525 02-12-2014 22:00:00 1.1 C 4.96 g/m*3 1.1 C 0 km/h
Sensor: Nr:Datum:Temp:Abs-Feuchte:Windchill:Wind:
Aussen-T/F 526 02-12-2014 22:05:00 1.1 C 4.96 g/m*3 1.1 C 0 km/h
527 02-12-2014 22:10:00 1.1 C 4.96 g/m*3 1.1 C 0 km/h
528 02-12-2014 22:15:00 1.1 C 4.96 g/m*3 1.1 C 0 km/h
529 02-12-2014 22:20:00 1.1 C 5.02 g/m*3 1.1 C 0 km/h
530 02-12-2014 22:25:00 1.1 C 5.02 g/m*3 1.1 C 0 km/h
531 02-12-2014 22:30:00 1.1 C 5.02 g/m*3 1.1 C 0 km/h
532 02-12-2014 22:35:00 1.1 C 5.02 g/m*3 1.1 C 0 km/h
533 02-12-2014 22:40:00 1.2 C 5.05 g/m*3 1.2 C 0 km/h
534 02-12-2014 22:45:00 1.2 C 5.05 g/m*3 1.2 C 0 km/h
535 02-12-2014 22:50:00 1.2 C 5.05 g/m*3 1.2 C 0 km/h
536 02-12-2014 22:55:00 1.2 C 5.05 g/m*3 1.2 C 0 km/h
537 02-12-2014 23:00:00 1.2 C 5.05 g/m*3 1.2 C 0 km/h
538 02-12-2014 23:05:00 1.2 C 5.05 g/m*3 1.2 C 0 km/h
539 02-12-2014 23:10:00 1.2 C 5.05 g/m*3 1.2 C 0 km/h
540 02-12-2014 23:15:00 1.2 C 5.05 g/m*3 1.2 C 0 km/h
541 02-12-2014 23:20:00 1.2 C 5.05 g/m*3 1.2 C 0 km/h
542 02-12-2014 23:25:00 1.2 C 5.05 g/m*3 1.2 C 0 km/h
543 02-12-2014 23:30:00 1.2 C 5.05 g/m*3 1.2 C 0 km/h
544 02-12-2014 23:35:00 1.2 C 5.1 g/m*3 1.2 C 0 km/h
545 02-12-2014 23:40:00 1.2 C 5.1 g/m*3 1.2 C 0 km/h
546 02-12-2014 23:45:00 1.2 C 5.1 g/m*3 1.2 C 1.6 km/h
547 02-12-2014 23:50:00 1.3 C 5.14 g/m*3 1.3 C 0 km/h
548 02-12-2014 23:55:00 1.3 C 5.14 g/m*3 1.3 C 0 km/h
549 03-12-2014 00:00:00 1.3 C 5.14 g/m*3 1.3 C 0 km/h
550 03-12-2014 00:05:00 1.3 C 5.14 g/m*3 1.3 C 0 km/h
Sensor: Nr:Datum:Temp:Abs-Feuchte:Windchill:Wind:
Aussen-T/F 551 03-12-2014 00:10:00 1.2 C 5.1 g/m*3 1.2 C 0 km/h
552 03-12-2014 00:15:00 1.2 C 5.1 g/m*3 1.2 C 0 km/h
553 03-12-2014 00:20:00 1.2 C 5.1 g/m*3 1.2 C 0 km/h
554 03-12-2014 00:25:00 1.3 C 5.14 g/m*3 1.3 C 0 km/h
555 03-12-2014 00:30:00 1.3 C 5.14 g/m*3 1.3 C 1.6 km/h
556 03-12-2014 00:35:00 1.3 C 5.14 g/m*3 1.3 C 1.6 km/h
557 03-12-2014 00:40:00 1.3 C 5.14 g/m*3 1.3 C 1.6 km/h
558 03-12-2014 00:45:00 1.3 C 5.14 g/m*3 1.3 C 0 km/h
559 03-12-2014 00:50:00 1.3 C 5.14 g/m*3 1.3 C 0 km/h
560 03-12-2014 00:55:00 1.3 C 5.14 g/m*3 1.3 C 0 km/h
561 03-12-2014 01:00:00 1.3 C 5.14 g/m*3 1.3 C 0 km/h
562 03-12-2014 01:05:00 1.3 C 5.14 g/m*3 1.3 C 0 km/h
563 03-12-2014 01:10:00 1.3 C 5.14 g/m*3 1.3 C 0 km/h
564 03-12-2014 01:15:00 1.4 C 5.17 g/m*3 1.4 C 0 km/h
565 03-12-2014 01:20:00 1.4 C 5.17 g/m*3 1.4 C 0 km/h
566 03-12-2014 01:25:00 1.4 C 5.17 g/m*3 1.4 C 0 km/h
567 03-12-2014 01:30:00 1.4 C 5.17 g/m*3 1.4 C 0 km/h
568 03-12-2014 01:35:00 1.3 C 5.09 g/m*3 1.3 C 1.6 km/h
569 03-12-2014 01:40:00 1.3 C 5.14 g/m*3 1.3 C 1.6 km/h
570 03-12-2014 01:45:00 1.3 C 5.09 g/m*3 1.3 C 0 km/h
571 03-12-2014 01:50:00 1.3 C 5.09 g/m*3 1.3 C 0 km/h
572 03-12-2014 01:55:00 1.3 C 5.09 g/m*3 1.3 C 0 km/h
573 03-12-2014 02:00:00 1.3 C 5.09 g/m*3 1.3 C 0 km/h
574 03-12-2014 02:05:00 1.3 C 5.09 g/m*3 1.3 C 0 km/h
575 03-12-2014 02:10:00 1.4 C 5.12 g/m*3 1.4 C 0 km/h
Sensor: Nr:Datum:Temp:Abs-Feuchte:Windchill:Wind:
Aussen-T/F 576 03-12-2014 02:15:00 1.4 C 5.12 g/m*3 1.4 C 0 km/h
577 03-12-2014 02:20:00 1.4 C 5.12 g/m*3 1.4 C 0 km/h
578 03-12-2014 02:25:00 1.5 C 5.16 g/m*3 1.5 C 0 km/h
579 03-12-2014 02:30:00 1.4 C 5.12 g/m*3 1.4 C 0 km/h
580 03-12-2014 02:35:00 1.4 C 5.12 g/m*3 1.4 C 0 km/h
581 03-12-2014 02:40:00 1.5 C 5.16 g/m*3 1.5 C 0 km/h
582 03-12-2014 02:45:00 1.5 C 5.16 g/m*3 1.5 C 0 km/h
583 03-12-2014 02:50:00 1.5 C 5.16 g/m*3 1.5 C 0 km/h
584 03-12-2014 02:55:00 1.5 C 5.16 g/m*3 1.5 C 0 km/h
585 03-12-2014 03:00:00 1.6 C 5.19 g/m*3 1.6 C 0 km/h
586 03-12-2014 03:05:00 1.6 C 5.19 g/m*3 1.6 C 0 km/h
587 03-12-2014 03:10:00 1.6 C 5.19 g/m*3 1.6 C 0 km/h
588 03-12-2014 03:15:00 1.6 C 5.25 g/m*3 1.6 C 0 km/h
589 03-12-2014 03:20:00 1.6 C 5.25 g/m*3 1.6 C 0 km/h
590 03-12-2014 03:25:00 1.6 C 5.25 g/m*3 1.6 C 0 km/h
591 03-12-2014 03:30:00 1.6 C 5.25 g/m*3 1.6 C 0 km/h
592 03-12-2014 03:35:00 1.6 C 5.25 g/m*3 1.6 C 0 km/h
593 03-12-2014 03:40:00 1.5 C 5.21 g/m*3 1.5 C 0 km/h
594 03-12-2014 03:45:00 1.5 C 5.21 g/m*3 1.5 C 0 km/h
595 03-12-2014 03:50:00 1.5 C 5.21 g/m*3 1.5 C 0 km/h
596 03-12-2014 03:55:00 1.5 C 5.21 g/m*3 1.5 C 0 km/h
597 03-12-2014 04:00:00 1.4 C 5.17 g/m*3 1.4 C 0 km/h
598 03-12-2014 04:05:00 1.4 C 5.12 g/m*3 1.4 C 0 km/h
599 03-12-2014 04:10:00 1.4 C 5.12 g/m*3 1.4 C 0 km/h
600 03-12-2014 04:15:00 1.4 C 5.12 g/m*3 1.4 C 0 km/h
Sensor: Nr:Datum:Temp:Abs-Feuchte:Windchill:Wind:
Aussen-T/F 601 03-12-2014 04:20:00 1.4 C 5.17 g/m*3 1.4 C 0 km/h
602 03-12-2014 04:25:00 1.4 C 5.17 g/m*3 1.4 C 0 km/h
603 03-12-2014 04:30:00 1.5 C 5.21 g/m*3 1.5 C 0 km/h
604 03-12-2014 04:35:00 1.5 C 5.21 g/m*3 1.5 C 0 km/h
605 03-12-2014 04:40:00 1.5 C 5.21 g/m*3 1.5 C 0 km/h
606 03-12-2014 04:45:00 1.6 C 5.25 g/m*3 1.6 C 0 km/h
607 03-12-2014 04:50:00 1.6 C 5.25 g/m*3 1.6 C 0 km/h
608 03-12-2014 04:55:00 1.6 C 5.25 g/m*3 1.6 C 0 km/h
609 03-12-2014 05:00:00 1.6 C 5.25 g/m*3 1.6 C 0 km/h
610 03-12-2014 05:05:00 1.7 C 5.28 g/m*3 1.7 C 0 km/h
611 03-12-2014 05:10:00 1.7 C 5.28 g/m*3 1.7 C 0 km/h
612 03-12-2014 05:15:00 1.7 C 5.28 g/m*3 1.7 C 0 km/h
613 03-12-2014 05:20:00 1.7 C 5.28 g/m*3 1.7 C 0 km/h
614 03-12-2014 05:25:00 1.7 C 5.28 g/m*3 1.7 C 0 km/h
615 03-12-2014 05:30:00 1.8 C 5.32 g/m*3 1.8 C 0 km/h
616 03-12-2014 05:35:00 1.8 C 5.32 g/m*3 1.8 C 0 km/h
617 03-12-2014 05:40:00 1.8 C 5.32 g/m*3 1.8 C 0 km/h
618 03-12-2014 05:45:00 1.8 C 5.32 g/m*3 1.8 C 0 km/h
619 03-12-2014 05:50:00 1.7 C 5.28 g/m*3 1.7 C 0 km/h
620 03-12-2014 05:55:00 1.7 C 5.28 g/m*3 1.7 C 0 km/h
621 03-12-2014 06:00:00 1.8 C 5.32 g/m*3 1.8 C 0 km/h
622 03-12-2014 06:05:00 1.8 C 5.32 g/m*3 1.8 C 0 km/h
623 03-12-2014 06:10:00 1.8 C 5.32 g/m*3 1.8 C 0 km/h
624 03-12-2014 06:15:00 1.8 C 5.32 g/m*3 1.8 C 0 km/h
625 03-12-2014 06:20:00 1.8 C 5.32 g/m*3 1.8 C 0 km/h
Sensor: Nr:Datum:Temp:Abs-Feuchte:Windchill:Wind:
Aussen-T/F 626 03-12-2014 06:25:00 1.8 C 5.32 g/m*3 1.8 C 0 km/h
627 03-12-2014 06:30:00 1.8 C 5.32 g/m*3 1.8 C 0 km/h
628 03-12-2014 06:35:00 1.8 C 5.32 g/m*3 1.8 C 0 km/h
629 03-12-2014 06:40:00 1.8 C 5.32 g/m*3 1.8 C 0 km/h
630 03-12-2014 06:45:00 1.8 C 5.32 g/m*3 1.8 C 0 km/h
631 03-12-2014 06:50:00 1.8 C 5.32 g/m*3 1.8 C 0 km/h
632 03-12-2014 06:55:00 1.8 C 5.32 g/m*3 1.8 C 0 km/h
633 03-12-2014 07:00:00 1.9 C 5.35 g/m*3 1.9 C 0 km/h
634 03-12-2014 07:05:00 1.9 C 5.35 g/m*3 1.9 C 0 km/h
635 03-12-2014 07:10:00 1.9 C 5.35 g/m*3 1.9 C 0 km/h
636 03-12-2014 07:15:00 1.9 C 5.35 g/m*3 1.9 C 0 km/h
637 03-12-2014 07:20:00 1.9 C 5.35 g/m*3 1.9 C 0 km/h
638 03-12-2014 07:25:00 1.9 C 5.35 g/m*3 1.9 C 0 km/h
639 03-12-2014 07:30:00 2 C 5.39 g/m*3 2 C 0 km/h
640 03-12-2014 07:35:00 2 C 5.39 g/m*3 2 C 0 km/h
641 03-12-2014 07:40:00 2 C 5.39 g/m*3 2 C 0 km/h
642 03-12-2014 07:45:00 2 C 5.39 g/m*3 2 C 0 km/h
643 03-12-2014 07:50:00 2.1 C 5.43 g/m*3 2.1 C 0 km/h
644 03-12-2014 07:55:00 2.1 C 5.43 g/m*3 2.1 C 0 km/h
645 03-12-2014 08:00:00 2 C 5.39 g/m*3 2 C 0 km/h
646 03-12-2014 08:05:00 2.1 C 5.43 g/m*3 2.1 C 0 km/h
647 03-12-2014 08:10:00 2.1 C 5.43 g/m*3 2.1 C 0 km/h
648 03-12-2014 08:15:00 2.1 C 5.43 g/m*3 2.1 C 0 km/h
649 03-12-2014 08:20:00 2.1 C 5.43 g/m*3 2.1 C 0 km/h
650 03-12-2014 08:25:00 2.1 C 5.43 g/m*3 2.1 C 0 km/h
Sensor: Nr:Datum:Temp:Abs-Feuchte:Windchill:Wind:
Aussen-T/F 651 03-12-2014 08:30:00 2 C 5.39 g/m*3 2 C 0 km/h
652 03-12-2014 08:35:00 2 C 5.39 g/m*3 2 C 0 km/h
653 03-12-2014 08:40:00 2 C 5.39 g/m*3 2 C 0 km/h
654 03-12-2014 08:45:00 1.9 C 5.35 g/m*3 1.9 C 0 km/h
655 03-12-2014 08:50:00 1.9 C 5.35 g/m*3 1.9 C 0 km/h
656 03-12-2014 08:55:00 1.9 C 5.35 g/m*3 1.9 C 0 km/h
657 03-12-2014 09:00:00 1.9 C 5.35 g/m*3 1.9 C 0 km/h
658 03-12-2014 09:05:00 1.9 C 5.35 g/m*3 1.9 C 0 km/h
659 03-12-2014 09:10:00 1.9 C 5.35 g/m*3 1.9 C 0 km/h
660 03-12-2014 09:15:00 1.8 C 5.32 g/m*3 1.8 C 0 km/h
661 03-12-2014 09:20:00 1.8 C 5.32 g/m*3 1.8 C 1.6 km/h
662 03-12-2014 09:25:00 1.8 C 5.32 g/m*3 1.8 C 0 km/h
663 03-12-2014 09:30:00 1.8 C 5.32 g/m*3 1.8 C 0 km/h
664 03-12-2014 09:35:00 1.8 C 5.32 g/m*3 1.8 C 0 km/h
665 03-12-2014 09:40:00 1.8 C 5.32 g/m*3 1.8 C 0 km/h
666 03-12-2014 09:45:00 1.8 C 5.32 g/m*3 1.8 C 0 km/h
667 03-12-2014 09:50:00 1.9 C 5.35 g/m*3 1.9 C 0 km/h
668 03-12-2014 09:55:00 1.9 C 5.35 g/m*3 1.9 C 0 km/h
669 03-12-2014 10:00:00 1.9 C 5.35 g/m*3 1.9 C 0 km/h
670 03-12-2014 10:05:00 2 C 5.39 g/m*3 2 C 0 km/h
671 03-12-2014 10:10:00 2 C 5.39 g/m*3 2 C 0 km/h
672 03-12-2014 10:15:00 2 C 5.39 g/m*3 2 C 0 km/h
673 03-12-2014 10:20:00 2 C 5.39 g/m*3 2 C 0 km/h
674 03-12-2014 10:25:00 1.9 C 5.35 g/m*3 1.9 C 1.6 km/h
675 03-12-2014 10:30:00 1.9 C 5.35 g/m*3 1.9 C 0 km/h
Sensor: Nr:Datum:Temp:Abs-Feuchte:Windchill:Wind:
Aussen-T/F 676 03-12-2014 10:35:00 1.9 C 5.35 g/m*3 1.9 C 1.6 km/h
677 03-12-2014 10:40:00 2.1 C 5.43 g/m*3 2.1 C 1.6 km/h
678 03-12-2014 10:45:00 2.1 C 5.43 g/m*3 2.1 C 1.6 km/h
679 03-12-2014 10:50:00 2.1 C 5.37 g/m*3 2.1 C 1.6 km/h
680 03-12-2014 10:55:00 2.1 C 5.37 g/m*3 2.1 C 0 km/h
681 03-12-2014 11:00:00 2.1 C 5.37 g/m*3 2.1 C 0 km/h
682 03-12-2014 11:05:00 2.1 C 5.37 g/m*3 2.1 C 3.2 km/h
683 03-12-2014 11:10:00 2.2 C 5.41 g/m*3 2.2 C 4.8 km/h
684 03-12-2014 11:15:00 2.3 C 5.44 g/m*3 2.3 C 4.8 km/h
685 03-12-2014 11:20:00 2.3 C 5.44 g/m*3 2.3 C 3.2 km/h
686 03-12-2014 11:25:00 2.3 C 5.44 g/m*3 2.3 C 4.8 km/h
687 03-12-2014 11:30:00 2.3 C 5.44 g/m*3 2.3 C 4.8 km/h
688 03-12-2014 12:15:00 2.6 C 5.32 g/m*3 2.6 C 0 km/h
689 03-12-2014 12:20:00 2.5 C 5.35 g/m*3 2.5 C 0 km/h
690 03-12-2014 12:25:00 2.6 C 5.38 g/m*3 2.6 C 0 km/h
691 03-12-2014 12:30:00 2.6 C 5.38 g/m*3 2.6 C 0 km/h
692 03-12-2014 12:35:00 2.5 C 5.35 g/m*3 2.5 C 0 km/h
693 03-12-2014 12:40:00 2.5 C 5.35 g/m*3 2.5 C 3.2 km/h
694 03-12-2014 12:45:00 2.5 C 5.35 g/m*3 2.5 C 1.6 km/h
695 03-12-2014 12:50:00 2.5 C 5.35 g/m*3 2.5 C 1.6 km/h
696 03-12-2014 16:05:00 2.2 C 5.13 g/m*3 2.2 C 0 km/h
697 03-12-2014 16:10:00 2.1 C 5.09 g/m*3 2.1 C 1.6 km/h
698 03-12-2014 16:15:00 2.1 C 5.09 g/m*3 2.1 C 4.8 km/h
699 03-12-2014 16:20:00 2.1 C 5.09 g/m*3 2.1 C 4.8 km/h
700 03-12-2014 16:25:00 2.1 C 5.09 g/m*3 2.1 C 0 km/h
Sensor: Nr:Datum:Temp:Abs-Feuchte:Windchill:Wind:
Aussen-T/F 701 03-12-2014 16:30:00 2.1 C 5.09 g/m*3 2.1 C 0 km/h
702 03-12-2014 16:35:00 2.1 C 5.09 g/m*3 2.1 C 0 km/h
703 03-12-2014 16:40:00 2.1 C 5.09 g/m*3 2.1 C 0 km/h
704 03-12-2014 16:45:00 2.1 C 5.09 g/m*3 2.1 C 0 km/h
705 03-12-2014 16:50:00 2.1 C 5.09 g/m*3 2.1 C 0 km/h
706 03-12-2014 16:55:00 2 C 5.11 g/m*3 2 C 0 km/h
707 03-12-2014 17:00:00 2 C 5.11 g/m*3 2 C 0 km/h
708 03-12-2014 17:05:00 2 C 5.11 g/m*3 2 C 0 km/h
709 03-12-2014 17:10:00 1.9 C 5.08 g/m*3 1.9 C 0 km/h
710 03-12-2014 17:15:00 1.9 C 5.02 g/m*3 1.9 C 1.6 km/h
711 03-12-2014 17:20:00 1.9 C 5.02 g/m*3 1.9 C 1.6 km/h
712 03-12-2014 18:15:00 1.9 C 4.91 g/m*3 1.9 C 1.6 km/h
713 03-12-2014 18:20:00 1.9 C 4.97 g/m*3 1.9 C 0 km/h
714 03-12-2014 18:25:00 1.9 C 4.91 g/m*3 1.9 C 3.2 km/h
715 03-12-2014 18:30:00 1.9 C 4.91 g/m*3 1.9 C 1.6 km/h
716 03-12-2014 18:35:00 1.9 C 4.91 g/m*3 1.9 C 0 km/h
717 03-12-2014 18:40:00 1.8 C 4.88 g/m*3 1.8 C 1.6 km/h
718 03-12-2014 18:45:00 1.8 C 4.88 g/m*3 1.8 C 0 km/h
719 03-12-2014 18:50:00 1.8 C 4.88 g/m*3 1.8 C 1.6 km/h
720 03-12-2014 18:55:00 1.8 C 4.93 g/m*3 1.8 C 3.2 km/h
721 03-12-2014 19:00:00 1.8 C 4.93 g/m*3 1.8 C 0 km/h
722 03-12-2014 19:05:00 1.8 C 4.93 g/m*3 1.8 C 0 km/h
723 03-12-2014 19:10:00 1.8 C 4.93 g/m*3 1.8 C 3.2 km/h
724 03-12-2014 19:15:00 1.7 C 4.85 g/m*3 1.7 C 1.6 km/h
725 03-12-2014 19:20:00 1.7 C 4.85 g/m*3 1.7 C 1.6 km/h
Sensor: Nr:Datum:Temp:Abs-Feuchte:Windchill:Wind:
Aussen-T/F 726 03-12-2014 19:25:00 1.7 C 4.9 g/m*3 1.7 C 1.6 km/h
727 03-12-2014 19:30:00 1.7 C 4.85 g/m*3 1.7 C 0 km/h
728 03-12-2014 19:35:00 1.7 C 4.9 g/m*3 1.7 C 3.2 km/h
729 03-12-2014 19:40:00 1.7 C 4.85 g/m*3 1.7 C 3.2 km/h
730 03-12-2014 19:45:00 1.7 C 4.85 g/m*3 1.7 C 1.6 km/h
731 03-12-2014 19:50:00 1.7 C 4.85 g/m*3 1.7 C 0 km/h
732 03-12-2014 19:55:00 1.7 C 4.79 g/m*3 1.7 C 1.6 km/h
733 03-12-2014 20:00:00 1.7 C 4.79 g/m*3 -0.22 C 6.4 km/h
734 03-12-2014 20:05:00 1.7 C 4.79 g/m*3 1.7 C 3.2 km/h
735 03-12-2014 20:10:00 1.7 C 4.79 g/m*3 1.7 C 1.6 km/h
736 03-12-2014 20:15:00 1.7 C 4.74 g/m*3 -0.22 C 6.4 km/h
737 03-12-2014 20:20:00 1.7 C 4.79 g/m*3 1.7 C 3.2 km/h
738 03-12-2014 20:25:00 1.7 C 4.79 g/m*3 1.7 C 3.2 km/h
739 03-12-2014 20:30:00 1.7 C 4.79 g/m*3 1.7 C 3.2 km/h
740 03-12-2014 20:35:00 1.7 C 4.79 g/m*3 1.7 C 3.2 km/h
741 03-12-2014 20:40:00 1.7 C 4.74 g/m*3 1.7 C 3.2 km/h
742 03-12-2014 20:45:00 1.7 C 4.79 g/m*3 1.7 C 3.2 km/h
743 03-12-2014 20:50:00 1.7 C 4.79 g/m*3 1.7 C 0 km/h
744 03-12-2014 20:55:00 1.7 C 4.85 g/m*3 1.7 C 0 km/h
745 03-12-2014 21:00:00 1.6 C 4.81 g/m*3 1.6 C 0 km/h
746 03-12-2014 21:05:00 1.6 C 4.81 g/m*3 1.6 C 0 km/h
747 03-12-2014 21:10:00 1.6 C 4.81 g/m*3 1.6 C 0 km/h
748 03-12-2014 21:15:00 1.6 C 4.81 g/m*3 1.6 C 0 km/h
749 03-12-2014 21:20:00 1.6 C 4.81 g/m*3 1.6 C 0 km/h
750 03-12-2014 21:25:00 1.6 C 4.87 g/m*3 1.6 C 0 km/h
Sensor: Nr:Datum:Temp:Abs-Feuchte:Windchill:Wind:
Aussen-T/F 751 03-12-2014 21:30:00 1.6 C 4.87 g/m*3 1.6 C 0 km/h
752 03-12-2014 21:35:00 1.6 C 4.87 g/m*3 1.6 C 0 km/h
753 03-12-2014 21:40:00 1.6 C 4.87 g/m*3 1.6 C 0 km/h
754 03-12-2014 21:45:00 1.5 C 4.83 g/m*3 1.5 C 0 km/h
755 03-12-2014 21:50:00 1.5 C 4.83 g/m*3 1.5 C 0 km/h
756 03-12-2014 21:55:00 1.5 C 4.89 g/m*3 1.5 C 1.6 km/h
757 03-12-2014 22:00:00 1.5 C 4.83 g/m*3 1.5 C 0 km/h
758 03-12-2014 22:05:00 1.5 C 4.83 g/m*3 1.5 C 0 km/h
759 03-12-2014 22:10:00 1.5 C 4.83 g/m*3 1.5 C 1.6 km/h
760 03-12-2014 22:15:00 1.5 C 4.83 g/m*3 1.5 C 0 km/h
761 03-12-2014 22:20:00 1.5 C 4.83 g/m*3 1.5 C 0 km/h
762 03-12-2014 22:25:00 1.5 C 4.83 g/m*3 1.5 C 0 km/h
763 03-12-2014 22:30:00 1.5 C 4.83 g/m*3 1.5 C 0 km/h
764 03-12-2014 22:35:00 1.6 C 4.87 g/m*3 1.6 C 0 km/h
765 03-12-2014 22:40:00 1.6 C 4.87 g/m*3 1.6 C 0 km/h
766 03-12-2014 22:45:00 1.6 C 4.87 g/m*3 1.6 C 0 km/h
767 03-12-2014 22:50:00 1.6 C 4.87 g/m*3 1.6 C 0 km/h
768 03-12-2014 22:55:00 1.6 C 4.87 g/m*3 1.6 C 0 km/h
769 03-12-2014 23:00:00 1.6 C 4.87 g/m*3 1.6 C 0 km/h
770 03-12-2014 23:05:00 1.6 C 4.87 g/m*3 1.6 C 0 km/h
771 03-12-2014 23:10:00 1.6 C 4.87 g/m*3 1.6 C 1.6 km/h
772 03-12-2014 23:15:00 1.5 C 4.83 g/m*3 1.5 C 0 km/h
773 03-12-2014 23:20:00 1.6 C 4.81 g/m*3 1.6 C 0 km/h
774 03-12-2014 23:25:00 1.5 C 4.78 g/m*3 1.5 C 0 km/h
775 03-12-2014 23:30:00 1.5 C 4.78 g/m*3 1.5 C 3.2 km/h
Sensor: Nr:Datum:Temp:Abs-Feuchte:Windchill:Wind:
Aussen-T/F 776 03-12-2014 23:35:00 1.6 C 4.81 g/m*3 1.6 C 1.6 km/h
777 03-12-2014 23:40:00 1.6 C 4.81 g/m*3 1.6 C 3.2 km/h
778 03-12-2014 23:45:00 1.6 C 4.81 g/m*3 1.6 C 4.8 km/h
779 03-12-2014 23:50:00 1.6 C 4.81 g/m*3 1.6 C 0 km/h
780 03-12-2014 23:55:00 1.6 C 4.81 g/m*3 1.6 C 1.6 km/h
781 04-12-2014 00:00:00 1.6 C 4.81 g/m*3 1.6 C 0 km/h
782 04-12-2014 00:05:00 1.6 C 4.81 g/m*3 1.6 C 0 km/h
783 04-12-2014 00:10:00 1.6 C 4.81 g/m*3 1.6 C 0 km/h
784 04-12-2014 00:15:00 1.6 C 4.87 g/m*3 1.6 C 0 km/h
785 04-12-2014 00:20:00 1.6 C 4.87 g/m*3 1.6 C 0 km/h
786 04-12-2014 00:25:00 1.6 C 4.87 g/m*3 1.6 C 0 km/h
787 04-12-2014 00:30:00 1.6 C 4.87 g/m*3 1.6 C 0 km/h
788 04-12-2014 00:35:00 1.6 C 4.87 g/m*3 1.6 C 0 km/h
789 04-12-2014 00:40:00 1.6 C 4.87 g/m*3 1.6 C 0 km/h
790 04-12-2014 00:45:00 1.6 C 4.87 g/m*3 1.6 C 0 km/h
791 04-12-2014 00:50:00 1.6 C 4.87 g/m*3 1.6 C 0 km/h
792 04-12-2014 00:55:00 1.6 C 4.87 g/m*3 1.6 C 0 km/h
793 04-12-2014 01:00:00 1.6 C 4.92 g/m*3 1.6 C 0 km/h
794 04-12-2014 01:05:00 1.6 C 4.92 g/m*3 1.6 C 0 km/h
795 04-12-2014 01:10:00 1.6 C 4.87 g/m*3 1.6 C 1.6 km/h
796 04-12-2014 01:15:00 1.6 C 4.87 g/m*3 1.6 C 0 km/h
797 04-12-2014 01:20:00 1.6 C 4.87 g/m*3 1.6 C 0 km/h
798 04-12-2014 01:25:00 1.6 C 4.87 g/m*3 1.6 C 0 km/h
799 04-12-2014 01:30:00 1.6 C 4.87 g/m*3 1.6 C 0 km/h
800 04-12-2014 01:35:00 1.6 C 4.87 g/m*3 1.6 C 1.6 km/h
Sensor: Nr:Datum:Temp:Abs-Feuchte:Windchill:Wind:
Aussen-T/F 801 04-12-2014 01:40:00 1.6 C 4.87 g/m*3 1.6 C 0 km/h
802 04-12-2014 01:45:00 1.6 C 4.87 g/m*3 1.6 C 0 km/h
803 04-12-2014 01:50:00 1.6 C 4.87 g/m*3 1.6 C 0 km/h
804 04-12-2014 01:55:00 1.6 C 4.87 g/m*3 1.6 C 1.6 km/h
805 04-12-2014 02:00:00 1.6 C 4.87 g/m*3 1.6 C 0 km/h
806 04-12-2014 02:05:00 1.6 C 4.87 g/m*3 1.6 C 0 km/h
807 04-12-2014 02:10:00 1.6 C 4.87 g/m*3 1.6 C 0 km/h
808 04-12-2014 02:15:00 1.6 C 4.87 g/m*3 1.6 C 0 km/h
809 04-12-2014 02:20:00 1.6 C 4.87 g/m*3 1.6 C 0 km/h
810 04-12-2014 02:25:00 1.6 C 4.87 g/m*3 1.6 C 0 km/h
811 04-12-2014 02:30:00 1.6 C 4.87 g/m*3 1.6 C 0 km/h
812 04-12-2014 02:35:00 1.6 C 4.87 g/m*3 1.6 C 0 km/h
813 04-12-2014 02:40:00 1.6 C 4.87 g/m*3 1.6 C 0 km/h
814 04-12-2014 02:45:00 1.6 C 4.87 g/m*3 1.6 C 0 km/h
815 04-12-2014 02:50:00 1.6 C 4.87 g/m*3 1.6 C 0 km/h
816 04-12-2014 02:55:00 1.6 C 4.87 g/m*3 1.6 C 0 km/h
817 04-12-2014 03:00:00 1.6 C 4.87 g/m*3 1.6 C 0 km/h
818 04-12-2014 03:05:00 1.6 C 4.87 g/m*3 1.6 C 1.6 km/h
819 04-12-2014 03:10:00 1.6 C 4.87 g/m*3 1.6 C 0 km/h
820 04-12-2014 03:15:00 1.6 C 4.87 g/m*3 1.6 C 0 km/h
821 04-12-2014 03:20:00 1.6 C 4.87 g/m*3 1.6 C 0 km/h
822 04-12-2014 03:25:00 1.6 C 4.87 g/m*3 1.6 C 0 km/h
823 04-12-2014 03:30:00 1.6 C 4.87 g/m*3 1.6 C 0 km/h
824 04-12-2014 03:35:00 1.6 C 4.87 g/m*3 1.6 C 0 km/h
825 04-12-2014 03:40:00 1.6 C 4.87 g/m*3 1.6 C 0 km/h
Sensor: Nr:Datum:Temp:Abs-Feuchte:Windchill:Wind:
Aussen-T/F 826 04-12-2014 03:45:00 1.6 C 4.87 g/m*3 1.6 C 0 km/h
827 04-12-2014 03:50:00 1.6 C 4.92 g/m*3 1.6 C 0 km/h
828 04-12-2014 03:55:00 1.6 C 4.92 g/m*3 1.6 C 0 km/h
829 04-12-2014 04:00:00 1.6 C 4.92 g/m*3 1.6 C 0 km/h
830 04-12-2014 04:05:00 1.6 C 4.87 g/m*3 1.6 C 1.6 km/h
831 04-12-2014 04:10:00 1.6 C 4.92 g/m*3 1.6 C 1.6 km/h
832 04-12-2014 04:15:00 1.6 C 4.92 g/m*3 1.6 C 0 km/h
833 04-12-2014 04:20:00 1.6 C 4.92 g/m*3 1.6 C 0 km/h
834 04-12-2014 04:25:00 1.6 C 4.92 g/m*3 1.6 C 0 km/h
835 04-12-2014 04:30:00 1.6 C 4.87 g/m*3 1.6 C 0 km/h
836 04-12-2014 04:35:00 1.6 C 4.87 g/m*3 1.6 C 0 km/h
837 04-12-2014 04:40:00 1.6 C 4.87 g/m*3 1.6 C 0 km/h
838 04-12-2014 04:45:00 1.6 C 4.87 g/m*3 1.6 C 1.6 km/h
839 04-12-2014 04:50:00 1.6 C 4.92 g/m*3 1.6 C 0 km/h
840 04-12-2014 04:55:00 1.6 C 4.92 g/m*3 1.6 C 1.6 km/h
841 04-12-2014 05:00:00 1.6 C 4.87 g/m*3 1.6 C 0 km/h
842 04-12-2014 05:05:00 1.6 C 4.92 g/m*3 1.6 C 1.6 km/h
843 04-12-2014 05:10:00 1.6 C 4.87 g/m*3 1.6 C 0 km/h
844 04-12-2014 05:15:00 1.6 C 4.92 g/m*3 1.6 C 0 km/h
845 04-12-2014 05:20:00 1.6 C 4.92 g/m*3 1.6 C 0 km/h
846 04-12-2014 05:25:00 1.6 C 4.92 g/m*3 1.6 C 0 km/h
847 04-12-2014 05:30:00 1.6 C 4.92 g/m*3 1.6 C 0 km/h
848 04-12-2014 05:35:00 1.6 C 4.92 g/m*3 1.6 C 0 km/h
849 04-12-2014 05:40:00 1.6 C 4.97 g/m*3 1.6 C 0 km/h
850 04-12-2014 05:45:00 1.6 C 4.97 g/m*3 1.6 C 0 km/h
Sensor: Nr:Datum:Temp:Abs-Feuchte:Windchill:Wind:
Aussen-T/F 851 04-12-2014 05:50:00 1.6 C 4.97 g/m*3 1.6 C 0 km/h
852 04-12-2014 05:55:00 1.6 C 4.97 g/m*3 1.6 C 0 km/h
853 04-12-2014 06:00:00 1.6 C 4.97 g/m*3 1.6 C 0 km/h
854 04-12-2014 06:05:00 1.6 C 4.97 g/m*3 1.6 C 0 km/h
855 04-12-2014 06:10:00 1.6 C 4.97 g/m*3 1.6 C 0 km/h
856 04-12-2014 06:15:00 1.6 C 4.97 g/m*3 1.6 C 0 km/h
857 04-12-2014 06:20:00 1.6 C 4.97 g/m*3 1.6 C 0 km/h
858 04-12-2014 06:25:00 1.6 C 4.97 g/m*3 1.6 C 0 km/h
859 04-12-2014 06:30:00 1.6 C 4.97 g/m*3 1.6 C 1.6 km/h
860 04-12-2014 06:35:00 1.6 C 4.97 g/m*3 1.6 C 0 km/h
861 04-12-2014 06:40:00 1.6 C 4.97 g/m*3 1.6 C 0 km/h
862 04-12-2014 06:45:00 1.6 C 4.97 g/m*3 1.6 C 0 km/h
863 04-12-2014 06:50:00 1.6 C 4.97 g/m*3 1.6 C 0 km/h
864 04-12-2014 06:55:00 1.6 C 5.03 g/m*3 1.6 C 0 km/h
865 04-12-2014 07:00:00 1.6 C 5.03 g/m*3 1.6 C 0 km/h
866 04-12-2014 07:05:00 1.6 C 5.03 g/m*3 1.6 C 0 km/h
867 04-12-2014 07:10:00 1.6 C 5.03 g/m*3 1.6 C 0 km/h
868 04-12-2014 07:15:00 1.6 C 5.03 g/m*3 1.6 C 0 km/h
869 04-12-2014 07:20:00 1.6 C 5.03 g/m*3 1.6 C 0 km/h
870 04-12-2014 07:25:00 1.6 C 5.03 g/m*3 1.6 C 0 km/h
871 04-12-2014 07:30:00 1.6 C 5.03 g/m*3 1.6 C 0 km/h
872 04-12-2014 07:35:00 1.6 C 5.03 g/m*3 1.6 C 0 km/h
873 04-12-2014 07:40:00 1.6 C 5.03 g/m*3 1.6 C 0 km/h
874 04-12-2014 07:45:00 1.6 C 5.03 g/m*3 1.6 C 0 km/h
875 04-12-2014 07:50:00 1.6 C 5.03 g/m*3 1.6 C 0 km/h
Sensor: Nr:Datum:Temp:Abs-Feuchte:Windchill:Wind:
Aussen-T/F 876 04-12-2014 07:55:00 1.6 C 5.03 g/m*3 1.6 C 0 km/h
877 04-12-2014 08:00:00 1.6 C 5.03 g/m*3 1.6 C 0 km/h
878 04-12-2014 08:05:00 1.6 C 5.08 g/m*3 1.6 C 0 km/h
879 04-12-2014 08:10:00 1.6 C 5.03 g/m*3 1.6 C 0 km/h
880 04-12-2014 08:15:00 1.6 C 5.08 g/m*3 1.6 C 0 km/h
881 04-12-2014 08:20:00 1.6 C 5.08 g/m*3 1.6 C 0 km/h
882 04-12-2014 08:25:00 1.6 C 5.08 g/m*3 1.6 C 0 km/h
883 04-12-2014 08:30:00 1.6 C 5.08 g/m*3 1.6 C 0 km/h
884 04-12-2014 08:35:00 1.6 C 5.08 g/m*3 1.6 C 0 km/h
885 04-12-2014 08:40:00 1.6 C 5.08 g/m*3 1.6 C 0 km/h
886 04-12-2014 08:45:00 1.6 C 5.08 g/m*3 1.6 C 0 km/h
887 04-12-2014 08:50:00 1.6 C 5.14 g/m*3 1.6 C 0 km/h
888 04-12-2014 08:55:00 1.6 C 5.14 g/m*3 1.6 C 0 km/h
889 04-12-2014 09:00:00 1.6 C 5.14 g/m*3 1.6 C 0 km/h
890 04-12-2014 09:05:00 1.7 C 5.17 g/m*3 1.7 C 0 km/h
891 04-12-2014 09:10:00 1.7 C 5.17 g/m*3 1.7 C 0 km/h
892 04-12-2014 09:15:00 1.7 C 5.17 g/m*3 1.7 C 0 km/h
893 04-12-2014 09:20:00 1.7 C 5.17 g/m*3 1.7 C 0 km/h
894 04-12-2014 09:25:00 1.7 C 5.17 g/m*3 1.7 C 0 km/h
895 04-12-2014 09:30:00 1.7 C 5.17 g/m*3 1.7 C 0 km/h
896 04-12-2014 09:35:00 1.7 C 5.17 g/m*3 1.7 C 0 km/h
897 04-12-2014 09:40:00 1.7 C 5.17 g/m*3 1.7 C 0 km/h
898 04-12-2014 09:45:00 1.7 C 5.17 g/m*3 1.7 C 0 km/h
899 04-12-2014 09:50:00 1.8 C 5.21 g/m*3 1.8 C 0 km/h
900 04-12-2014 09:55:00 1.8 C 5.21 g/m*3 1.8 C 1.6 km/h
Sensor: Nr:Datum:Temp:Abs-Feuchte:Windchill:Wind:
Aussen-T/F 901 04-12-2014 10:00:00 1.9 C 5.24 g/m*3 1.9 C 3.2 km/h
902 04-12-2014 10:05:00 1.9 C 5.24 g/m*3 1.9 C 3.2 km/h
903 04-12-2014 10:10:00 1.9 C 5.24 g/m*3 1.9 C 4.8 km/h
904 04-12-2014 10:15:00 1.9 C 5.24 g/m*3 1.9 C 3.2 km/h
905 04-12-2014 10:20:00 2 C 5.28 g/m*3 2 C 3.2 km/h
906 04-12-2014 10:25:00 2.1 C 5.31 g/m*3 2.1 C 4.8 km/h
907 04-12-2014 10:30:00 2.1 C 5.26 g/m*3 2.1 C 3.2 km/h
908 04-12-2014 10:35:00 2.1 C 5.26 g/m*3 2.1 C 3.2 km/h
909 04-12-2014 10:40:00 2.1 C 5.26 g/m*3 0.24 C 6.4 km/h
910 04-12-2014 10:45:00 2.1 C 5.26 g/m*3 2.1 C 3.2 km/h
911 04-12-2014 10:50:00 2.1 C 5.26 g/m*3 2.1 C 1.6 km/h
912 04-12-2014 10:55:00 2.1 C 5.2 g/m*3 2.1 C 1.6 km/h
913 04-12-2014 11:00:00 2.2 C 5.24 g/m*3 2.2 C 0 km/h
914 04-12-2014 11:05:00 2.2 C 5.24 g/m*3 2.2 C 1.6 km/h
915 04-12-2014 11:10:00 2.2 C 5.24 g/m*3 2.2 C 1.6 km/h
916 04-12-2014 11:15:00 2.2 C 5.24 g/m*3 2.2 C 1.6 km/h
917 04-12-2014 11:20:00 2.2 C 5.24 g/m*3 2.2 C 0 km/h
918 04-12-2014 11:25:00 2.2 C 5.24 g/m*3 2.2 C 0 km/h
919 04-12-2014 11:30:00 2.3 C 5.27 g/m*3 2.3 C 0 km/h
920 04-12-2014 11:35:00 2.3 C 5.27 g/m*3 2.3 C 0 km/h
921 04-12-2014 11:40:00 2.3 C 5.27 g/m*3 2.3 C 3.2 km/h
922 04-12-2014 11:45:00 2.4 C 5.31 g/m*3 2.4 C 1.6 km/h
923 04-12-2014 11:50:00 2.4 C 5.31 g/m*3 2.4 C 1.6 km/h
924 04-12-2014 11:55:00 2.4 C 5.25 g/m*3 2.4 C 1.6 km/h
925 04-12-2014 12:00:00 2.5 C 5.29 g/m*3 2.5 C 3.2 km/h
Sensor: Nr:Datum:Temp:Abs-Feuchte:Windchill:Wind:
Aussen-T/F 926 04-12-2014 12:05:00 2.5 C 5.29 g/m*3 2.5 C 1.6 km/h
927 04-12-2014 12:10:00 2.6 C 5.38 g/m*3 2.6 C 1.6 km/h
928 04-12-2014 12:15:00 2.6 C 5.32 g/m*3 2.6 C 1.6 km/h
929 04-12-2014 12:20:00 2.6 C 5.32 g/m*3 2.6 C 1.6 km/h
930 04-12-2014 12:25:00 2.6 C 5.32 g/m*3 2.6 C 3.2 km/h
931 04-12-2014 12:30:00 2.7 C 5.36 g/m*3 2.7 C 0 km/h
932 04-12-2014 12:35:00 2.7 C 5.36 g/m*3 2.7 C 1.6 km/h
933 04-12-2014 12:40:00 2.7 C 5.36 g/m*3 2.7 C 0 km/h
934 04-12-2014 12:45:00 2.7 C 5.36 g/m*3 2.7 C 0 km/h
935 04-12-2014 12:50:00 2.7 C 5.36 g/m*3 2.7 C 3.2 km/h
936 04-12-2014 12:55:00 2.7 C 5.36 g/m*3 2.7 C 1.6 km/h
937 04-12-2014 13:00:00 2.8 C 5.4 g/m*3 2.8 C 0 km/h
938 04-12-2014 13:05:00 2.8 C 5.4 g/m*3 2.8 C 0 km/h
939 04-12-2014 13:10:00 2.8 C 5.34 g/m*3 2.8 C 0 km/h
940 04-12-2014 13:15:00 2.8 C 5.4 g/m*3 2.8 C 1.6 km/h
941 04-12-2014 13:20:00 2.8 C 5.4 g/m*3 2.8 C 0 km/h
942 04-12-2014 13:25:00 2.9 C 5.43 g/m*3 2.9 C 0 km/h
943 04-12-2014 13:30:00 2.9 C 5.43 g/m*3 2.9 C 1.6 km/h
944 04-12-2014 13:35:00 2.9 C 5.43 g/m*3 2.9 C 1.6 km/h
945 04-12-2014 13:40:00 3 C 5.47 g/m*3 3 C 0 km/h
946 04-12-2014 13:45:00 3 C 5.47 g/m*3 3 C 1.6 km/h
947 04-12-2014 13:50:00 3.1 C 5.51 g/m*3 3.1 C 1.6 km/h
948 04-12-2014 13:55:00 3.1 C 5.51 g/m*3 3.1 C 1.6 km/h
949 04-12-2014 14:00:00 3.1 C 5.45 g/m*3 3.1 C 0 km/h
950 04-12-2014 14:05:00 3.1 C 5.51 g/m*3 3.1 C 1.6 km/h
Sensor: Nr:Datum:Temp:Abs-Feuchte:Windchill:Wind:
Aussen-T/F 951 04-12-2014 14:10:00 3.1 C 5.51 g/m*3 3.1 C 1.6 km/h
952 04-12-2014 14:15:00 3.2 C 5.54 g/m*3 3.2 C 1.6 km/h
953 04-12-2014 14:20:00 3.2 C 5.54 g/m*3 3.2 C 3.2 km/h
954 04-12-2014 14:25:00 3.2 C 5.54 g/m*3 3.2 C 3.2 km/h
955 04-12-2014 14:30:00 3.2 C 5.54 g/m*3 3.2 C 3.2 km/h
956 04-12-2014 14:35:00 3.2 C 5.54 g/m*3 3.2 C 1.6 km/h
957 04-12-2014 14:40:00 3.2 C 5.48 g/m*3 3.2 C 1.6 km/h
958 04-12-2014 14:45:00 3.2 C 5.48 g/m*3 3.2 C 0 km/h
959 04-12-2014 14:50:00 3.1 C 5.45 g/m*3 3.1 C 0 km/h
960 04-12-2014 14:55:00 3.2 C 5.54 g/m*3 3.2 C 1.6 km/h
961 04-12-2014 15:00:00 3.2 C 5.54 g/m*3 3.2 C 3.2 km/h
962 04-12-2014 15:05:00 3.2 C 5.54 g/m*3 3.2 C 0 km/h
963 04-12-2014 15:10:00 3.2 C 5.54 g/m*3 3.2 C 1.6 km/h
964 04-12-2014 15:15:00 3.2 C 5.54 g/m*3 1.51 C 6.4 km/h
965 04-12-2014 15:20:00 3.2 C 5.54 g/m*3 3.2 C 3.2 km/h
966 04-12-2014 15:25:00 3.2 C 5.54 g/m*3 3.2 C 3.2 km/h
967 04-12-2014 15:30:00 3.2 C 5.54 g/m*3 3.2 C 3.2 km/h
968 04-12-2014 15:35:00 3.2 C 5.54 g/m*3 3.2 C 1.6 km/h
969 04-12-2014 15:40:00 3.2 C 5.54 g/m*3 3.2 C 1.6 km/h
970 04-12-2014 15:45:00 3.2 C 5.54 g/m*3 3.2 C 1.6 km/h
971 04-12-2014 15:50:00 3.2 C 5.54 g/m*3 3.2 C 0 km/h
972 04-12-2014 15:55:00 3.2 C 5.54 g/m*3 3.2 C 1.6 km/h
973 04-12-2014 16:00:00 3.2 C 5.54 g/m*3 3.2 C 0 km/h
974 04-12-2014 16:05:00 3.1 C 5.51 g/m*3 3.1 C 0 km/h
975 04-12-2014 16:10:00 3.1 C 5.51 g/m*3 3.1 C 1.6 km/h
Sensor: Nr:Datum:Temp:Abs-Feuchte:Windchill:Wind:
Aussen-T/F 976 04-12-2014 16:15:00 3.1 C 5.57 g/m*3 3.1 C 0 km/h
977 04-12-2014 16:20:00 3.1 C 5.57 g/m*3 3.1 C 0 km/h
978 04-12-2014 16:25:00 3.1 C 5.57 g/m*3 3.1 C 0 km/h
979 04-12-2014 16:30:00 3.1 C 5.57 g/m*3 3.1 C 1.6 km/h
980 04-12-2014 16:35:00 3.1 C 5.57 g/m*3 3.1 C 1.6 km/h
981 04-12-2014 16:40:00 3.1 C 5.57 g/m*3 3.1 C 0 km/h
982 04-12-2014 16:45:00 3 C 5.53 g/m*3 3 C 1.6 km/h
983 04-12-2014 16:50:00 3 C 5.53 g/m*3 3 C 0 km/h
984 04-12-2014 16:55:00 3 C 5.53 g/m*3 3 C 0 km/h
985 04-12-2014 17:00:00 3 C 5.53 g/m*3 3 C 0 km/h
986 04-12-2014 17:05:00 3 C 5.53 g/m*3 3 C 0 km/h
987 04-12-2014 17:10:00 2.9 C 5.55 g/m*3 2.9 C 0 km/h
988 04-12-2014 17:15:00 2.9 C 5.55 g/m*3 2.9 C 0 km/h
989 04-12-2014 17:20:00 2.9 C 5.55 g/m*3 2.9 C 0 km/h
990 04-12-2014 17:25:00 2.9 C 5.55 g/m*3 2.9 C 0 km/h
991 04-12-2014 17:30:00 2.9 C 5.55 g/m*3 2.9 C 0 km/h
992 04-12-2014 17:35:00 2.9 C 5.55 g/m*3 2.9 C 0 km/h
993 04-12-2014 17:40:00 2.9 C 5.55 g/m*3 2.9 C 0 km/h
994 04-12-2014 17:45:00 2.9 C 5.55 g/m*3 2.9 C 0 km/h
995 04-12-2014 17:50:00 2.9 C 5.55 g/m*3 2.9 C 0 km/h
996 04-12-2014 17:55:00 2.9 C 5.55 g/m*3 2.9 C 0 km/h
997 04-12-2014 18:00:00 2.8 C 5.51 g/m*3 2.8 C 0 km/h
998 04-12-2014 18:05:00 2.8 C 5.51 g/m*3 2.8 C 0 km/h
999 04-12-2014 18:10:00 2.8 C 5.57 g/m*3 2.8 C 0 km/h
1000 04-12-2014 18:15:00 2.8 C 5.57 g/m*3 2.8 C 0 km/h
Sensor: Nr:Datum:Temp:Abs-Feuchte:Windchill:Wind:
Aussen-T/F 1001 04-12-2014 18:20:00 2.8 C 5.57 g/m*3 2.8 C 0 km/h
1002 04-12-2014 18:25:00 2.8 C 5.51 g/m*3 2.8 C 0 km/h
1003 04-12-2014 18:30:00 2.8 C 5.51 g/m*3 2.8 C 0 km/h
1004 04-12-2014 18:35:00 2.8 C 5.57 g/m*3 2.8 C 0 km/h
1005 04-12-2014 18:40:00 2.8 C 5.57 g/m*3 2.8 C 0 km/h
1006 04-12-2014 18:45:00 2.8 C 5.57 g/m*3 2.8 C 0 km/h
1007 04-12-2014 18:50:00 2.8 C 5.57 g/m*3 2.8 C 0 km/h
1008 04-12-2014 18:55:00 2.8 C 5.57 g/m*3 2.8 C 0 km/h
1009 04-12-2014 19:00:00 2.8 C 5.57 g/m*3 2.8 C 0 km/h
1010 04-12-2014 19:05:00 2.8 C 5.57 g/m*3 2.8 C 0 km/h
1011 04-12-2014 19:10:00 2.8 C 5.57 g/m*3 2.8 C 0 km/h
1012 04-12-2014 19:15:00 2.8 C 5.57 g/m*3 2.8 C 0 km/h
1013 04-12-2014 19:20:00 2.9 C 5.61 g/m*3 2.9 C 0 km/h
1014 04-12-2014 19:25:00 2.9 C 5.61 g/m*3 2.9 C 0 km/h
1015 04-12-2014 19:30:00 2.8 C 5.57 g/m*3 2.8 C 0 km/h
1016 04-12-2014 19:35:00 2.8 C 5.57 g/m*3 2.8 C 0 km/h
1017 04-12-2014 19:40:00 2.8 C 5.57 g/m*3 2.8 C 0 km/h
1018 04-12-2014 19:45:00 2.9 C 5.61 g/m*3 2.9 C 0 km/h
1019 04-12-2014 19:50:00 2.9 C 5.61 g/m*3 2.9 C 0 km/h
1020 04-12-2014 19:55:00 2.9 C 5.61 g/m*3 2.9 C 0 km/h
1021 04-12-2014 20:00:00 2.9 C 5.61 g/m*3 2.9 C 0 km/h
1022 04-12-2014 20:05:00 2.9 C 5.61 g/m*3 2.9 C 0 km/h
1023 04-12-2014 20:10:00 2.9 C 5.55 g/m*3 2.9 C 1.6 km/h
1024 04-12-2014 20:15:00 2.9 C 5.55 g/m*3 2.9 C 0 km/h
1025 04-12-2014 20:20:00 2.9 C 5.55 g/m*3 2.9 C 0 km/h
Sensor: Nr:Datum:Temp:Abs-Feuchte:Windchill:Wind:
Aussen-T/F 1026 04-12-2014 20:25:00 3 C 5.59 g/m*3 3 C 0 km/h
1027 04-12-2014 20:30:00 3 C 5.59 g/m*3 3 C 0 km/h
1028 04-12-2014 20:35:00 3 C 5.59 g/m*3 3 C 0 km/h
1029 04-12-2014 20:40:00 3 C 5.59 g/m*3 3 C 0 km/h
1030 04-12-2014 20:45:00 3 C 5.59 g/m*3 3 C 1.6 km/h
1031 04-12-2014 20:50:00 3.1 C 5.63 g/m*3 3.1 C 1.6 km/h
1032 04-12-2014 20:55:00 3.1 C 5.63 g/m*3 3.1 C 1.6 km/h
1033 04-12-2014 21:00:00 3.1 C 5.63 g/m*3 3.1 C 0 km/h
1034 04-12-2014 21:05:00 3.1 C 5.63 g/m*3 3.1 C 0 km/h
1035 04-12-2014 21:10:00 3.1 C 5.63 g/m*3 3.1 C 0 km/h
1036 04-12-2014 21:15:00 3.1 C 5.63 g/m*3 3.1 C 0 km/h
1037 04-12-2014 21:20:00 3.1 C 5.63 g/m*3 3.1 C 0 km/h
1038 04-12-2014 21:25:00 3.1 C 5.63 g/m*3 3.1 C 0 km/h
1039 04-12-2014 21:30:00 3.1 C 5.63 g/m*3 3.1 C 0 km/h
1040 04-12-2014 21:35:00 3.1 C 5.63 g/m*3 3.1 C 0 km/h
1041 04-12-2014 21:40:00 3.1 C 5.63 g/m*3 3.1 C 0 km/h
1042 04-12-2014 21:45:00 3.1 C 5.63 g/m*3 3.1 C 0 km/h
1043 04-12-2014 21:50:00 3.1 C 5.63 g/m*3 3.1 C 0 km/h
1044 04-12-2014 21:55:00 3.1 C 5.63 g/m*3 3.1 C 0 km/h
1045 04-12-2014 22:00:00 3.1 C 5.63 g/m*3 3.1 C 0 km/h
1046 04-12-2014 22:05:00 3.1 C 5.63 g/m*3 3.1 C 0 km/h
1047 04-12-2014 22:10:00 3 C 5.59 g/m*3 3 C 0 km/h
1048 04-12-2014 22:15:00 2.9 C 5.55 g/m*3 2.9 C 0 km/h
1049 04-12-2014 22:20:00 2.9 C 5.55 g/m*3 2.9 C 0 km/h
1050 04-12-2014 22:25:00 2.9 C 5.55 g/m*3 2.9 C 0 km/h
Sensor: Nr:Datum:Temp:Abs-Feuchte:Windchill:Wind:
Aussen-T/F 1051 04-12-2014 22:30:00 2.9 C 5.61 g/m*3 2.9 C 0 km/h
1052 04-12-2014 22:35:00 2.9 C 5.61 g/m*3 2.9 C 0 km/h
1053 04-12-2014 22:40:00 2.9 C 5.61 g/m*3 2.9 C 0 km/h
1054 04-12-2014 22:45:00 2.9 C 5.61 g/m*3 2.9 C 0 km/h
1055 04-12-2014 22:50:00 2.8 C 5.57 g/m*3 2.8 C 0 km/h
1056 04-12-2014 22:55:00 2.8 C 5.57 g/m*3 2.8 C 0 km/h
1057 04-12-2014 23:00:00 2.9 C 5.61 g/m*3 2.9 C 0 km/h
1058 04-12-2014 23:05:00 2.9 C 5.61 g/m*3 2.9 C 1.6 km/h
1059 04-12-2014 23:10:00 2.9 C 5.61 g/m*3 2.9 C 0 km/h
1060 04-12-2014 23:15:00 2.9 C 5.61 g/m*3 2.9 C 1.6 km/h
1061 04-12-2014 23:20:00 2.9 C 5.61 g/m*3 2.9 C 0 km/h
1062 04-12-2014 23:25:00 3 C 5.59 g/m*3 3 C 0 km/h
1063 04-12-2014 23:30:00 3 C 5.59 g/m*3 3 C 1.6 km/h
1064 04-12-2014 23:35:00 3 C 5.59 g/m*3 3 C 1.6 km/h
1065 04-12-2014 23:40:00 3 C 5.59 g/m*3 3 C 0 km/h
1066 04-12-2014 23:45:00 3 C 5.59 g/m*3 3 C 0 km/h
1067 04-12-2014 23:50:00 2.9 C 5.55 g/m*3 2.9 C 0 km/h
1068 04-12-2014 23:55:00 2.9 C 5.61 g/m*3 2.9 C 0 km/h
1069 05-12-2014 00:00:00 2.9 C 5.61 g/m*3 2.9 C 0 km/h
1070 05-12-2014 00:05:00 2.9 C 5.61 g/m*3 2.9 C 0 km/h
1071 05-12-2014 00:10:00 2.9 C 5.61 g/m*3 2.9 C 0 km/h
1072 05-12-2014 00:15:00 2.9 C 5.61 g/m*3 2.9 C 0 km/h
1073 05-12-2014 00:20:00 2.9 C 5.61 g/m*3 2.9 C 0 km/h
1074 05-12-2014 00:25:00 2.9 C 5.61 g/m*3 2.9 C 0 km/h
1075 05-12-2014 00:30:00 2.9 C 5.61 g/m*3 2.9 C 0 km/h
Sensor: Nr:Datum:Temp:Abs-Feuchte:Windchill:Wind:
Aussen-T/F 1076 05-12-2014 00:35:00 2.9 C 5.61 g/m*3 2.9 C 0 km/h
1077 05-12-2014 00:40:00 3 C 5.65 g/m*3 3 C 0 km/h
1078 05-12-2014 00:45:00 3 C 5.65 g/m*3 3 C 0 km/h
1079 05-12-2014 00:50:00 3 C 5.65 g/m*3 3 C 0 km/h
1080 05-12-2014 00:55:00 3.1 C 5.69 g/m*3 3.1 C 0 km/h
1081 05-12-2014 01:00:00 3.1 C 5.69 g/m*3 3.1 C 0 km/h
1082 05-12-2014 01:05:00 3.1 C 5.69 g/m*3 3.1 C 0 km/h
1083 05-12-2014 01:10:00 3.1 C 5.69 g/m*3 3.1 C 0 km/h
1084 05-12-2014 01:15:00 3.1 C 5.69 g/m*3 3.1 C 1.6 km/h
1085 05-12-2014 01:20:00 3.1 C 5.69 g/m*3 3.1 C 0 km/h
1086 05-12-2014 01:25:00 3.1 C 5.69 g/m*3 3.1 C 1.6 km/h
1087 05-12-2014 01:30:00 3.2 C 5.72 g/m*3 3.2 C 0 km/h
1088 05-12-2014 01:35:00 3.2 C 5.72 g/m*3 3.2 C 0 km/h
1089 05-12-2014 01:40:00 3.2 C 5.72 g/m*3 3.2 C 0 km/h
1090 05-12-2014 01:45:00 3.2 C 5.72 g/m*3 3.2 C 0 km/h
1091 05-12-2014 01:50:00 3.2 C 5.72 g/m*3 3.2 C 0 km/h
1092 05-12-2014 01:55:00 3.2 C 5.72 g/m*3 3.2 C 0 km/h
1093 05-12-2014 02:00:00 3.3 C 5.76 g/m*3 3.3 C 0 km/h
1094 05-12-2014 02:05:00 3.2 C 5.72 g/m*3 3.2 C 0 km/h
1095 05-12-2014 02:10:00 3.2 C 5.72 g/m*3 3.2 C 0 km/h
1096 05-12-2014 02:15:00 3.2 C 5.72 g/m*3 3.2 C 0 km/h
1097 05-12-2014 02:20:00 3.2 C 5.72 g/m*3 3.2 C 0 km/h
1098 05-12-2014 02:25:00 3.2 C 5.72 g/m*3 3.2 C 0 km/h
1099 05-12-2014 02:30:00 3.2 C 5.72 g/m*3 3.2 C 0 km/h
1100 05-12-2014 02:35:00 3.2 C 5.72 g/m*3 3.2 C 0 km/h
Sensor: Nr:Datum:Temp:Abs-Feuchte:Windchill:Wind:
Aussen-T/F 1101 05-12-2014 02:40:00 3.3 C 5.76 g/m*3 3.3 C 0 km/h
1102 05-12-2014 02:45:00 3.3 C 5.76 g/m*3 3.3 C 0 km/h
1103 05-12-2014 02:50:00 3.3 C 5.76 g/m*3 3.3 C 0 km/h
1104 05-12-2014 02:55:00 3.3 C 5.76 g/m*3 3.3 C 0 km/h
1105 05-12-2014 03:00:00 3.3 C 5.76 g/m*3 3.3 C 1.6 km/h
1106 05-12-2014 03:05:00 3.3 C 5.76 g/m*3 3.3 C 0 km/h
1107 05-12-2014 03:10:00 3.3 C 5.76 g/m*3 3.3 C 0 km/h
1108 05-12-2014 03:15:00 3.3 C 5.7 g/m*3 3.3 C 0 km/h
1109 05-12-2014 03:20:00 3.3 C 5.7 g/m*3 3.3 C 0 km/h
1110 05-12-2014 03:25:00 3.3 C 5.7 g/m*3 3.3 C 3.2 km/h
1111 05-12-2014 03:30:00 3.3 C 5.64 g/m*3 3.3 C 4.8 km/h
1112 05-12-2014 03:35:00 3.3 C 5.64 g/m*3 3.3 C 1.6 km/h
1113 05-12-2014 03:40:00 3.3 C 5.64 g/m*3 3.3 C 1.6 km/h
1114 05-12-2014 03:45:00 3.3 C 5.64 g/m*3 3.3 C 3.2 km/h
1115 05-12-2014 03:50:00 3.3 C 5.64 g/m*3 3.3 C 1.6 km/h
1116 05-12-2014 03:55:00 3.3 C 5.64 g/m*3 3.3 C 4.8 km/h
1117 05-12-2014 04:00:00 3.2 C 5.6 g/m*3 3.2 C 1.6 km/h
1118 05-12-2014 04:05:00 3.2 C 5.6 g/m*3 3.2 C 0 km/h
1119 05-12-2014 04:10:00 3.2 C 5.6 g/m*3 3.2 C 0 km/h
1120 05-12-2014 04:15:00 3.2 C 5.6 g/m*3 3.2 C 1.6 km/h
1121 05-12-2014 04:20:00 3.2 C 5.6 g/m*3 3.2 C 0 km/h
1122 05-12-2014 04:25:00 3.2 C 5.6 g/m*3 3.2 C 1.6 km/h
1123 05-12-2014 04:30:00 3.2 C 5.6 g/m*3 3.2 C 4.8 km/h
1124 05-12-2014 04:35:00 3.2 C 5.6 g/m*3 3.2 C 1.6 km/h
1125 05-12-2014 04:40:00 3.2 C 5.6 g/m*3 3.2 C 3.2 km/h
Sensor: Nr:Datum:Temp:Abs-Feuchte:Windchill:Wind:
Aussen-T/F 1126 05-12-2014 04:45:00 3.2 C 5.6 g/m*3 3.2 C 3.2 km/h
1127 05-12-2014 04:50:00 3.2 C 5.6 g/m*3 3.2 C 3.2 km/h
1128 05-12-2014 04:55:00 3.2 C 5.6 g/m*3 3.2 C 1.6 km/h
1129 05-12-2014 05:00:00 3.2 C 5.6 g/m*3 3.2 C 1.6 km/h
1130 05-12-2014 05:05:00 3.2 C 5.6 g/m*3 3.2 C 0 km/h
1131 05-12-2014 05:10:00 3.1 C 5.57 g/m*3 3.1 C 0 km/h
1132 05-12-2014 05:15:00 3.1 C 5.57 g/m*3 3.1 C 0 km/h
1133 05-12-2014 05:20:00 3.1 C 5.57 g/m*3 3.1 C 0 km/h
1134 05-12-2014 05:25:00 3.1 C 5.57 g/m*3 3.1 C 1.6 km/h
1135 05-12-2014 05:30:00 3.1 C 5.57 g/m*3 3.1 C 0 km/h
1136 05-12-2014 05:35:00 3.1 C 5.57 g/m*3 3.1 C 0 km/h
1137 05-12-2014 05:40:00 3.1 C 5.57 g/m*3 3.1 C 1.6 km/h
1138 05-12-2014 05:45:00 3.1 C 5.57 g/m*3 3.1 C 3.2 km/h
1139 05-12-2014 05:50:00 3.1 C 5.57 g/m*3 3.1 C 1.6 km/h
1140 05-12-2014 05:55:00 3.1 C 5.57 g/m*3 3.1 C 1.6 km/h
1141 05-12-2014 06:00:00 3.1 C 5.57 g/m*3 3.1 C 0 km/h
1142 05-12-2014 06:05:00 3.1 C 5.57 g/m*3 3.1 C 1.6 km/h
1143 05-12-2014 06:10:00 3.1 C 5.57 g/m*3 3.1 C 0 km/h
1144 05-12-2014 06:15:00 3.1 C 5.57 g/m*3 3.1 C 0 km/h
1145 05-12-2014 06:20:00 3.1 C 5.57 g/m*3 3.1 C 0 km/h
1146 05-12-2014 06:25:00 3.1 C 5.57 g/m*3 3.1 C 0 km/h
1147 05-12-2014 06:30:00 3.1 C 5.57 g/m*3 3.1 C 0 km/h
1148 05-12-2014 06:35:00 3.1 C 5.63 g/m*3 3.1 C 0 km/h
1149 05-12-2014 06:40:00 3.1 C 5.63 g/m*3 3.1 C 0 km/h
1150 05-12-2014 06:45:00 3.1 C 5.63 g/m*3 3.1 C 0 km/h
Sensor: Nr:Datum:Temp:Abs-Feuchte:Windchill:Wind:
Aussen-T/F 1151 05-12-2014 06:50:00 3.1 C 5.63 g/m*3 3.1 C 0 km/h
1152 05-12-2014 06:55:00 3.1 C 5.63 g/m*3 3.1 C 0 km/h
1153 05-12-2014 07:00:00 3.1 C 5.63 g/m*3 3.1 C 0 km/h
1154 05-12-2014 07:05:00 3.1 C 5.63 g/m*3 3.1 C 0 km/h
1155 05-12-2014 07:10:00 3.1 C 5.63 g/m*3 3.1 C 0 km/h
1156 05-12-2014 07:15:00 3.1 C 5.63 g/m*3 3.1 C 1.6 km/h
1157 05-12-2014 07:20:00 3.1 C 5.63 g/m*3 3.1 C 0 km/h
1158 05-12-2014 07:25:00 3.2 C 5.66 g/m*3 3.2 C 0 km/h
1159 05-12-2014 07:30:00 3.2 C 5.66 g/m*3 3.2 C 1.6 km/h
1160 05-12-2014 07:35:00 3.2 C 5.66 g/m*3 3.2 C 0 km/h
1161 05-12-2014 07:40:00 3.2 C 5.66 g/m*3 3.2 C 0 km/h
1162 05-12-2014 07:45:00 3.2 C 5.66 g/m*3 3.2 C 0 km/h
1163 05-12-2014 07:50:00 3.2 C 5.66 g/m*3 3.2 C 0 km/h
1164 05-12-2014 07:55:00 3.2 C 5.66 g/m*3 3.2 C 0 km/h
1165 05-12-2014 08:00:00 3.2 C 5.66 g/m*3 3.2 C 0 km/h
1166 05-12-2014 08:05:00 3.2 C 5.66 g/m*3 3.2 C 0 km/h
1167 05-12-2014 08:10:00 3.2 C 5.66 g/m*3 3.2 C 0 km/h
1168 05-12-2014 08:15:00 3.2 C 5.66 g/m*3 3.2 C 0 km/h
1169 05-12-2014 08:20:00 3.2 C 5.66 g/m*3 3.2 C 0 km/h
1170 05-12-2014 08:25:00 3.2 C 5.66 g/m*3 3.2 C 0 km/h
1171 05-12-2014 08:30:00 3.2 C 5.66 g/m*3 3.2 C 0 km/h
1172 05-12-2014 08:35:00 3.2 C 5.66 g/m*3 3.2 C 0 km/h
1173 05-12-2014 08:40:00 3.2 C 5.66 g/m*3 3.2 C 0 km/h
1174 05-12-2014 08:45:00 3.2 C 5.66 g/m*3 3.2 C 0 km/h
1175 05-12-2014 08:50:00 3.2 C 5.66 g/m*3 3.2 C 0 km/h
Sensor: Nr:Datum:Temp:Abs-Feuchte:Windchill:Wind:
Aussen-T/F 1176 05-12-2014 08:55:00 3.3 C 5.7 g/m*3 3.3 C 0 km/h
1177 05-12-2014 09:00:00 3.3 C 5.7 g/m*3 3.3 C 0 km/h
1178 05-12-2014 09:05:00 3.3 C 5.7 g/m*3 3.3 C 0 km/h
1179 05-12-2014 09:10:00 3.3 C 5.7 g/m*3 3.3 C 0 km/h
1180 05-12-2014 09:15:00 3.3 C 5.7 g/m*3 3.3 C 0 km/h
1181 05-12-2014 09:20:00 3.4 C 5.74 g/m*3 3.4 C 0 km/h
1182 05-12-2014 09:25:00 3.4 C 5.68 g/m*3 3.4 C 0 km/h
1183 05-12-2014 09:30:00 3.6 C 5.76 g/m*3 3.6 C 0 km/h
1184 05-12-2014 09:35:00 3.6 C 5.82 g/m*3 3.6 C 0 km/h
1185 05-12-2014 09:40:00 3.7 C 5.8 g/m*3 3.7 C 0 km/h
1186 05-12-2014 09:45:00 3.7 C 5.8 g/m*3 3.7 C 0 km/h
1187 05-12-2014 09:50:00 3.7 C 5.8 g/m*3 3.7 C 0 km/h
1188 05-12-2014 09:55:00 3.8 C 5.83 g/m*3 3.8 C 1.6 km/h
1189 05-12-2014 10:00:00 3.8 C 5.77 g/m*3 3.8 C 1.6 km/h
1190 05-12-2014 10:05:00 3.9 C 5.81 g/m*3 3.9 C 3.2 km/h
1191 05-12-2014 10:10:00 3.9 C 5.81 g/m*3 3.9 C 1.6 km/h
1192 05-12-2014 10:15:00 4 C 5.85 g/m*3 4 C 1.6 km/h
1193 05-12-2014 10:20:00 4.1 C 5.89 g/m*3 2.55 C 6.4 km/h
1194 05-12-2014 10:25:00 4.2 C 5.93 g/m*3 2.67 C 6.4 km/h
1195 05-12-2014 10:30:00 4.2 C 5.86 g/m*3 4.2 C 4.8 km/h
1196 05-12-2014 10:35:00 4.2 C 5.86 g/m*3 4.2 C 4.8 km/h
1197 05-12-2014 10:40:00 4.2 C 5.86 g/m*3 4.2 C 4.8 km/h
1198 05-12-2014 10:45:00 4.3 C 5.9 g/m*3 4.3 C 1.6 km/h
1199 05-12-2014 10:50:00 4.3 C 5.9 g/m*3 4.3 C 3.2 km/h
1200 05-12-2014 10:55:00 4.3 C 5.9 g/m*3 4.3 C 1.6 km/h
Sensor: Nr:Datum:Temp:Abs-Feuchte:Windchill:Wind:
Aussen-T/F 1201 05-12-2014 11:00:00 4.3 C 5.9 g/m*3 4.3 C 0 km/h
1202 05-12-2014 11:05:00 4.3 C 5.9 g/m*3 4.3 C 0 km/h
1203 05-12-2014 11:10:00 4.4 C 5.94 g/m*3 4.4 C 0 km/h
1204 05-12-2014 11:15:00 4.4 C 5.94 g/m*3 4.4 C 1.6 km/h
1205 05-12-2014 11:20:00 4.4 C 5.94 g/m*3 4.4 C 3.2 km/h
1206 05-12-2014 11:25:00 4.5 C 5.98 g/m*3 4.5 C 3.2 km/h
1207 05-12-2014 11:30:00 4.6 C 6.02 g/m*3 4.6 C 1.6 km/h
1208 05-12-2014 11:35:00 4.6 C 6.02 g/m*3 4.6 C 3.2 km/h
1209 05-12-2014 11:40:00 4.6 C 5.96 g/m*3 4.6 C 3.2 km/h
1210 05-12-2014 11:45:00 4.7 C 6 g/m*3 4.7 C 3.2 km/h
1211 05-12-2014 11:50:00 4.7 C 6.06 g/m*3 4.7 C 1.6 km/h
1212 05-12-2014 11:55:00 4.7 C 6 g/m*3 4.7 C 0 km/h
1213 05-12-2014 12:00:00 4.8 C 6.1 g/m*3 4.8 C 1.6 km/h
1214 05-12-2014 12:05:00 4.8 C 6.04 g/m*3 4.8 C 1.6 km/h
1215 05-12-2014 12:10:00 4.8 C 6.04 g/m*3 3.36 C 6.4 km/h
1216 05-12-2014 12:15:00 4.8 C 6.04 g/m*3 4.8 C 4.8 km/h
1217 05-12-2014 12:20:00 4.8 C 6.04 g/m*3 4.8 C 4.8 km/h
1218 05-12-2014 12:25:00 4.9 C 6.08 g/m*3 3.48 C 6.4 km/h
1219 05-12-2014 12:30:00 4.8 C 6.04 g/m*3 4.8 C 3.2 km/h
1220 05-12-2014 12:35:00 4.9 C 6.08 g/m*3 3.48 C 6.4 km/h
1221 05-12-2014 12:40:00 4.9 C 6.08 g/m*3 4.9 C 4.8 km/h
1222 05-12-2014 12:45:00 4.9 C 6.08 g/m*3 4.9 C 3.2 km/h
1223 05-12-2014 12:50:00 4.9 C 6.08 g/m*3 4.9 C 1.6 km/h
1224 05-12-2014 12:55:00 4.9 C 6.08 g/m*3 3.48 C 6.4 km/h
1225 05-12-2014 13:00:00 4.9 C 6.08 g/m*3 4.9 C 4.8 km/h
Sensor: Nr:Datum:Temp:Abs-Feuchte:Windchill:Wind:
Aussen-T/F 1226 05-12-2014 13:05:00 4.9 C 6.08 g/m*3 4.9 C 4.8 km/h
1227 05-12-2014 13:10:00 4.9 C 6.08 g/m*3 4.9 C 4.8 km/h
1228 05-12-2014 13:15:00 5 C 6.12 g/m*3 3.59 C 6.4 km/h
1229 05-12-2014 13:20:00 5 C 6.12 g/m*3 5 C 4.8 km/h
1230 05-12-2014 13:25:00 5.1 C 6.16 g/m*3 5.1 C 3.2 km/h
1231 05-12-2014 13:30:00 5.1 C 6.16 g/m*3 5.1 C 3.2 km/h
1232 05-12-2014 13:35:00 5.2 C 6.2 g/m*3 5.2 C 4.8 km/h
1233 05-12-2014 13:40:00 5.2 C 6.2 g/m*3 3.82 C 6.4 km/h
1234 05-12-2014 13:45:00 5.2 C 6.2 g/m*3 5.2 C 4.8 km/h
1235 05-12-2014 13:50:00 5.2 C 6.2 g/m*3 3.82 C 6.4 km/h
1236 05-12-2014 13:55:00 5.3 C 6.17 g/m*3 5.3 C 4.8 km/h
1237 05-12-2014 14:00:00 5.3 C 6.24 g/m*3 5.3 C 3.2 km/h
1238 05-12-2014 14:05:00 5.3 C 6.24 g/m*3 5.3 C 3.2 km/h
1239 05-12-2014 14:10:00 5.3 C 6.24 g/m*3 5.3 C 3.2 km/h
1240 05-12-2014 14:15:00 5.3 C 6.24 g/m*3 5.3 C 1.6 km/h
1241 05-12-2014 14:20:00 5.3 C 6.24 g/m*3 5.3 C 1.6 km/h
1242 05-12-2014 14:25:00 5.3 C 6.24 g/m*3 5.3 C 4.8 km/h
1243 05-12-2014 14:30:00 5.3 C 6.24 g/m*3 5.3 C 3.2 km/h
1244 05-12-2014 14:35:00 5.3 C 6.17 g/m*3 5.3 C 1.6 km/h
1245 05-12-2014 14:40:00 5.4 C 6.28 g/m*3 5.4 C 3.2 km/h
1246 05-12-2014 14:45:00 5.4 C 6.21 g/m*3 5.4 C 1.6 km/h
1247 05-12-2014 14:50:00 5.4 C 6.28 g/m*3 5.4 C 0 km/h
1248 05-12-2014 14:55:00 5.4 C 6.21 g/m*3 5.4 C 0 km/h
1249 05-12-2014 15:00:00 5.4 C 6.21 g/m*3 5.4 C 1.6 km/h
1250 05-12-2014 15:05:00 5.4 C 6.21 g/m*3 5.4 C 0 km/h
Sensor: Nr:Datum:Temp:Abs-Feuchte:Windchill:Wind:
Aussen-T/F 1251 05-12-2014 15:10:00 5.4 C 6.21 g/m*3 5.4 C 0 km/h
1252 05-12-2014 15:15:00 5.4 C 6.21 g/m*3 5.4 C 0 km/h
1253 05-12-2014 15:20:00 5.4 C 6.21 g/m*3 5.4 C 0 km/h
1254 05-12-2014 15:25:00 5.4 C 6.28 g/m*3 5.4 C 0 km/h
1255 05-12-2014 15:30:00 5.4 C 6.28 g/m*3 5.4 C 0 km/h
1256 05-12-2014 15:35:00 5.4 C 6.28 g/m*3 5.4 C 0 km/h
1257 05-12-2014 15:40:00 5.4 C 6.28 g/m*3 5.4 C 0 km/h
1258 05-12-2014 15:45:00 5.3 C 6.24 g/m*3 5.3 C 0 km/h
1259 05-12-2014 15:50:00 5.3 C 6.24 g/m*3 5.3 C 0 km/h
1260 05-12-2014 15:55:00 5.3 C 6.31 g/m*3 5.3 C 0 km/h
1261 05-12-2014 16:00:00 5.3 C 6.24 g/m*3 5.3 C 0 km/h
1262 05-12-2014 16:05:00 5.3 C 6.31 g/m*3 5.3 C 0 km/h
1263 05-12-2014 16:10:00 5.2 C 6.27 g/m*3 5.2 C 0 km/h
1264 05-12-2014 16:15:00 5.2 C 6.27 g/m*3 5.2 C 0 km/h
1265 05-12-2014 16:20:00 5.2 C 6.33 g/m*3 5.2 C 0 km/h
1266 05-12-2014 16:25:00 5.2 C 6.33 g/m*3 5.2 C 0 km/h
1267 05-12-2014 16:30:00 5.1 C 6.29 g/m*3 5.1 C 0 km/h
1268 05-12-2014 16:35:00 5.1 C 6.29 g/m*3 5.1 C 0 km/h
1269 05-12-2014 16:40:00 5 C 6.25 g/m*3 5 C 0 km/h
1270 05-12-2014 16:45:00 4.9 C 6.21 g/m*3 4.9 C 0 km/h
1271 05-12-2014 16:50:00 4.9 C 6.21 g/m*3 4.9 C 0 km/h
1272 05-12-2014 16:55:00 4.9 C 6.28 g/m*3 4.9 C 0 km/h
1273 05-12-2014 17:00:00 4.9 C 6.28 g/m*3 4.9 C 0 km/h
1274 05-12-2014 17:05:00 4.9 C 6.28 g/m*3 4.9 C 0 km/h
1275 05-12-2014 17:10:00 4.8 C 6.24 g/m*3 4.8 C 0 km/h
Sensor: Nr:Datum:Temp:Abs-Feuchte:Windchill:Wind:
Aussen-T/F 1276 05-12-2014 17:15:00 4.8 C 6.24 g/m*3 4.8 C 0 km/h
1277 05-12-2014 17:20:00 4.8 C 6.24 g/m*3 4.8 C 0 km/h
1278 05-12-2014 17:25:00 4.8 C 6.24 g/m*3 4.8 C 0 km/h
1279 05-12-2014 17:30:00 4.8 C 6.24 g/m*3 4.8 C 0 km/h
1280 05-12-2014 17:35:00 4.8 C 6.24 g/m*3 4.8 C 0 km/h
1281 05-12-2014 17:40:00 4.8 C 6.24 g/m*3 4.8 C 0 km/h
1282 05-12-2014 17:45:00 4.8 C 6.24 g/m*3 4.8 C 0 km/h
1283 05-12-2014 17:50:00 4.8 C 6.24 g/m*3 4.8 C 0 km/h
1284 05-12-2014 17:55:00 4.8 C 6.24 g/m*3 4.8 C 0 km/h
1285 05-12-2014 18:00:00 4.8 C 6.24 g/m*3 4.8 C 0 km/h
1286 05-12-2014 18:05:00 4.8 C 6.24 g/m*3 4.8 C 0 km/h
1287 05-12-2014 18:10:00 4.8 C 6.24 g/m*3 4.8 C 0 km/h
1288 05-12-2014 18:15:00 4.8 C 6.3 g/m*3 4.8 C 0 km/h
1289 05-12-2014 18:20:00 4.8 C 6.3 g/m*3 4.8 C 0 km/h
1290 05-12-2014 18:25:00 4.7 C 6.26 g/m*3 4.7 C 0 km/h
1291 05-12-2014 18:30:00 4.7 C 6.26 g/m*3 4.7 C 0 km/h
1292 05-12-2014 18:35:00 4.7 C 6.26 g/m*3 4.7 C 0 km/h
1293 05-12-2014 18:40:00 4.7 C 6.26 g/m*3 4.7 C 0 km/h
1294 05-12-2014 18:45:00 4.7 C 6.26 g/m*3 4.7 C 0 km/h
1295 05-12-2014 18:50:00 4.7 C 6.26 g/m*3 4.7 C 0 km/h
1296 05-12-2014 18:55:00 4.7 C 6.26 g/m*3 4.7 C 0 km/h
1297 05-12-2014 19:00:00 4.7 C 6.26 g/m*3 4.7 C 0 km/h
1298 05-12-2014 19:05:00 4.7 C 6.26 g/m*3 4.7 C 0 km/h
1299 05-12-2014 19:10:00 4.7 C 6.26 g/m*3 4.7 C 0 km/h
1300 05-12-2014 19:15:00 4.7 C 6.26 g/m*3 4.7 C 0 km/h
Sensor: Nr:Datum:Temp:Abs-Feuchte:Windchill:Wind:
Aussen-T/F 1301 05-12-2014 19:20:00 4.7 C 6.26 g/m*3 4.7 C 0 km/h
1302 05-12-2014 19:25:00 4.7 C 6.26 g/m*3 4.7 C 0 km/h
1303 05-12-2014 19:30:00 4.7 C 6.26 g/m*3 4.7 C 0 km/h
1304 05-12-2014 19:35:00 4.7 C 6.26 g/m*3 4.7 C 1.6 km/h
1305 05-12-2014 19:40:00 4.8 C 6.3 g/m*3 4.8 C 0 km/h
1306 05-12-2014 19:45:00 4.7 C 6.26 g/m*3 4.7 C 0 km/h
1307 05-12-2014 19:50:00 4.7 C 6.26 g/m*3 4.7 C 0 km/h
1308 05-12-2014 19:55:00 4.7 C 6.26 g/m*3 4.7 C 3.2 km/h
1309 05-12-2014 20:00:00 4.8 C 6.3 g/m*3 4.8 C 3.2 km/h
1310 05-12-2014 20:05:00 4.8 C 6.3 g/m*3 4.8 C 0 km/h
1311 05-12-2014 20:10:00 4.8 C 6.3 g/m*3 4.8 C 0 km/h
1312 05-12-2014 20:15:00 4.8 C 6.3 g/m*3 4.8 C 0 km/h
1313 05-12-2014 20:20:00 4.8 C 6.3 g/m*3 4.8 C 1.6 km/h
1314 05-12-2014 20:25:00 4.8 C 6.3 g/m*3 4.8 C 1.6 km/h
1315 05-12-2014 20:30:00 4.8 C 6.3 g/m*3 4.8 C 0 km/h
1316 05-12-2014 20:35:00 4.8 C 6.3 g/m*3 4.8 C 0 km/h
1317 05-12-2014 20:40:00 4.8 C 6.3 g/m*3 4.8 C 0 km/h
1318 05-12-2014 20:45:00 4.8 C 6.3 g/m*3 4.8 C 1.6 km/h
1319 05-12-2014 20:50:00 4.8 C 6.3 g/m*3 4.8 C 1.6 km/h
1320 05-12-2014 20:55:00 4.8 C 6.3 g/m*3 4.8 C 0 km/h
1321 05-12-2014 21:00:00 4.8 C 6.3 g/m*3 4.8 C 0 km/h
1322 05-12-2014 21:05:00 4.8 C 6.3 g/m*3 4.8 C 0 km/h
1323 05-12-2014 21:10:00 4.8 C 6.3 g/m*3 4.8 C 0 km/h
1324 05-12-2014 21:15:00 4.8 C 6.3 g/m*3 4.8 C 0 km/h
1325 05-12-2014 21:20:00 4.8 C 6.3 g/m*3 4.8 C 0 km/h
Sensor: Nr:Datum:Temp:Abs-Feuchte:Windchill:Wind:
Aussen-T/F 1326 05-12-2014 21:25:00 4.8 C 6.3 g/m*3 4.8 C 0 km/h
1327 05-12-2014 21:30:00 4.8 C 6.24 g/m*3 4.8 C 0 km/h
1328 05-12-2014 21:35:00 4.8 C 6.24 g/m*3 4.8 C 0 km/h
1329 05-12-2014 21:40:00 4.8 C 6.24 g/m*3 4.8 C 3.2 km/h
1330 05-12-2014 21:45:00 4.8 C 6.24 g/m*3 4.8 C 3.2 km/h
1331 05-12-2014 21:50:00 4.8 C 6.24 g/m*3 4.8 C 1.6 km/h
1332 05-12-2014 21:55:00 4.8 C 6.24 g/m*3 4.8 C 3.2 km/h
1333 05-12-2014 22:00:00 4.8 C 6.24 g/m*3 4.8 C 0 km/h
1334 05-12-2014 22:05:00 4.8 C 6.24 g/m*3 4.8 C 3.2 km/h
1335 05-12-2014 22:10:00 4.8 C 6.24 g/m*3 4.8 C 0 km/h
1336 05-12-2014 22:15:00 4.8 C 6.24 g/m*3 4.8 C 0 km/h
1337 05-12-2014 22:20:00 4.8 C 6.24 g/m*3 4.8 C 0 km/h
1338 05-12-2014 22:25:00 4.8 C 6.24 g/m*3 4.8 C 0 km/h
1339 05-12-2014 22:30:00 4.7 C 6.19 g/m*3 4.7 C 0 km/h
1340 05-12-2014 22:35:00 4.7 C 6.19 g/m*3 4.7 C 0 km/h
1341 05-12-2014 22:40:00 4.7 C 6.26 g/m*3 4.7 C 0 km/h
1342 05-12-2014 22:45:00 4.7 C 6.26 g/m*3 4.7 C 0 km/h
1343 05-12-2014 22:50:00 4.7 C 6.26 g/m*3 4.7 C 0 km/h
1344 05-12-2014 22:55:00 4.7 C 6.26 g/m*3 4.7 C 0 km/h
1345 05-12-2014 23:00:00 4.7 C 6.26 g/m*3 4.7 C 0 km/h
1346 05-12-2014 23:05:00 4.7 C 6.19 g/m*3 4.7 C 0 km/h
1347 05-12-2014 23:10:00 4.7 C 6.13 g/m*3 4.7 C 3.2 km/h
1348 05-12-2014 23:15:00 4.7 C 6.06 g/m*3 4.7 C 3.2 km/h
1349 05-12-2014 23:20:00 4.8 C 6.1 g/m*3 4.8 C 1.6 km/h
1350 05-12-2014 23:25:00 4.8 C 6.1 g/m*3 4.8 C 1.6 km/h
Sensor: Nr:Datum:Temp:Abs-Feuchte:Windchill:Wind:
Aussen-T/F 1351 05-12-2014 23:30:00 4.8 C 6.1 g/m*3 4.8 C 1.6 km/h
1352 05-12-2014 23:35:00 4.8 C 6.1 g/m*3 4.8 C 3.2 km/h
1353 05-12-2014 23:40:00 4.8 C 6.1 g/m*3 4.8 C 1.6 km/h
1354 05-12-2014 23:45:00 4.7 C 6.06 g/m*3 4.7 C 3.2 km/h
1355 05-12-2014 23:50:00 4.7 C 6.06 g/m*3 4.7 C 1.6 km/h
1356 05-12-2014 23:55:00 4.7 C 6 g/m*3 4.7 C 0 km/h
1357 06-12-2014 00:00:00 4.7 C 6 g/m*3 4.7 C 0 km/h
1358 06-12-2014 00:05:00 4.7 C 6.06 g/m*3 4.7 C 0 km/h
1359 06-12-2014 00:10:00 4.5 C 5.98 g/m*3 4.5 C 0 km/h
1360 06-12-2014 00:15:00 4.3 C 5.9 g/m*3 4.3 C 1.6 km/h
1361 06-12-2014 00:20:00 4.1 C 5.89 g/m*3 4.1 C 0 km/h
1362 06-12-2014 00:25:00 3.9 C 5.87 g/m*3 3.9 C 0 km/h
1363 06-12-2014 00:30:00 3.8 C 5.83 g/m*3 3.8 C 1.6 km/h
1364 06-12-2014 00:35:00 3.7 C 5.8 g/m*3 3.7 C 0 km/h
1365 06-12-2014 00:40:00 3.6 C 5.76 g/m*3 3.6 C 1.6 km/h
1366 06-12-2014 00:45:00 3.4 C 5.68 g/m*3 3.4 C 1.6 km/h
1367 06-12-2014 00:50:00 3.3 C 5.7 g/m*3 3.3 C 3.2 km/h
1368 06-12-2014 00:55:00 3.2 C 5.66 g/m*3 3.2 C 3.2 km/h
1369 06-12-2014 01:00:00 3.2 C 5.66 g/m*3 3.2 C 3.2 km/h
1370 06-12-2014 01:05:00 3.1 C 5.63 g/m*3 3.1 C 0 km/h
1371 06-12-2014 01:10:00 3 C 5.65 g/m*3 3 C 0 km/h
1372 06-12-2014 01:15:00 2.9 C 5.61 g/m*3 2.9 C 1.6 km/h
1373 06-12-2014 01:20:00 2.8 C 5.57 g/m*3 2.8 C 3.2 km/h
1374 06-12-2014 01:25:00 2.7 C 5.54 g/m*3 2.7 C 0 km/h
1375 06-12-2014 01:30:00 2.6 C 5.5 g/m*3 2.6 C 1.6 km/h
Sensor: Nr:Datum:Temp:Abs-Feuchte:Windchill:Wind:
Aussen-T/F 1376 06-12-2014 01:35:00 2.5 C 5.46 g/m*3 2.5 C 1.6 km/h
1377 06-12-2014 01:40:00 2.5 C 5.46 g/m*3 2.5 C 1.6 km/h
1378 06-12-2014 01:45:00 2.6 C 5.56 g/m*3 2.6 C 1.6 km/h
1379 06-12-2014 01:50:00 2.7 C 5.59 g/m*3 2.7 C 1.6 km/h
1380 06-12-2014 01:55:00 2.8 C 5.63 g/m*3 2.8 C 0 km/h
1381 06-12-2014 02:00:00 2.9 C 5.67 g/m*3 2.9 C 0 km/h
1382 06-12-2014 02:05:00 3 C 5.71 g/m*3 3 C 0 km/h
1383 06-12-2014 02:10:00 3 C 5.71 g/m*3 3 C 0 km/h
1384 06-12-2014 02:15:00 3.1 C 5.75 g/m*3 3.1 C 0 km/h
1385 06-12-2014 02:20:00 3.1 C 5.75 g/m*3 3.1 C 0 km/h
1386 06-12-2014 02:25:00 3.1 C 5.75 g/m*3 3.1 C 0 km/h
1387 06-12-2014 02:30:00 3.2 C 5.79 g/m*3 3.2 C 0 km/h
1388 06-12-2014 02:35:00 3.2 C 5.79 g/m*3 3.2 C 0 km/h
1389 06-12-2014 02:40:00 3.2 C 5.79 g/m*3 3.2 C 0 km/h
1390 06-12-2014 02:45:00 3.2 C 5.79 g/m*3 3.2 C 0 km/h
1391 06-12-2014 02:50:00 3.3 C 5.82 g/m*3 3.3 C 0 km/h
1392 06-12-2014 02:55:00 3.3 C 5.82 g/m*3 3.3 C 0 km/h
1393 06-12-2014 03:00:00 3.3 C 5.82 g/m*3 3.3 C 0 km/h
1394 06-12-2014 03:05:00 3.3 C 5.82 g/m*3 3.3 C 0 km/h
1395 06-12-2014 03:10:00 3.3 C 5.82 g/m*3 1.63 C 6.4 km/h
1396 06-12-2014 03:15:00 3.4 C 5.8 g/m*3 3.4 C 1.6 km/h
1397 06-12-2014 03:20:00 3.4 C 5.86 g/m*3 3.4 C 0 km/h
1398 06-12-2014 03:25:00 3.4 C 5.8 g/m*3 3.4 C 1.6 km/h
1399 06-12-2014 03:30:00 3.5 C 5.84 g/m*3 3.5 C 3.2 km/h
1400 06-12-2014 03:35:00 3.6 C 5.88 g/m*3 3.6 C 0 km/h
Sensor: Nr:Datum:Temp:Abs-Feuchte:Windchill:Wind:
Aussen-T/F 1401 06-12-2014 03:40:00 3.6 C 5.88 g/m*3 3.6 C 4.8 km/h
1402 06-12-2014 03:45:00 3.6 C 5.88 g/m*3 3.6 C 0 km/h
1403 06-12-2014 03:50:00 3.6 C 5.88 g/m*3 3.6 C 3.2 km/h
1404 06-12-2014 03:55:00 3.6 C 5.88 g/m*3 1.98 C 6.4 km/h
1405 06-12-2014 04:00:00 3.6 C 5.88 g/m*3 3.6 C 1.6 km/h
1406 06-12-2014 04:05:00 3.6 C 5.88 g/m*3 3.6 C 1.6 km/h
1407 06-12-2014 04:10:00 3.6 C 5.88 g/m*3 3.6 C 1.6 km/h
1408 06-12-2014 04:15:00 3.6 C 5.88 g/m*3 3.6 C 0 km/h
1409 06-12-2014 04:20:00 3.6 C 5.88 g/m*3 3.6 C 1.6 km/h
1410 06-12-2014 04:25:00 3.6 C 5.88 g/m*3 3.6 C 0 km/h
1411 06-12-2014 04:30:00 3.6 C 5.88 g/m*3 3.6 C 3.2 km/h
1412 06-12-2014 04:35:00 3.7 C 5.92 g/m*3 3.7 C 3.2 km/h
1413 06-12-2014 04:40:00 3.6 C 5.88 g/m*3 3.6 C 4.8 km/h
1414 06-12-2014 04:45:00 3.6 C 5.88 g/m*3 3.6 C 4.8 km/h
1415 06-12-2014 04:50:00 3.7 C 5.92 g/m*3 3.7 C 1.6 km/h
1416 06-12-2014 04:55:00 3.6 C 5.88 g/m*3 3.6 C 0 km/h
1417 06-12-2014 05:00:00 3.6 C 5.88 g/m*3 3.6 C 0 km/h
1418 06-12-2014 05:05:00 3.7 C 5.92 g/m*3 3.7 C 0 km/h
1419 06-12-2014 05:10:00 3.7 C 5.92 g/m*3 3.7 C 3.2 km/h
1420 06-12-2014 05:15:00 3.7 C 5.92 g/m*3 3.7 C 0 km/h
1421 06-12-2014 05:20:00 3.7 C 5.92 g/m*3 3.7 C 1.6 km/h
1422 06-12-2014 05:25:00 3.7 C 5.92 g/m*3 3.7 C 3.2 km/h
1423 06-12-2014 05:30:00 3.7 C 5.92 g/m*3 3.7 C 3.2 km/h
1424 06-12-2014 05:35:00 3.7 C 5.92 g/m*3 3.7 C 3.2 km/h
1425 06-12-2014 05:40:00 3.7 C 5.92 g/m*3 3.7 C 3.2 km/h
Sensor: Nr:Datum:Temp:Abs-Feuchte:Windchill:Wind:
Aussen-T/F 1426 06-12-2014 05:45:00 3.8 C 5.96 g/m*3 3.8 C 1.6 km/h
1427 06-12-2014 05:50:00 3.8 C 5.96 g/m*3 3.8 C 0 km/h
1428 06-12-2014 05:55:00 3.8 C 5.96 g/m*3 3.8 C 1.6 km/h
1429 06-12-2014 06:00:00 3.8 C 5.9 g/m*3 3.8 C 3.2 km/h
1430 06-12-2014 06:05:00 3.8 C 5.9 g/m*3 3.8 C 3.2 km/h
1431 06-12-2014 06:10:00 3.8 C 5.9 g/m*3 2.21 C 6.4 km/h
1432 06-12-2014 06:15:00 3.8 C 5.96 g/m*3 3.8 C 3.2 km/h
1433 06-12-2014 06:20:00 3.8 C 5.9 g/m*3 3.8 C 3.2 km/h
1434 06-12-2014 06:25:00 3.8 C 5.9 g/m*3 3.8 C 0 km/h
1435 06-12-2014 06:30:00 3.8 C 5.9 g/m*3 3.8 C 0 km/h
1436 06-12-2014 06:35:00 3.8 C 5.9 g/m*3 3.8 C 0 km/h
1437 06-12-2014 06:40:00 3.8 C 5.9 g/m*3 3.8 C 0 km/h
1438 06-12-2014 06:45:00 3.8 C 5.9 g/m*3 3.8 C 0 km/h
1439 06-12-2014 06:50:00 3.8 C 5.9 g/m*3 3.8 C 1.6 km/h
1440 06-12-2014 06:55:00 3.9 C 5.94 g/m*3 3.9 C 0 km/h
1441 06-12-2014 07:00:00 3.9 C 5.94 g/m*3 3.9 C 0 km/h
1442 06-12-2014 07:05:00 3.9 C 6 g/m*3 3.9 C 0 km/h
1443 06-12-2014 07:10:00 3.9 C 5.94 g/m*3 3.9 C 0 km/h
1444 06-12-2014 07:15:00 3.9 C 5.94 g/m*3 3.9 C 1.6 km/h
1445 06-12-2014 07:20:00 3.9 C 5.94 g/m*3 3.9 C 1.6 km/h
1446 06-12-2014 07:25:00 3.9 C 5.94 g/m*3 3.9 C 1.6 km/h
1447 06-12-2014 07:30:00 3.9 C 5.94 g/m*3 3.9 C 0 km/h
1448 06-12-2014 07:35:00 3.9 C 5.94 g/m*3 3.9 C 0 km/h
1449 06-12-2014 07:40:00 3.9 C 5.94 g/m*3 3.9 C 3.2 km/h
1450 06-12-2014 07:45:00 3.9 C 5.94 g/m*3 3.9 C 0 km/h
Sensor: Nr:Datum:Temp:Abs-Feuchte:Windchill:Wind:
Aussen-T/F 1451 06-12-2014 07:50:00 3.9 C 5.94 g/m*3 3.9 C 0 km/h
1452 06-12-2014 07:55:00 3.9 C 5.94 g/m*3 3.9 C 0 km/h
1453 06-12-2014 08:00:00 4 C 5.98 g/m*3 4 C 0 km/h
1454 06-12-2014 08:05:00 4 C 5.98 g/m*3 4 C 1.6 km/h
1455 06-12-2014 08:10:00 4 C 5.98 g/m*3 4 C 0 km/h
1456 06-12-2014 08:15:00 3.9 C 5.94 g/m*3 3.9 C 0 km/h
1457 06-12-2014 08:20:00 4 C 6.04 g/m*3 4 C 3.2 km/h
1458 06-12-2014 08:25:00 4 C 6.04 g/m*3 4 C 0 km/h
1459 06-12-2014 08:30:00 4.1 C 6.08 g/m*3 4.1 C 3.2 km/h
1460 06-12-2014 08:35:00 4.1 C 6.08 g/m*3 4.1 C 3.2 km/h
1461 06-12-2014 08:40:00 4.1 C 6.08 g/m*3 4.1 C 1.6 km/h
1462 06-12-2014 08:45:00 4.1 C 6.08 g/m*3 4.1 C 3.2 km/h
1463 06-12-2014 08:50:00 4.1 C 6.08 g/m*3 4.1 C 1.6 km/h
1464 06-12-2014 08:55:00 4.1 C 6.08 g/m*3 4.1 C 1.6 km/h
1465 06-12-2014 09:00:00 4.1 C 6.08 g/m*3 4.1 C 3.2 km/h
1466 06-12-2014 09:05:00 4.2 C 6.12 g/m*3 4.2 C 1.6 km/h
1467 06-12-2014 09:10:00 4.2 C 6.12 g/m*3 4.2 C 3.2 km/h
1468 06-12-2014 09:15:00 4.2 C 6.12 g/m*3 4.2 C 3.2 km/h
1469 06-12-2014 09:20:00 4.2 C 6.12 g/m*3 4.2 C 1.6 km/h
1470 06-12-2014 09:25:00 4.2 C 6.12 g/m*3 4.2 C 1.6 km/h
1471 06-12-2014 09:30:00 4.2 C 6.12 g/m*3 4.2 C 3.2 km/h
1472 06-12-2014 09:35:00 4.2 C 6.12 g/m*3 4.2 C 1.6 km/h
1473 06-12-2014 09:40:00 4.2 C 6.12 g/m*3 4.2 C 1.6 km/h
1474 06-12-2014 09:45:00 4.2 C 6.12 g/m*3 4.2 C 3.2 km/h
1475 06-12-2014 09:50:00 4.2 C 6.12 g/m*3 4.2 C 3.2 km/h
Sensor: Nr:Datum:Temp:Abs-Feuchte:Windchill:Wind:
Aussen-T/F 1476 06-12-2014 09:55:00 4.2 C 6.12 g/m*3 4.2 C 1.6 km/h
1477 06-12-2014 10:00:00 4.3 C 6.16 g/m*3 4.3 C 1.6 km/h
1478 06-12-2014 10:05:00 4.3 C 6.23 g/m*3 4.3 C 0 km/h
1479 06-12-2014 10:10:00 4.3 C 6.16 g/m*3 4.3 C 1.6 km/h
1480 06-12-2014 10:15:00 4.3 C 6.16 g/m*3 4.3 C 3.2 km/h
1481 06-12-2014 10:20:00 4.3 C 6.16 g/m*3 4.3 C 0 km/h
1482 06-12-2014 10:25:00 4.3 C 6.16 g/m*3 4.3 C 1.6 km/h
1483 06-12-2014 10:30:00 4.4 C 6.27 g/m*3 4.4 C 3.2 km/h
1484 06-12-2014 10:35:00 4.4 C 6.27 g/m*3 4.4 C 1.6 km/h
1485 06-12-2014 10:40:00 4.4 C 6.2 g/m*3 4.4 C 1.6 km/h
1486 06-12-2014 10:45:00 4.4 C 6.2 g/m*3 4.4 C 0 km/h
1487 06-12-2014 10:50:00 4.4 C 6.2 g/m*3 4.4 C 1.6 km/h
1488 06-12-2014 10:55:00 4.4 C 6.2 g/m*3 4.4 C 0 km/h
1489 06-12-2014 11:00:00 4.4 C 6.2 g/m*3 4.4 C 0 km/h
1490 06-12-2014 11:05:00 4.5 C 6.24 g/m*3 4.5 C 1.6 km/h
1491 06-12-2014 11:10:00 4.5 C 6.24 g/m*3 4.5 C 0 km/h
1492 06-12-2014 11:15:00 4.6 C 6.29 g/m*3 4.6 C 1.6 km/h
1493 06-12-2014 11:20:00 4.6 C 6.29 g/m*3 4.6 C 1.6 km/h
1494 06-12-2014 11:25:00 4.6 C 6.29 g/m*3 4.6 C 3.2 km/h
1495 06-12-2014 11:30:00 4.6 C 6.29 g/m*3 4.6 C 0 km/h
1496 06-12-2014 11:35:00 4.7 C 6.33 g/m*3 4.7 C 1.6 km/h
1497 06-12-2014 11:40:00 4.7 C 6.33 g/m*3 4.7 C 1.6 km/h
1498 06-12-2014 11:45:00 4.7 C 6.33 g/m*3 4.7 C 1.6 km/h
1499 06-12-2014 11:50:00 4.7 C 6.33 g/m*3 4.7 C 1.6 km/h
1500 06-12-2014 11:55:00 4.7 C 6.33 g/m*3 4.7 C 1.6 km/h
Sensor: Nr:Datum:Temp:Abs-Feuchte:Windchill:Wind:
Aussen-T/F 1501 06-12-2014 12:00:00 4.7 C 6.33 g/m*3 4.7 C 0 km/h
1502 06-12-2014 12:05:00 4.7 C 6.33 g/m*3 4.7 C 0 km/h
1503 06-12-2014 12:10:00 4.8 C 6.37 g/m*3 4.8 C 1.6 km/h
1504 06-12-2014 12:15:00 4.8 C 6.44 g/m*3 4.8 C 0 km/h
1505 06-12-2014 12:20:00 4.8 C 6.44 g/m*3 4.8 C 0 km/h
1506 06-12-2014 12:25:00 4.8 C 6.44 g/m*3 4.8 C 0 km/h
1507 06-12-2014 12:30:00 4.8 C 6.44 g/m*3 4.8 C 0 km/h
1508 06-12-2014 12:35:00 4.8 C 6.44 g/m*3 4.8 C 1.6 km/h
1509 06-12-2014 12:40:00 4.8 C 6.44 g/m*3 4.8 C 3.2 km/h
1510 06-12-2014 12:45:00 4.9 C 6.48 g/m*3 4.9 C 0 km/h
1511 06-12-2014 12:50:00 4.9 C 6.48 g/m*3 4.9 C 0 km/h
1512 06-12-2014 12:55:00 4.9 C 6.48 g/m*3 4.9 C 0 km/h
1513 06-12-2014 13:00:00 5 C 6.52 g/m*3 5 C 0 km/h
1514 06-12-2014 13:05:00 5 C 6.52 g/m*3 5 C 0 km/h
1515 06-12-2014 13:10:00 5.1 C 6.57 g/m*3 5.1 C 1.6 km/h
1516 06-12-2014 13:15:00 5.1 C 6.57 g/m*3 5.1 C 0 km/h
1517 06-12-2014 13:20:00 5.1 C 6.57 g/m*3 5.1 C 0 km/h
1518 06-12-2014 13:25:00 5.1 C 6.57 g/m*3 5.1 C 0 km/h
1519 06-12-2014 13:30:00 5.1 C 6.57 g/m*3 5.1 C 0 km/h
1520 06-12-2014 13:35:00 5.2 C 6.61 g/m*3 5.2 C 0 km/h
1521 06-12-2014 13:40:00 5.2 C 6.61 g/m*3 5.2 C 0 km/h
1522 06-12-2014 13:45:00 5.2 C 6.61 g/m*3 5.2 C 0 km/h
1523 06-12-2014 13:50:00 5.2 C 6.61 g/m*3 5.2 C 0 km/h
1524 06-12-2014 13:55:00 5.2 C 6.54 g/m*3 5.2 C 0 km/h
1525 06-12-2014 14:00:00 5.2 C 6.54 g/m*3 5.2 C 1.6 km/h
Sensor: Nr:Datum:Temp:Abs-Feuchte:Windchill:Wind:
Aussen-T/F 1526 06-12-2014 14:05:00 5.3 C 6.65 g/m*3 5.3 C 0 km/h
1527 06-12-2014 14:10:00 5.3 C 6.58 g/m*3 5.3 C 0 km/h
1528 06-12-2014 14:15:00 5.3 C 6.58 g/m*3 5.3 C 1.6 km/h
1529 06-12-2014 14:20:00 5.3 C 6.58 g/m*3 5.3 C 0 km/h
1530 06-12-2014 14:25:00 5.4 C 6.63 g/m*3 5.4 C 0 km/h
1531 06-12-2014 14:30:00 5.4 C 6.63 g/m*3 5.4 C 1.6 km/h
1532 06-12-2014 14:35:00 5.4 C 6.63 g/m*3 5.4 C 1.6 km/h
1533 06-12-2014 14:40:00 5.4 C 6.63 g/m*3 5.4 C 1.6 km/h
1534 06-12-2014 14:45:00 5.4 C 6.63 g/m*3 5.4 C 0 km/h
1535 06-12-2014 14:50:00 5.4 C 6.63 g/m*3 5.4 C 1.6 km/h
1536 06-12-2014 14:55:00 5.4 C 6.63 g/m*3 5.4 C 0 km/h
1537 06-12-2014 15:00:00 5.4 C 6.63 g/m*3 5.4 C 0 km/h
1538 06-12-2014 15:05:00 5.4 C 6.63 g/m*3 5.4 C 0 km/h
1539 06-12-2014 15:10:00 5.4 C 6.63 g/m*3 5.4 C 0 km/h
1540 06-12-2014 15:15:00 5.4 C 6.63 g/m*3 5.4 C 0 km/h
1541 06-12-2014 15:20:00 5.4 C 6.63 g/m*3 5.4 C 0 km/h
1542 06-12-2014 15:25:00 5.4 C 6.63 g/m*3 5.4 C 0 km/h
1543 06-12-2014 15:30:00 5.4 C 6.63 g/m*3 5.4 C 0 km/h
1544 06-12-2014 15:35:00 5.4 C 6.63 g/m*3 5.4 C 0 km/h
1545 06-12-2014 15:40:00 5.4 C 6.63 g/m*3 5.4 C 0 km/h
1546 06-12-2014 15:45:00 5.4 C 6.63 g/m*3 5.4 C 0 km/h
1547 06-12-2014 15:50:00 5.4 C 6.63 g/m*3 5.4 C 0 km/h
1548 06-12-2014 15:55:00 5.4 C 6.63 g/m*3 5.4 C 0 km/h
1549 06-12-2014 16:00:00 5.4 C 6.63 g/m*3 5.4 C 0 km/h
1550 06-12-2014 16:05:00 5.4 C 6.63 g/m*3 5.4 C 1.6 km/h
Sensor: Nr:Datum:Temp:Abs-Feuchte:Windchill:Wind:
Aussen-T/F 1551 06-12-2014 16:10:00 5.4 C 6.63 g/m*3 5.4 C 0 km/h
1552 06-12-2014 16:15:00 5.4 C 6.63 g/m*3 5.4 C 0 km/h
1553 06-12-2014 16:20:00 5.4 C 6.63 g/m*3 5.4 C 0 km/h
1554 06-12-2014 16:25:00 5.4 C 6.63 g/m*3 5.4 C 0 km/h
1555 06-12-2014 16:30:00 5.4 C 6.63 g/m*3 5.4 C 0 km/h
1556 06-12-2014 16:35:00 5.4 C 6.63 g/m*3 5.4 C 0 km/h
1557 06-12-2014 16:40:00 5.4 C 6.63 g/m*3 5.4 C 0 km/h
1558 06-12-2014 16:45:00 5.4 C 6.63 g/m*3 5.4 C 0 km/h
1559 06-12-2014 16:50:00 5.4 C 6.63 g/m*3 5.4 C 0 km/h
1560 06-12-2014 16:55:00 5.4 C 6.63 g/m*3 5.4 C 0 km/h
1561 06-12-2014 17:00:00 5.4 C 6.63 g/m*3 5.4 C 0 km/h
1562 06-12-2014 17:05:00 5.4 C 6.63 g/m*3 5.4 C 0 km/h
1563 06-12-2014 17:10:00 5.3 C 6.58 g/m*3 5.3 C 0 km/h
1564 06-12-2014 17:15:00 5.3 C 6.58 g/m*3 5.3 C 0 km/h
1565 06-12-2014 17:20:00 5.3 C 6.58 g/m*3 5.3 C 0 km/h
1566 06-12-2014 17:25:00 5.3 C 6.58 g/m*3 5.3 C 0 km/h
1567 06-12-2014 17:30:00 5.3 C 6.58 g/m*3 5.3 C 0 km/h
1568 06-12-2014 17:35:00 5.2 C 6.54 g/m*3 5.2 C 0 km/h
1569 06-12-2014 17:40:00 5.2 C 6.54 g/m*3 5.2 C 0 km/h
1570 06-12-2014 17:45:00 5.2 C 6.61 g/m*3 5.2 C 0 km/h
1571 06-12-2014 17:50:00 5.2 C 6.61 g/m*3 5.2 C 0 km/h
1572 06-12-2014 17:55:00 5.2 C 6.61 g/m*3 5.2 C 0 km/h
1573 06-12-2014 18:00:00 5.3 C 6.65 g/m*3 5.3 C 0 km/h
1574 06-12-2014 18:05:00 5.3 C 6.65 g/m*3 5.3 C 0 km/h
1575 06-12-2014 18:10:00 5.3 C 6.65 g/m*3 5.3 C 0 km/h
Sensor: Nr:Datum:Temp:Abs-Feuchte:Windchill:Wind:
Aussen-T/F 1576 06-12-2014 18:15:00 5.3 C 6.65 g/m*3 5.3 C 1.6 km/h
1577 06-12-2014 18:20:00 5.3 C 6.65 g/m*3 5.3 C 0 km/h
1578 06-12-2014 18:25:00 5.3 C 6.65 g/m*3 5.3 C 0 km/h
1579 06-12-2014 18:30:00 5.3 C 6.65 g/m*3 5.3 C 0 km/h
1580 06-12-2014 18:35:00 5.4 C 6.7 g/m*3 5.4 C 0 km/h
1581 06-12-2014 18:40:00 5.3 C 6.65 g/m*3 5.3 C 0 km/h
1582 06-12-2014 18:45:00 5.4 C 6.7 g/m*3 5.4 C 0 km/h
1583 06-12-2014 18:50:00 5.4 C 6.7 g/m*3 5.4 C 0 km/h
1584 06-12-2014 18:55:00 5.4 C 6.7 g/m*3 5.4 C 0 km/h
1585 06-12-2014 19:00:00 5.4 C 6.7 g/m*3 5.4 C 0 km/h
1586 06-12-2014 19:05:00 5.4 C 6.7 g/m*3 5.4 C 0 km/h
1587 06-12-2014 19:10:00 5.4 C 6.7 g/m*3 5.4 C 0 km/h
1588 06-12-2014 19:15:00 5.4 C 6.7 g/m*3 5.4 C 0 km/h
1589 06-12-2014 19:20:00 5.4 C 6.7 g/m*3 5.4 C 0 km/h
1590 06-12-2014 19:25:00 5.4 C 6.7 g/m*3 5.4 C 0 km/h
1591 06-12-2014 19:30:00 5.4 C 6.7 g/m*3 5.4 C 0 km/h
1592 06-12-2014 19:35:00 5.4 C 6.7 g/m*3 5.4 C 0 km/h
1593 06-12-2014 19:40:00 5.4 C 6.7 g/m*3 5.4 C 0 km/h
1594 06-12-2014 19:45:00 5.4 C 6.7 g/m*3 5.4 C 0 km/h
1595 06-12-2014 19:50:00 5.4 C 6.7 g/m*3 5.4 C 3.2 km/h
1596 06-12-2014 19:55:00 5.4 C 6.7 g/m*3 5.4 C 0 km/h
1597 06-12-2014 20:00:00 5.4 C 6.7 g/m*3 5.4 C 3.2 km/h
1598 06-12-2014 20:05:00 5.4 C 6.7 g/m*3 5.4 C 4.8 km/h
1599 06-12-2014 20:10:00 5.4 C 6.7 g/m*3 5.4 C 3.2 km/h
1600 06-12-2014 20:15:00 5.4 C 6.63 g/m*3 5.4 C 4.8 km/h
Sensor: Nr:Datum:Temp:Abs-Feuchte:Windchill:Wind:
Aussen-T/F 1601 06-12-2014 20:20:00 5.4 C 6.63 g/m*3 5.4 C 0 km/h
1602 06-12-2014 20:25:00 5.4 C 6.63 g/m*3 5.4 C 0 km/h
1603 06-12-2014 20:30:00 5.4 C 6.63 g/m*3 5.4 C 1.6 km/h
1604 06-12-2014 20:35:00 5.4 C 6.63 g/m*3 5.4 C 0 km/h
1605 06-12-2014 20:40:00 5.3 C 6.58 g/m*3 5.3 C 1.6 km/h
1606 06-12-2014 20:45:00 5.3 C 6.58 g/m*3 5.3 C 0 km/h
1607 06-12-2014 20:50:00 5.3 C 6.58 g/m*3 5.3 C 3.2 km/h
1608 06-12-2014 20:55:00 5.3 C 6.58 g/m*3 5.3 C 3.2 km/h
1609 06-12-2014 21:00:00 5.3 C 6.52 g/m*3 5.3 C 1.6 km/h
1610 06-12-2014 21:05:00 5.4 C 6.56 g/m*3 5.4 C 4.8 km/h
1611 06-12-2014 21:10:00 5.4 C 6.56 g/m*3 5.4 C 3.2 km/h
1612 06-12-2014 21:15:00 5.4 C 6.56 g/m*3 5.4 C 3.2 km/h
1613 06-12-2014 21:20:00 5.4 C 6.56 g/m*3 5.4 C 0 km/h
1614 06-12-2014 21:25:00 5.3 C 6.52 g/m*3 5.3 C 0 km/h
1615 06-12-2014 21:30:00 5.3 C 6.52 g/m*3 5.3 C 0 km/h
1616 06-12-2014 21:35:00 5.3 C 6.52 g/m*3 5.3 C 0 km/h
1617 06-12-2014 21:40:00 5.3 C 6.58 g/m*3 5.3 C 3.2 km/h
1618 06-12-2014 21:45:00 5.2 C 6.54 g/m*3 5.2 C 1.6 km/h
1619 06-12-2014 21:50:00 5.2 C 6.54 g/m*3 5.2 C 3.2 km/h
1620 06-12-2014 21:55:00 5.2 C 6.54 g/m*3 5.2 C 3.2 km/h
1621 06-12-2014 22:00:00 5.2 C 6.54 g/m*3 5.2 C 3.2 km/h
1622 06-12-2014 22:05:00 5.2 C 6.54 g/m*3 5.2 C 0 km/h
1623 06-12-2014 22:10:00 5.1 C 6.5 g/m*3 5.1 C 1.6 km/h
1624 06-12-2014 22:15:00 5.1 C 6.5 g/m*3 5.1 C 1.6 km/h
1625 06-12-2014 22:20:00 5.1 C 6.5 g/m*3 5.1 C 0 km/h
Sensor: Nr:Datum:Temp:Abs-Feuchte:Windchill:Wind:
Aussen-T/F 1626 06-12-2014 22:25:00 5.1 C 6.5 g/m*3 5.1 C 0 km/h
1627 06-12-2014 22:30:00 5.1 C 6.5 g/m*3 5.1 C 0 km/h
1628 06-12-2014 22:35:00 5.1 C 6.5 g/m*3 5.1 C 1.6 km/h
1629 06-12-2014 22:40:00 5.1 C 6.5 g/m*3 5.1 C 1.6 km/h
1630 06-12-2014 22:45:00 5 C 6.46 g/m*3 5 C 1.6 km/h
1631 06-12-2014 22:50:00 5.1 C 6.5 g/m*3 5.1 C 0 km/h
1632 06-12-2014 22:55:00 5.1 C 6.5 g/m*3 5.1 C 0 km/h
1633 06-12-2014 23:00:00 5.1 C 6.5 g/m*3 5.1 C 0 km/h
1634 06-12-2014 23:05:00 5 C 6.46 g/m*3 5 C 0 km/h
1635 06-12-2014 23:10:00 5 C 6.46 g/m*3 5 C 0 km/h
1636 06-12-2014 23:15:00 4.9 C 6.41 g/m*3 4.9 C 0 km/h
1637 06-12-2014 23:20:00 4.9 C 6.41 g/m*3 4.9 C 0 km/h
1638 06-12-2014 23:25:00 4.9 C 6.41 g/m*3 4.9 C 0 km/h
1639 06-12-2014 23:30:00 4.9 C 6.41 g/m*3 4.9 C 0 km/h
1640 06-12-2014 23:35:00 4.9 C 6.41 g/m*3 4.9 C 0 km/h
1641 06-12-2014 23:40:00 4.9 C 6.41 g/m*3 4.9 C 0 km/h
1642 06-12-2014 23:45:00 4.8 C 6.37 g/m*3 4.8 C 0 km/h
1643 06-12-2014 23:50:00 4.8 C 6.37 g/m*3 4.8 C 0 km/h
1644 06-12-2014 23:55:00 4.8 C 6.37 g/m*3 4.8 C 0 km/h
1645 07-12-2014 00:00:00 4.8 C 6.37 g/m*3 4.8 C 0 km/h
1646 07-12-2014 00:05:00 4.8 C 6.37 g/m*3 4.8 C 1.6 km/h
1647 07-12-2014 00:10:00 4.8 C 6.37 g/m*3 4.8 C 0 km/h
1648 07-12-2014 00:15:00 4.8 C 6.37 g/m*3 4.8 C 1.6 km/h
1649 07-12-2014 00:20:00 4.8 C 6.37 g/m*3 4.8 C 1.6 km/h
1650 07-12-2014 00:25:00 4.8 C 6.37 g/m*3 4.8 C 3.2 km/h
Sensor: Nr:Datum:Temp:Abs-Feuchte:Windchill:Wind:
Aussen-T/F 1651 07-12-2014 00:30:00 4.8 C 6.37 g/m*3 4.8 C 0 km/h
1652 07-12-2014 00:35:00 4.8 C 6.37 g/m*3 4.8 C 0 km/h
1653 07-12-2014 00:40:00 4.8 C 6.37 g/m*3 4.8 C 0 km/h
1654 07-12-2014 00:45:00 4.8 C 6.37 g/m*3 4.8 C 0 km/h
1655 07-12-2014 00:50:00 4.8 C 6.37 g/m*3 4.8 C 0 km/h
1656 07-12-2014 00:55:00 4.8 C 6.37 g/m*3 4.8 C 0 km/h
1657 07-12-2014 01:00:00 4.7 C 6.33 g/m*3 4.7 C 0 km/h
1658 07-12-2014 01:05:00 4.7 C 6.33 g/m*3 4.7 C 0 km/h
1659 07-12-2014 01:10:00 4.7 C 6.33 g/m*3 4.7 C 0 km/h
1660 07-12-2014 01:15:00 4.6 C 6.29 g/m*3 4.6 C 0 km/h
1661 07-12-2014 01:20:00 4.6 C 6.29 g/m*3 4.6 C 0 km/h
1662 07-12-2014 01:25:00 4.4 C 6.2 g/m*3 4.4 C 0 km/h
1663 07-12-2014 01:30:00 4.2 C 6.06 g/m*3 4.2 C 0 km/h
1664 07-12-2014 01:35:00 3.9 C 5.94 g/m*3 3.9 C 1.6 km/h
1665 07-12-2014 01:40:00 3.8 C 5.9 g/m*3 3.8 C 1.6 km/h
1666 07-12-2014 01:45:00 3.4 C 5.74 g/m*3 3.4 C 1.6 km/h
1667 07-12-2014 01:50:00 3.3 C 5.76 g/m*3 3.3 C 3.2 km/h
1668 07-12-2014 01:55:00 3.2 C 5.72 g/m*3 3.2 C 4.8 km/h
1669 07-12-2014 02:00:00 3.1 C 5.69 g/m*3 3.1 C 3.2 km/h
1670 07-12-2014 02:05:00 3 C 5.65 g/m*3 3 C 3.2 km/h
1671 07-12-2014 02:10:00 2.9 C 5.61 g/m*3 2.9 C 1.6 km/h
1672 07-12-2014 02:15:00 2.8 C 5.57 g/m*3 2.8 C 1.6 km/h
1673 07-12-2014 02:20:00 2.7 C 5.54 g/m*3 2.7 C 1.6 km/h
1674 07-12-2014 02:25:00 2.7 C 5.59 g/m*3 2.7 C 0 km/h
1675 07-12-2014 02:30:00 2.8 C 5.63 g/m*3 2.8 C 4.8 km/h
Sensor: Nr:Datum:Temp:Abs-Feuchte:Windchill:Wind:
Aussen-T/F 1676 07-12-2014 02:35:00 3 C 5.77 g/m*3 3 C 3.2 km/h
1677 07-12-2014 02:40:00 3.1 C 5.81 g/m*3 3.1 C 3.2 km/h
1678 07-12-2014 02:45:00 3.3 C 5.88 g/m*3 3.3 C 3.2 km/h
1679 07-12-2014 02:50:00 3.3 C 5.88 g/m*3 3.3 C 0 km/h
1680 07-12-2014 02:55:00 3.3 C 5.88 g/m*3 3.3 C 1.6 km/h
1681 07-12-2014 03:00:00 3.4 C 5.92 g/m*3 3.4 C 0 km/h
1682 07-12-2014 03:05:00 3.4 C 5.92 g/m*3 3.4 C 0 km/h
1683 07-12-2014 03:10:00 3.4 C 5.92 g/m*3 3.4 C 0 km/h
1684 07-12-2014 03:15:00 3.4 C 5.92 g/m*3 3.4 C 0 km/h
1685 07-12-2014 03:20:00 3.4 C 5.92 g/m*3 3.4 C 0 km/h
1686 07-12-2014 03:25:00 3.4 C 5.92 g/m*3 3.4 C 0 km/h
1687 07-12-2014 03:30:00 3.5 C 5.96 g/m*3 3.5 C 0 km/h
1688 07-12-2014 03:35:00 3.5 C 5.96 g/m*3 3.5 C 1.6 km/h
1689 07-12-2014 03:40:00 3.5 C 5.96 g/m*3 3.5 C 0 km/h
1690 07-12-2014 03:45:00 3.5 C 5.96 g/m*3 3.5 C 0 km/h
1691 07-12-2014 03:50:00 3.4 C 5.92 g/m*3 3.4 C 0 km/h
1692 07-12-2014 03:55:00 3.4 C 5.92 g/m*3 3.4 C 0 km/h
1693 07-12-2014 04:00:00 3.4 C 5.92 g/m*3 3.4 C 0 km/h
1694 07-12-2014 04:05:00 3.4 C 5.92 g/m*3 3.4 C 0 km/h
1695 07-12-2014 04:10:00 3.4 C 5.92 g/m*3 3.4 C 0 km/h
1696 07-12-2014 04:15:00 3.4 C 5.92 g/m*3 3.4 C 0 km/h
1697 07-12-2014 04:20:00 3.5 C 5.96 g/m*3 3.5 C 0 km/h
1698 07-12-2014 04:25:00 3.5 C 5.96 g/m*3 3.5 C 0 km/h
1699 07-12-2014 04:30:00 3.6 C 6 g/m*3 3.6 C 0 km/h
1700 07-12-2014 04:35:00 3.6 C 6 g/m*3 3.6 C 0 km/h
Sensor: Nr:Datum:Temp:Abs-Feuchte:Windchill:Wind:
Aussen-T/F 1701 07-12-2014 04:40:00 3.6 C 6 g/m*3 3.6 C 0 km/h
1702 07-12-2014 04:45:00 3.6 C 6 g/m*3 3.6 C 0 km/h
1703 07-12-2014 04:50:00 3.6 C 6 g/m*3 3.6 C 0 km/h
1704 07-12-2014 04:55:00 3.6 C 6 g/m*3 3.6 C 0 km/h
1705 07-12-2014 05:00:00 3.6 C 6 g/m*3 3.6 C 0 km/h
1706 07-12-2014 05:05:00 3.5 C 5.96 g/m*3 3.5 C 0 km/h
1707 07-12-2014 05:10:00 3.6 C 6 g/m*3 3.6 C 0 km/h
1708 07-12-2014 05:15:00 3.6 C 6 g/m*3 3.6 C 0 km/h
1709 07-12-2014 05:20:00 3.6 C 6 g/m*3 3.6 C 0 km/h
1710 07-12-2014 05:25:00 3.6 C 6 g/m*3 3.6 C 0 km/h
1711 07-12-2014 05:30:00 3.6 C 6 g/m*3 3.6 C 0 km/h
1712 07-12-2014 05:35:00 3.6 C 6 g/m*3 3.6 C 0 km/h
1713 07-12-2014 05:40:00 3.6 C 6 g/m*3 3.6 C 0 km/h
1714 07-12-2014 05:45:00 3.6 C 6 g/m*3 3.6 C 0 km/h
1715 07-12-2014 05:50:00 3.6 C 6 g/m*3 3.6 C 0 km/h
1716 07-12-2014 05:55:00 3.6 C 6 g/m*3 3.6 C 3.2 km/h
1717 07-12-2014 06:00:00 3.6 C 6 g/m*3 3.6 C 0 km/h
1718 07-12-2014 06:05:00 3.6 C 6 g/m*3 3.6 C 0 km/h
1719 07-12-2014 06:10:00 3.6 C 6 g/m*3 3.6 C 1.6 km/h
1720 07-12-2014 06:15:00 3.6 C 6 g/m*3 3.6 C 0 km/h
1721 07-12-2014 06:20:00 3.6 C 6 g/m*3 3.6 C 0 km/h
1722 07-12-2014 06:25:00 3.6 C 6 g/m*3 3.6 C 0 km/h
1723 07-12-2014 06:30:00 3.6 C 6 g/m*3 3.6 C 0 km/h
1724 07-12-2014 06:35:00 3.6 C 6 g/m*3 3.6 C 1.6 km/h
1725 07-12-2014 06:40:00 3.7 C 6.04 g/m*3 3.7 C 1.6 km/h
Sensor: Nr:Datum:Temp:Abs-Feuchte:Windchill:Wind:
Aussen-T/F 1726 07-12-2014 06:45:00 3.7 C 6.04 g/m*3 3.7 C 0 km/h
1727 07-12-2014 06:50:00 3.7 C 6.04 g/m*3 3.7 C 0 km/h
1728 07-12-2014 06:55:00 3.7 C 6.04 g/m*3 3.7 C 0 km/h
1729 07-12-2014 07:00:00 3.7 C 6.04 g/m*3 3.7 C 0 km/h
1730 07-12-2014 07:05:00 3.7 C 6.04 g/m*3 3.7 C 0 km/h
1731 07-12-2014 07:10:00 3.7 C 6.04 g/m*3 3.7 C 0 km/h
1732 07-12-2014 07:15:00 3.8 C 6.09 g/m*3 3.8 C 0 km/h
1733 07-12-2014 07:20:00 3.8 C 6.09 g/m*3 3.8 C 0 km/h
1734 07-12-2014 07:25:00 3.8 C 6.09 g/m*3 3.8 C 0 km/h
1735 07-12-2014 07:30:00 3.8 C 6.09 g/m*3 3.8 C 0 km/h
1736 07-12-2014 07:35:00 3.8 C 6.09 g/m*3 3.8 C 0 km/h
1737 07-12-2014 07:40:00 3.8 C 6.09 g/m*3 3.8 C 0 km/h
1738 07-12-2014 07:45:00 3.8 C 6.09 g/m*3 3.8 C 0 km/h
1739 07-12-2014 07:50:00 3.8 C 6.02 g/m*3 3.8 C 0 km/h
1740 07-12-2014 07:55:00 3.8 C 6.09 g/m*3 3.8 C 0 km/h
1741 07-12-2014 08:00:00 3.8 C 6.02 g/m*3 3.8 C 0 km/h
1742 07-12-2014 08:05:00 3.8 C 6.02 g/m*3 3.8 C 0 km/h
1743 07-12-2014 08:10:00 3.8 C 6.09 g/m*3 3.8 C 1.6 km/h
1744 07-12-2014 08:15:00 3.8 C 6.09 g/m*3 3.8 C 1.6 km/h
1745 07-12-2014 08:20:00 3.8 C 6.02 g/m*3 3.8 C 4.8 km/h
1746 07-12-2014 08:25:00 3.8 C 6.02 g/m*3 3.8 C 3.2 km/h
1747 07-12-2014 08:30:00 3.8 C 6.02 g/m*3 3.8 C 3.2 km/h
1748 07-12-2014 08:35:00 3.7 C 5.98 g/m*3 3.7 C 1.6 km/h
1749 07-12-2014 08:40:00 3.7 C 5.98 g/m*3 3.7 C 0 km/h
1750 07-12-2014 08:45:00 3.7 C 5.98 g/m*3 3.7 C 1.6 km/h
Sensor: Nr:Datum:Temp:Abs-Feuchte:Windchill:Wind:
Aussen-T/F 1751 07-12-2014 08:50:00 3.7 C 5.98 g/m*3 3.7 C 0 km/h
1752 07-12-2014 08:55:00 3.7 C 5.98 g/m*3 3.7 C 4.8 km/h
1753 07-12-2014 09:00:00 3.7 C 5.98 g/m*3 3.7 C 4.8 km/h
1754 07-12-2014 09:05:00 3.7 C 5.98 g/m*3 3.7 C 1.6 km/h
1755 07-12-2014 09:10:00 3.8 C 6.02 g/m*3 3.8 C 0 km/h
1756 07-12-2014 09:15:00 3.8 C 6.02 g/m*3 3.8 C 0 km/h
1757 07-12-2014 09:20:00 3.9 C 6.06 g/m*3 3.9 C 1.6 km/h
1758 07-12-2014 09:25:00 3.9 C 6.06 g/m*3 2.32 C 6.4 km/h
1759 07-12-2014 09:30:00 3.8 C 6.02 g/m*3 1.29 C 9.7 km/h
1760 07-12-2014 09:35:00 3.9 C 6.06 g/m*3 3.9 C 1.6 km/h
1761 07-12-2014 09:40:00 3.9 C 6.06 g/m*3 3.9 C 3.2 km/h
1762 07-12-2014 09:45:00 3.9 C 6 g/m*3 3.9 C 1.6 km/h
1763 07-12-2014 09:50:00 4.1 C 6.08 g/m*3 4.1 C 1.6 km/h
1764 07-12-2014 09:55:00 4.1 C 6.08 g/m*3 2.55 C 6.4 km/h
1765 07-12-2014 10:00:00 4.2 C 6.12 g/m*3 2.67 C 6.4 km/h
1766 07-12-2014 10:05:00 4.3 C 6.16 g/m*3 2.29 C 8.1 km/h
1767 07-12-2014 10:10:00 4.3 C 6.1 g/m*3 2.29 C 8.1 km/h
1768 07-12-2014 10:15:00 4.4 C 6.14 g/m*3 2.4 C 8.1 km/h
1769 07-12-2014 10:20:00 4.5 C 6.18 g/m*3 4.5 C 4.8 km/h
1770 07-12-2014 10:25:00 4.5 C 6.18 g/m*3 4.5 C 3.2 km/h
1771 07-12-2014 10:30:00 4.5 C 6.11 g/m*3 4.5 C 3.2 km/h
1772 07-12-2014 10:35:00 4.4 C 6.07 g/m*3 4.4 C 0 km/h
1773 07-12-2014 10:40:00 4.3 C 6.03 g/m*3 4.3 C 0 km/h
1774 07-12-2014 10:45:00 4.2 C 5.99 g/m*3 4.2 C 1.6 km/h
1775 07-12-2014 10:50:00 4.1 C 6.02 g/m*3 4.1 C 1.6 km/h
Sensor: Nr:Datum:Temp:Abs-Feuchte:Windchill:Wind:
Aussen-T/F 1776 07-12-2014 10:55:00 3.9 C 5.94 g/m*3 3.9 C 1.6 km/h
1777 07-12-2014 11:00:00 3.8 C 5.9 g/m*3 3.8 C 3.2 km/h
1778 07-12-2014 11:05:00 3.7 C 5.86 g/m*3 3.7 C 3.2 km/h
1779 07-12-2014 11:10:00 3.7 C 5.92 g/m*3 3.7 C 1.6 km/h
1780 07-12-2014 11:15:00 3.6 C 5.88 g/m*3 3.6 C 3.2 km/h
1781 07-12-2014 11:20:00 3.7 C 5.92 g/m*3 3.7 C 3.2 km/h
1782 07-12-2014 11:25:00 3.7 C 5.92 g/m*3 3.7 C 3.2 km/h
1783 07-12-2014 11:30:00 3.7 C 5.92 g/m*3 3.7 C 3.2 km/h
1784 07-12-2014 11:35:00 3.8 C 5.96 g/m*3 3.8 C 3.2 km/h
1785 07-12-2014 11:40:00 3.8 C 5.96 g/m*3 3.8 C 3.2 km/h
1786 07-12-2014 11:45:00 3.8 C 5.96 g/m*3 3.8 C 3.2 km/h
1787 07-12-2014 11:50:00 3.8 C 5.96 g/m*3 3.8 C 4.8 km/h
1788 07-12-2014 11:55:00 3.8 C 5.96 g/m*3 3.8 C 1.6 km/h
1789 07-12-2014 12:00:00 3.9 C 6 g/m*3 3.9 C 3.2 km/h
1790 07-12-2014 12:05:00 3.9 C 6 g/m*3 3.9 C 3.2 km/h
1791 07-12-2014 12:10:00 3.9 C 6 g/m*3 3.9 C 1.6 km/h
1792 07-12-2014 12:15:00 4 C 6.04 g/m*3 4 C 4.8 km/h
1793 07-12-2014 12:20:00 4.1 C 6.08 g/m*3 4.1 C 3.2 km/h
1794 07-12-2014 12:25:00 4.3 C 6.1 g/m*3 2.78 C 6.4 km/h
1795 07-12-2014 12:30:00 4.5 C 6.11 g/m*3 4.5 C 4.8 km/h
1796 07-12-2014 12:35:00 4.7 C 6.13 g/m*3 4.7 C 3.2 km/h
1797 07-12-2014 12:40:00 4.9 C 6.14 g/m*3 2.61 C 9.7 km/h
1798 07-12-2014 12:45:00 5.2 C 6.13 g/m*3 3.34 C 8.1 km/h
1799 07-12-2014 12:50:00 5.3 C 6.17 g/m*3 5.3 C 4.8 km/h
1800 07-12-2014 12:55:00 5.4 C 6.21 g/m*3 5.4 C 4.8 km/h
Sensor: Nr:Datum:Temp:Abs-Feuchte:Windchill:Wind:
Aussen-T/F 1801 07-12-2014 13:00:00 5.4 C 6.21 g/m*3 5.4 C 4.8 km/h
1802 07-12-2014 13:05:00 5.5 C 6.11 g/m*3 2.7 C 12.9 km/h
1803 07-12-2014 13:10:00 5.6 C 6.15 g/m*3 3.81 C 8.1 km/h
1804 07-12-2014 13:15:00 5.5 C 6.04 g/m*3 2.7 C 12.9 km/h
1805 07-12-2014 13:20:00 5.4 C 6 g/m*3 5.4 C 3.2 km/h
1806 07-12-2014 13:25:00 5.4 C 5.93 g/m*3 5.4 C 4.8 km/h
1807 07-12-2014 13:30:00 5.5 C 5.76 g/m*3 2.7 C 12.9 km/h
1808 07-12-2014 13:35:00 5.7 C 5.91 g/m*3 2.69 C 14.5 km/h
1809 07-12-2014 13:40:00 5.8 C 5.87 g/m*3 2.16 C 19.3 km/h
1810 07-12-2014 13:45:00 5.8 C 5.87 g/m*3 2.81 C 14.5 km/h
1811 07-12-2014 13:50:00 5.8 C 5.87 g/m*3 2.81 C 14.5 km/h
1812 07-12-2014 13:55:00 5.8 C 5.8 g/m*3 2.36 C 17.7 km/h
1813 07-12-2014 14:00:00 5.8 C 5.87 g/m*3 2.58 C 16.1 km/h
1814 07-12-2014 14:05:00 5.8 C 5.87 g/m*3 2.36 C 17.7 km/h
1815 07-12-2014 14:10:00 5.8 C 5.87 g/m*3 2.58 C 16.1 km/h
1816 07-12-2014 14:15:00 5.8 C 5.87 g/m*3 1.8 C 22.5 km/h
1817 07-12-2014 14:20:00 5.7 C 5.84 g/m*3 2.03 C 19.3 km/h
1818 07-12-2014 14:25:00 5.7 C 5.84 g/m*3 2.24 C 17.7 km/h
1819 07-12-2014 14:30:00 5.7 C 5.84 g/m*3 2.24 C 17.7 km/h
1820 07-12-2014 14:35:00 5.6 C 5.87 g/m*3 2.57 C 14.5 km/h
1821 07-12-2014 14:40:00 5.6 C 5.87 g/m*3 1.72 C 20.9 km/h
1822 07-12-2014 14:45:00 5.7 C 5.91 g/m*3 2.69 C 14.5 km/h
1823 07-12-2014 14:50:00 5.7 C 5.91 g/m*3 2.45 C 16.1 km/h
1824 07-12-2014 14:55:00 5.6 C 5.87 g/m*3 1.91 C 19.3 km/h
1825 07-12-2014 15:00:00 5.6 C 5.94 g/m*3 2.83 C 12.9 km/h
Sensor: Nr:Datum:Temp:Abs-Feuchte:Windchill:Wind:
Aussen-T/F 1826 07-12-2014 15:05:00 5.6 C 5.94 g/m*3 1.54 C 22.5 km/h
1827 07-12-2014 15:10:00 5.5 C 5.83 g/m*3 1.25 C 24.1 km/h
1828 07-12-2014 15:15:00 5.4 C 5.86 g/m*3 2.32 C 14.5 km/h
1829 07-12-2014 15:20:00 5.4 C 5.86 g/m*3 2.58 C 12.9 km/h
1830 07-12-2014 15:25:00 5.4 C 5.86 g/m*3 2.87 C 11.3 km/h
1831 07-12-2014 15:30:00 5.3 C 5.82 g/m*3 1.96 C 16.1 km/h
1832 07-12-2014 15:35:00 5.3 C 5.82 g/m*3 2.2 C 14.5 km/h
1833 07-12-2014 15:40:00 5.3 C 5.89 g/m*3 2.46 C 12.9 km/h
1834 07-12-2014 15:45:00 5.3 C 5.89 g/m*3 2.75 C 11.3 km/h
1835 07-12-2014 15:50:00 5.3 C 5.89 g/m*3 2.2 C 14.5 km/h
1836 07-12-2014 15:55:00 5.2 C 5.85 g/m*3 2.07 C 14.5 km/h
1837 07-12-2014 16:00:00 5.2 C 5.85 g/m*3 1.83 C 16.1 km/h
1838 07-12-2014 16:05:00 5.3 C 5.89 g/m*3 2.46 C 12.9 km/h
1839 07-12-2014 16:10:00 5.3 C 5.89 g/m*3 1.74 C 17.7 km/h
1840 07-12-2014 16:15:00 5.3 C 5.89 g/m*3 1.96 C 16.1 km/h
1841 07-12-2014 16:20:00 5.3 C 5.89 g/m*3 2.46 C 12.9 km/h
1842 07-12-2014 16:25:00 5.3 C 5.89 g/m*3 1.96 C 16.1 km/h
1843 07-12-2014 16:30:00 5.4 C 5.93 g/m*3 1.86 C 17.7 km/h
1844 07-12-2014 16:35:00 5.4 C 5.93 g/m*3 2.58 C 12.9 km/h
1845 07-12-2014 16:40:00 5.4 C 5.93 g/m*3 2.08 C 16.1 km/h
1846 07-12-2014 16:45:00 5.5 C 5.9 g/m*3 2.2 C 16.1 km/h
1847 07-12-2014 16:50:00 5.5 C 5.9 g/m*3 2.99 C 11.3 km/h
1848 07-12-2014 16:55:00 5.6 C 5.94 g/m*3 2.33 C 16.1 km/h
1849 07-12-2014 17:00:00 5.6 C 5.87 g/m*3 2.83 C 12.9 km/h
1850 07-12-2014 17:05:00 5.6 C 5.87 g/m*3 1.72 C 20.9 km/h
Sensor: Nr:Datum:Temp:Abs-Feuchte:Windchill:Wind:
Aussen-T/F 1851 07-12-2014 17:10:00 5.6 C 5.87 g/m*3 3.11 C 11.3 km/h
1852 07-12-2014 17:15:00 5.6 C 5.87 g/m*3 2.11 C 17.7 km/h
1853 07-12-2014 17:20:00 5.6 C 5.87 g/m*3 3.11 C 11.3 km/h
1854 07-12-2014 17:25:00 5.6 C 5.87 g/m*3 2.57 C 14.5 km/h
1855 07-12-2014 17:30:00 5.6 C 5.94 g/m*3 2.33 C 16.1 km/h
1856 07-12-2014 17:35:00 5.5 C 5.97 g/m*3 1.25 C 24.1 km/h
1857 07-12-2014 17:40:00 5.3 C 5.96 g/m*3 1.74 C 17.7 km/h
1858 07-12-2014 17:45:00 5.1 C 5.95 g/m*3 1.71 C 16.1 km/h
1859 07-12-2014 17:50:00 4.9 C 5.94 g/m*3 1.7 C 14.5 km/h
1860 07-12-2014 17:55:00 4.8 C 5.97 g/m*3 1.58 C 14.5 km/h
1861 07-12-2014 18:00:00 4.8 C 5.97 g/m*3 1.58 C 14.5 km/h
1862 07-12-2014 18:05:00 4.7 C 6 g/m*3 2.37 C 9.7 km/h
1863 07-12-2014 18:10:00 4.6 C 5.96 g/m*3 1.91 C 11.3 km/h
1864 07-12-2014 18:15:00 4.5 C 5.98 g/m*3 0.74 C 17.7 km/h
1865 07-12-2014 18:20:00 4.5 C 5.98 g/m*3 1.79 C 11.3 km/h
1866 07-12-2014 18:25:00 4.4 C 5.94 g/m*3 2.01 C 9.7 km/h
1867 07-12-2014 18:30:00 4.4 C 5.94 g/m*3 2.01 C 9.7 km/h
1868 07-12-2014 18:35:00 4.4 C 5.94 g/m*3 4.4 C 4.8 km/h
1869 07-12-2014 18:40:00 4.3 C 5.97 g/m*3 4.3 C 3.2 km/h
1870 07-12-2014 18:45:00 4.3 C 5.97 g/m*3 4.3 C 4.8 km/h
1871 07-12-2014 18:50:00 4.3 C 5.97 g/m*3 4.3 C 3.2 km/h
1872 07-12-2014 18:55:00 4.3 C 6.03 g/m*3 4.3 C 4.8 km/h
1873 07-12-2014 19:00:00 4.3 C 5.97 g/m*3 4.3 C 3.2 km/h
1874 07-12-2014 19:05:00 4.3 C 5.97 g/m*3 4.3 C 3.2 km/h
1875 07-12-2014 19:10:00 4.3 C 5.97 g/m*3 4.3 C 4.8 km/h
Sensor: Nr:Datum:Temp:Abs-Feuchte:Windchill:Wind:
Aussen-T/F 1876 07-12-2014 19:15:00 4.3 C 5.97 g/m*3 4.3 C 1.6 km/h
1877 07-12-2014 19:20:00 4.3 C 5.97 g/m*3 4.3 C 3.2 km/h
1878 07-12-2014 19:25:00 4.2 C 5.93 g/m*3 4.2 C 3.2 km/h
1879 07-12-2014 19:30:00 4.2 C 5.93 g/m*3 2.17 C 8.1 km/h
1880 07-12-2014 19:35:00 4.2 C 5.86 g/m*3 0.84 C 14.5 km/h
1881 07-12-2014 19:40:00 4.3 C 5.9 g/m*3 1.89 C 9.7 km/h
1882 07-12-2014 19:45:00 4.3 C 5.9 g/m*3 1.89 C 9.7 km/h
1883 07-12-2014 19:50:00 4.3 C 5.9 g/m*3 1.89 C 9.7 km/h
1884 07-12-2014 19:55:00 4.2 C 5.86 g/m*3 0.84 C 14.5 km/h
1885 07-12-2014 20:00:00 4.2 C 5.93 g/m*3 1.77 C 9.7 km/h
1886 07-12-2014 20:05:00 4.2 C 5.93 g/m*3 0.15 C 19.3 km/h
1887 07-12-2014 20:10:00 4.2 C 5.93 g/m*3 0.36 C 17.7 km/h
1888 07-12-2014 20:15:00 4.2 C 5.86 g/m*3 0.36 C 17.7 km/h
1889 07-12-2014 20:20:00 4.2 C 5.93 g/m*3 1.43 C 11.3 km/h
1890 07-12-2014 20:25:00 4.2 C 5.86 g/m*3 1.12 C 12.9 km/h
1891 07-12-2014 20:30:00 4.2 C 5.86 g/m*3 1.77 C 9.7 km/h
1892 07-12-2014 20:35:00 4.2 C 5.93 g/m*3 1.77 C 9.7 km/h
1893 07-12-2014 20:40:00 4.2 C 5.93 g/m*3 2.67 C 6.4 km/h
1894 07-12-2014 20:45:00 4.2 C 5.93 g/m*3 1.43 C 11.3 km/h
1895 07-12-2014 20:50:00 4.2 C 5.93 g/m*3 4.2 C 4.8 km/h
1896 07-12-2014 20:55:00 4.2 C 5.93 g/m*3 0.84 C 14.5 km/h
1897 07-12-2014 21:00:00 4.2 C 5.93 g/m*3 1.77 C 9.7 km/h
1898 07-12-2014 21:05:00 4.3 C 5.9 g/m*3 0.27 C 19.3 km/h
1899 07-12-2014 21:10:00 4.3 C 5.9 g/m*3 1.55 C 11.3 km/h
1900 07-12-2014 21:15:00 4.3 C 5.9 g/m*3 1.55 C 11.3 km/h
Sensor: Nr:Datum:Temp:Abs-Feuchte:Windchill:Wind:
Aussen-T/F 1901 07-12-2014 21:20:00 4.3 C 5.9 g/m*3 1.24 C 12.9 km/h
1902 07-12-2014 21:25:00 4.4 C 5.94 g/m*3 2.01 C 9.7 km/h
1903 07-12-2014 21:30:00 4.4 C 5.94 g/m*3 0.4 C 19.3 km/h
1904 07-12-2014 21:35:00 4.4 C 5.94 g/m*3 1.67 C 11.3 km/h
1905 07-12-2014 21:40:00 4.4 C 5.94 g/m*3 2.01 C 9.7 km/h
1906 07-12-2014 21:45:00 4.4 C 5.94 g/m*3 0.4 C 19.3 km/h
1907 07-12-2014 21:50:00 4.4 C 5.94 g/m*3 0.4 C 19.3 km/h
1908 07-12-2014 21:55:00 4.4 C 5.94 g/m*3 1.09 C 14.5 km/h
1909 07-12-2014 22:00:00 4.4 C 5.94 g/m*3 1.36 C 12.9 km/h
1910 07-12-2014 22:05:00 4.4 C 5.94 g/m*3 0.2 C 20.9 km/h
1911 07-12-2014 22:10:00 4.4 C 5.94 g/m*3 1.67 C 11.3 km/h
1912 07-12-2014 22:15:00 4.4 C 5.94 g/m*3 1.09 C 14.5 km/h
1913 07-12-2014 22:20:00 4.4 C 5.94 g/m*3 0.2 C 20.9 km/h
1914 07-12-2014 22:25:00 4.4 C 5.94 g/m*3 1.67 C 11.3 km/h
1915 07-12-2014 22:30:00 4.4 C 5.94 g/m*3 -0.33 C 25.7 km/h
1916 07-12-2014 22:35:00 4.4 C 5.94 g/m*3 1.36 C 12.9 km/h
1917 07-12-2014 22:40:00 4.5 C 5.98 g/m*3 0.74 C 17.7 km/h
1918 07-12-2014 22:45:00 4.4 C 5.94 g/m*3 1.09 C 14.5 km/h
1919 07-12-2014 22:50:00 4.4 C 5.94 g/m*3 1.09 C 14.5 km/h
1920 07-12-2014 22:55:00 4.4 C 5.94 g/m*3 2.01 C 9.7 km/h
1921 07-12-2014 23:00:00 4.4 C 5.94 g/m*3 1.09 C 14.5 km/h
1922 07-12-2014 23:05:00 4.4 C 5.94 g/m*3 1.09 C 14.5 km/h
1923 07-12-2014 23:10:00 4.4 C 5.94 g/m*3 1.09 C 14.5 km/h
1924 07-12-2014 23:15:00 4.5 C 5.98 g/m*3 1.48 C 12.9 km/h
1925 07-12-2014 23:20:00 4.5 C 5.98 g/m*3 1.48 C 12.9 km/h
Sensor: Nr:Datum:Temp:Abs-Feuchte:Windchill:Wind:
Aussen-T/F 1926 07-12-2014 23:25:00 4.5 C 5.98 g/m*3 1.79 C 11.3 km/h
1927 07-12-2014 23:30:00 4.4 C 5.94 g/m*3 1.67 C 11.3 km/h
1928 07-12-2014 23:35:00 4.4 C 5.94 g/m*3 2.01 C 9.7 km/h
1929 07-12-2014 23:40:00 4.5 C 5.98 g/m*3 1.48 C 12.9 km/h
1930 07-12-2014 23:45:00 4.6 C 6.02 g/m*3 0.86 C 17.7 km/h
1931 07-12-2014 23:50:00 4.6 C 6.02 g/m*3 1.61 C 12.9 km/h
1932 07-12-2014 23:55:00 4.6 C 6.02 g/m*3 1.91 C 11.3 km/h

Legende:
   Min
   Max


Maximal/Minimal-Werte vom 01.12.2014 - 07.12.2014

Sensor Min Max Avg
Temp
(Aussen-T/F)
1.1 °C
02-12-2014  21:50:00
5.8 °C
07-12-2014  13:40:00
3.21 °C
Abs-Feuchte
(Aussen-T/F)
4.74 g/m*3
03-12-2014  20:15:00
6.7 g/m*3
06-12-2014  18:35:00
5.61 g/m*3
Windchill
(Aussen-T/F)
-0.54 C
01-12-2014  23:45:00
5.4 C
05-12-2014  14:40:00
2.84 C

Die Daten stammen von einer Davis Vantage Pro 2 Wetter-Station und werden unter Linux mit der Software wview2wettercgi und aufbereitet. Alle Angaben erfolgen ohne Gewähr für ihre Vollständigkeit oder Richtigkeit.
Kontakt: Rainer Krienke krienke@uni-koblenz.de . Meine Webseiten an der Uni Koblenz oder privat.
Version: $Revision: 0.78 $